Darstellungsparameter: Aktuell verwendete Einstellungen:
Skalierung der Graphiken ... ?
xyx+y,   Skalierungsfaktor:      Skalierung: Modus: x, Faktor: 1
Darstellungszeitraum ... ?
Vom - - bis: - -   Zeitraum: 16.04.2009 - 15.05.2009
Min/Max/Avg-Anzeige ... ?
Zeige MMA aktuell
Zeige MMA Monat
Zeige MMA alles
Zeige --A aktuell
Zeige --A Monat
Zeige --A alles
Keine MMA-Anzeige
MMA:
Average (ber die Originaldaten)
MMA-Basis: 16.04.2009 - 15.05.2009
Quicknavigation für Darstellung... ?
Tage:      1T, 2T, 3T, 5T -1T -2T -3T -5T +1T +2T +3T +5T
Wochen: 1W, 2W, 3W -1W -2W -3W +1W +2W +3W
Monate: 1M, 3M, 6M -1M -3M -6M +1M +3M +6M
Jahre:    1J, 3J, 5J, 10J -1J -3J -5J -10J +1J +3J +5J +10J
Nutze für die Darstellung ... ?
Originaldaten oder Mittelwerte auf ...
Stundenbasis Tagesbasis Wochenbasis
Monatsbasis Jahresbasis      Datenbasis: Original-Daten
Darstellen als:
Statistik (Auto) Statistik J:M      Darstellung:
Zur Graphik,    zurück zur Übersicht aller Sensoren.
 
Tabellarische Datenbersicht: ?
 
Sensor: Nr:Datum:Temp:Abs-Feuchte:Windchill:Wind:
Aussen-T/F 1 16-04-2009 00:00:13 14.3 C 5.53 g/m*3 14.3 C 0 km/h
2 16-04-2009 00:12:14 14.1 C 5.7 g/m*3 14.1 C 0 km/h
3 16-04-2009 00:24:14 13.8 C 6.08 g/m*3 13.8 C 0 km/h
4 16-04-2009 00:36:14 13.6 C 5.88 g/m*3 13.6 C 0 km/h
5 16-04-2009 00:48:14 13.3 C 5.78 g/m*3 13.3 C 0 km/h
6 16-04-2009 01:00:14 13.1 C 5.71 g/m*3 13.1 C 0 km/h
7 16-04-2009 01:12:14 12.9 C 5.86 g/m*3 12.9 C 0 km/h
8 16-04-2009 01:24:14 12.7 C 5.9 g/m*3 12.7 C 0 km/h
9 16-04-2009 01:36:14 12.6 C 5.97 g/m*3 12.6 C 0 km/h
10 16-04-2009 01:48:14 12.6 C 5.97 g/m*3 12.6 C 0 km/h
11 16-04-2009 02:00:14 12.6 C 5.97 g/m*3 12.6 C 0 km/h
12 16-04-2009 02:12:14 12.3 C 5.97 g/m*3 12.3 C 0 km/h
13 16-04-2009 02:24:14 12.2 C 6.04 g/m*3 12.2 C 0 km/h
14 16-04-2009 02:36:14 12 C 6.07 g/m*3 12 C 0 km/h
15 16-04-2009 02:48:14 11.7 C 6.07 g/m*3 11.7 C 0 km/h
16 16-04-2009 03:00:14 11.5 C 6.09 g/m*3 11.5 C 0 km/h
17 16-04-2009 03:12:14 11.4 C 6.16 g/m*3 11.4 C 0 km/h
18 16-04-2009 03:24:14 11.2 C 6.18 g/m*3 11.2 C 0 km/h
19 16-04-2009 03:36:14 11.1 C 6.14 g/m*3 11.1 C 0 km/h
20 16-04-2009 03:48:14 11.2 C 6.39 g/m*3 11.2 C 0 km/h
21 16-04-2009 04:00:14 11.2 C 6.39 g/m*3 11.2 C 0 km/h
22 16-04-2009 04:12:14 12.6 C 5.97 g/m*3 12.6 C 0 km/h
23 16-04-2009 04:24:15 13 C 5.9 g/m*3 13 C 0 km/h
24 16-04-2009 04:36:15 12.9 C 5.97 g/m*3 12.9 C 0 km/h
25 16-04-2009 04:48:15 12.4 C 6.01 g/m*3 12.4 C 0 km/h
Sensor: Nr:Datum:Temp:Abs-Feuchte:Windchill:Wind:
Aussen-T/F 26 16-04-2009 05:00:15 12.1 C 5.9 g/m*3 12.1 C 0 km/h
27 16-04-2009 05:12:15 11.7 C 5.96 g/m*3 11.7 C 0 km/h
28 16-04-2009 05:24:15 11.3 C 5.92 g/m*3 11.3 C 0 km/h
29 16-04-2009 05:36:15 11.2 C 6.08 g/m*3 11.2 C 0 km/h
30 16-04-2009 05:48:15 11.1 C 6.04 g/m*3 11.1 C 0 km/h
31 16-04-2009 06:00:15 11.1 C 6.14 g/m*3 11.1 C 0 km/h
32 16-04-2009 06:12:15 11.1 C 6.25 g/m*3 11.1 C 0 km/h
33 16-04-2009 06:24:15 11.1 C 6.35 g/m*3 11.1 C 0 km/h
34 16-04-2009 06:36:15 11.1 C 6.35 g/m*3 11.1 C 0 km/h
35 16-04-2009 06:48:15 11.1 C 6.25 g/m*3 11.1 C 0 km/h
36 16-04-2009 07:00:15 10.9 C 6.27 g/m*3 10.9 C 0 km/h
37 16-04-2009 07:12:15 10.8 C 6.42 g/m*3 10.8 C 0 km/h
38 16-04-2009 07:24:15 10.7 C 6.38 g/m*3 10.7 C 0 km/h
39 16-04-2009 07:36:13 10.8 C 6.33 g/m*3 10.8 C 0 km/h
40 16-04-2009 07:48:12 10.8 C 6.23 g/m*3 10.8 C 0 km/h
41 16-04-2009 08:00:12 11 C 6.21 g/m*3 11 C 0 km/h
42 16-04-2009 08:12:12 11 C 6.11 g/m*3 11 C 0 km/h
43 16-04-2009 08:24:12 11.4 C 6.26 g/m*3 11.4 C 0 km/h
44 16-04-2009 08:36:12 12 C 6.18 g/m*3 12 C 0 km/h
45 16-04-2009 08:48:11 12.3 C 6.19 g/m*3 12.3 C 0 km/h
46 16-04-2009 09:00:12 12.6 C 6.31 g/m*3 12.6 C 0 km/h
47 16-04-2009 09:12:12 13 C 6.24 g/m*3 13 C 0 km/h
48 16-04-2009 09:24:12 13.4 C 6.39 g/m*3 13.4 C 0 km/h
49 16-04-2009 09:36:11 13.9 C 6.47 g/m*3 13.9 C 0 km/h
50 16-04-2009 09:48:12 14.5 C 6.59 g/m*3 14.5 C 0 km/h
Sensor: Nr:Datum:Temp:Abs-Feuchte:Windchill:Wind:
Aussen-T/F 51 16-04-2009 10:00:11 15 C 6.54 g/m*3 15 C 0 km/h
52 16-04-2009 10:12:11 15.6 C 6.52 g/m*3 15.6 C 0 km/h
53 16-04-2009 10:24:11 16 C 6.4 g/m*3 16 C 0 km/h
54 16-04-2009 10:36:10 16.4 C 6.42 g/m*3 16.4 C 0 km/h
55 16-04-2009 10:48:11 16.7 C 6.54 g/m*3 16.7 C 0 km/h
56 16-04-2009 11:00:10 17.4 C 6.67 g/m*3 17.4 C 0 km/h
57 16-04-2009 11:12:10 17.9 C 6.72 g/m*3 17.9 C 0 km/h
58 16-04-2009 11:24:10 18.3 C 6.41 g/m*3 18.3 C 0 km/h
59 16-04-2009 11:36:11 19.2 C 6.76 g/m*3 19.2 C 0 km/h
60 16-04-2009 11:48:10 19.2 C 6.43 g/m*3 19.2 C 0 km/h
61 16-04-2009 12:00:10 19.2 C 6.6 g/m*3 19.2 C 0 km/h
62 16-04-2009 12:12:10 19.5 C 6.38 g/m*3 19.5 C 0 km/h
63 16-04-2009 12:24:10 19.3 C 6.3 g/m*3 19.3 C 0 km/h
64 16-04-2009 12:36:10 20 C 6.05 g/m*3 20 C 0 km/h
65 16-04-2009 12:48:09 19.7 C 6.11 g/m*3 19.7 C 0 km/h
66 16-04-2009 13:00:09 20.8 C 6.34 g/m*3 20.8 C 0 km/h
67 16-04-2009 13:12:09 21.3 C 6.15 g/m*3 21.3 C 0 km/h
68 16-04-2009 13:24:09 21.8 C 5.95 g/m*3 21.8 C 0 km/h
69 16-04-2009 13:36:10 21.6 C 5.5 g/m*3 21.6 C 0 km/h
70 16-04-2009 13:48:09 20.2 C 5.6 g/m*3 20.2 C 0 km/h
71 16-04-2009 14:00:09 21.1 C 5.9 g/m*3 21.1 C 0 km/h
72 16-04-2009 14:12:09 20.6 C 5.55 g/m*3 20.6 C 0 km/h
73 16-04-2009 14:24:08 20.6 C 5.55 g/m*3 20.6 C 0 km/h
74 16-04-2009 14:36:08 21.3 C 5.59 g/m*3 21.3 C 0 km/h
75 16-04-2009 14:48:09 21.9 C 5.21 g/m*3 21.9 C 0 km/h
Sensor: Nr:Datum:Temp:Abs-Feuchte:Windchill:Wind:
Aussen-T/F 76 16-04-2009 15:00:08 21.6 C 5.31 g/m*3 21.6 C 0 km/h
77 16-04-2009 15:12:08 21.9 C 5.21 g/m*3 21.9 C 0 km/h
78 16-04-2009 15:24:08 21.2 C 5.37 g/m*3 21.2 C 0 km/h
79 16-04-2009 15:36:08 20.9 C 5.65 g/m*3 20.9 C 0 km/h
80 16-04-2009 15:48:08 20 C 6.57 g/m*3 20 C 0 km/h
81 16-04-2009 16:00:07 19.5 C 7.05 g/m*3 19.5 C 0 km/h
82 16-04-2009 16:12:07 19.2 C 6.93 g/m*3 19.2 C 0 km/h
83 16-04-2009 16:24:07 19.1 C 6.88 g/m*3 19.1 C 0 km/h
84 16-04-2009 16:36:08 19 C 6.84 g/m*3 19 C 0 km/h
85 16-04-2009 16:48:07 18.9 C 6.97 g/m*3 18.9 C 0 km/h
86 16-04-2009 17:00:07 18.5 C 7.12 g/m*3 18.5 C 0 km/h
87 16-04-2009 17:12:07 18.1 C 6.95 g/m*3 18.1 C 0 km/h
88 16-04-2009 17:24:07 18.1 C 7.11 g/m*3 18.1 C 0 km/h
89 16-04-2009 17:36:07 17.9 C 7.02 g/m*3 17.9 C 0 km/h
90 16-04-2009 17:48:06 17.8 C 7.13 g/m*3 17.8 C 0 km/h
91 16-04-2009 18:00:07 17.8 C 7.13 g/m*3 17.8 C 0 km/h
92 16-04-2009 18:12:08 17.2 C 7.32 g/m*3 17.2 C 0 km/h
93 16-04-2009 18:24:06 16.3 C 7.35 g/m*3 16.3 C 0 km/h
94 16-04-2009 18:36:06 15.7 C 7.89 g/m*3 15.7 C 0 km/h
95 16-04-2009 18:48:06 15.3 C 8.1 g/m*3 15.3 C 0 km/h
96 16-04-2009 19:00:06 15.1 C 7.87 g/m*3 15.1 C 0 km/h
97 16-04-2009 19:12:06 15.2 C 7.79 g/m*3 15.2 C 0 km/h
98 16-04-2009 19:24:06 14.5 C 7.71 g/m*3 14.5 C 0 km/h
99 16-04-2009 19:36:05 14.3 C 7.74 g/m*3 14.3 C 0 km/h
100 16-04-2009 19:48:06 14.1 C 7.89 g/m*3 14.1 C 0 km/h
Sensor: Nr:Datum:Temp:Abs-Feuchte:Windchill:Wind:
Aussen-T/F 101 16-04-2009 20:00:05 13.8 C 8.1 g/m*3 13.8 C 0 km/h
102 16-04-2009 20:12:05 13.4 C 8.02 g/m*3 13.4 C 0 km/h
103 16-04-2009 20:24:05 13.1 C 7.99 g/m*3 13.1 C 0 km/h
104 16-04-2009 20:36:05 13.3 C 8.09 g/m*3 13.3 C 0 km/h
105 16-04-2009 20:48:05 13.2 C 8.04 g/m*3 13.2 C 0 km/h
106 16-04-2009 21:00:05 13.1 C 7.99 g/m*3 13.1 C 0 km/h
107 16-04-2009 21:12:05 13 C 8.05 g/m*3 13 C 0 km/h
108 16-04-2009 21:24:04 12.9 C 8.11 g/m*3 12.9 C 0 km/h
109 16-04-2009 21:36:05 13 C 8.05 g/m*3 13 C 0 km/h
110 16-04-2009 21:48:04 13.2 C 7.92 g/m*3 13.2 C 0 km/h
111 16-04-2009 22:00:04 13.2 C 7.92 g/m*3 13.2 C 0 km/h
112 16-04-2009 22:12:04 13.1 C 7.87 g/m*3 13.1 C 0 km/h
113 16-04-2009 22:24:03 13.1 C 7.87 g/m*3 13.1 C 0 km/h
114 16-04-2009 22:37:05 13.1 C 7.87 g/m*3 13.1 C 0 km/h
115 16-04-2009 22:49:05 13.1 C 7.87 g/m*3 13.1 C 0 km/h
116 16-04-2009 23:01:06 12.9 C 7.78 g/m*3 12.9 C 0 km/h
117 16-04-2009 23:13:06 12.8 C 7.84 g/m*3 12.8 C 0 km/h
118 16-04-2009 23:25:06 12.8 C 7.84 g/m*3 12.8 C 0 km/h
119 16-04-2009 23:37:06 12.7 C 7.79 g/m*3 12.7 C 0 km/h
120 16-04-2009 23:49:06 12.6 C 7.74 g/m*3 12.6 C 0 km/h
121 17-04-2009 00:01:06 12.5 C 7.7 g/m*3 12.5 C 0 km/h
122 17-04-2009 00:13:06 12.4 C 7.87 g/m*3 12.4 C 0 km/h
123 17-04-2009 00:25:06 12.1 C 7.94 g/m*3 12.1 C 0 km/h
124 17-04-2009 00:37:06 11.7 C 8.26 g/m*3 11.7 C 0 km/h
125 17-04-2009 00:49:06 11.2 C 8.41 g/m*3 11.2 C 0 km/h
Sensor: Nr:Datum:Temp:Abs-Feuchte:Windchill:Wind:
Aussen-T/F 126 17-04-2009 01:01:06 11 C 8.61 g/m*3 11 C 0 km/h
127 17-04-2009 01:13:06 11 C 8.71 g/m*3 11 C 0 km/h
128 17-04-2009 01:25:06 10.8 C 8.8 g/m*3 10.8 C 0 km/h
129 17-04-2009 01:37:06 10.7 C 8.84 g/m*3 10.7 C 0 km/h
130 17-04-2009 01:49:06 10.6 C 8.78 g/m*3 10.6 C 0 km/h
131 17-04-2009 02:01:06 10.5 C 8.83 g/m*3 10.5 C 0 km/h
132 17-04-2009 02:13:06 10.5 C 8.83 g/m*3 10.5 C 0 km/h
133 17-04-2009 02:25:06 10.4 C 8.87 g/m*3 10.4 C 0 km/h
134 17-04-2009 02:37:06 10.4 C 8.87 g/m*3 10.4 C 0 km/h
135 17-04-2009 02:49:06 10.3 C 8.81 g/m*3 10.3 C 0 km/h
136 17-04-2009 03:01:06 10.3 C 8.91 g/m*3 10.3 C 0 km/h
137 17-04-2009 03:13:07 10.3 C 8.91 g/m*3 10.3 C 0 km/h
138 17-04-2009 03:25:07 10.2 C 8.85 g/m*3 10.2 C 0 km/h
139 17-04-2009 03:37:07 10.2 C 8.85 g/m*3 10.2 C 0 km/h
140 17-04-2009 03:49:07 10.2 C 8.85 g/m*3 10.2 C 0 km/h
141 17-04-2009 04:01:07 10.2 C 8.95 g/m*3 10.2 C 0 km/h
142 17-04-2009 04:13:07 10.2 C 8.95 g/m*3 10.2 C 0 km/h
143 17-04-2009 04:25:07 10.2 C 8.95 g/m*3 10.2 C 0 km/h
144 17-04-2009 04:37:07 10.1 C 8.89 g/m*3 10.1 C 0 km/h
145 17-04-2009 04:49:07 10.1 C 8.89 g/m*3 10.1 C 0 km/h
146 17-04-2009 05:01:07 10 C 8.83 g/m*3 10 C 0 km/h
147 17-04-2009 05:13:07 10 C 8.83 g/m*3 10 C 0 km/h
148 17-04-2009 05:25:07 10 C 8.83 g/m*3 10 C 0 km/h
149 17-04-2009 05:37:07 10 C 8.93 g/m*3 10 C 0 km/h
150 17-04-2009 05:49:07 9.9 C 8.87 g/m*3 9.9 C 0 km/h
Sensor: Nr:Datum:Temp:Abs-Feuchte:Windchill:Wind:
Aussen-T/F 151 17-04-2009 06:01:07 9.9 C 8.87 g/m*3 9.9 C 0 km/h
152 17-04-2009 06:13:07 9.9 C 8.87 g/m*3 9.9 C 0 km/h
153 17-04-2009 06:25:07 9.9 C 8.87 g/m*3 9.9 C 0 km/h
154 17-04-2009 06:37:07 9.8 C 8.81 g/m*3 9.8 C 0 km/h
155 17-04-2009 06:49:07 9.9 C 8.87 g/m*3 9.9 C 0 km/h
156 17-04-2009 07:01:04 9.8 C 8.81 g/m*3 9.8 C 0 km/h
157 17-04-2009 07:13:04 9.8 C 8.81 g/m*3 9.8 C 0 km/h
158 17-04-2009 07:25:04 9.8 C 8.81 g/m*3 9.8 C 0 km/h
159 17-04-2009 07:37:05 9.8 C 8.81 g/m*3 9.8 C 0 km/h
160 17-04-2009 07:49:04 9.8 C 8.81 g/m*3 9.8 C 0 km/h
161 17-04-2009 08:01:04 9.9 C 8.87 g/m*3 9.9 C 0 km/h
162 17-04-2009 08:13:04 9.9 C 8.87 g/m*3 9.9 C 0 km/h
163 17-04-2009 08:25:04 9.9 C 8.87 g/m*3 9.9 C 0 km/h
164 17-04-2009 08:37:04 10 C 8.93 g/m*3 10 C 0 km/h
165 17-04-2009 08:49:03 10 C 8.93 g/m*3 10 C 0 km/h
166 17-04-2009 09:01:04 10 C 8.93 g/m*3 10 C 0 km/h
167 17-04-2009 09:13:04 10 C 8.93 g/m*3 10 C 0 km/h
168 17-04-2009 09:25:03 10.1 C 8.89 g/m*3 10.1 C 0 km/h
169 17-04-2009 09:37:03 10.2 C 8.95 g/m*3 10.2 C 0 km/h
170 17-04-2009 09:49:03 10.2 C 8.95 g/m*3 10.2 C 0 km/h
171 17-04-2009 10:01:03 10.2 C 8.95 g/m*3 10.2 C 0 km/h
172 17-04-2009 10:13:03 10.3 C 9 g/m*3 10.3 C 0 km/h
173 17-04-2009 10:25:02 10.2 C 8.85 g/m*3 10.2 C 0 km/h
174 17-04-2009 10:37:02 10.2 C 8.85 g/m*3 10.2 C 0 km/h
175 17-04-2009 10:49:03 10.2 C 8.76 g/m*3 10.2 C 0 km/h
Sensor: Nr:Datum:Temp:Abs-Feuchte:Windchill:Wind:
Aussen-T/F 176 17-04-2009 11:01:02 10.2 C 8.76 g/m*3 10.2 C 0 km/h
177 17-04-2009 11:13:02 10.2 C 8.66 g/m*3 10.2 C 0 km/h
178 17-04-2009 11:25:02 10.2 C 8.56 g/m*3 10.2 C 0 km/h
179 17-04-2009 11:37:02 10.2 C 8.56 g/m*3 10.2 C 0 km/h
180 17-04-2009 11:49:02 10.2 C 8.47 g/m*3 10.2 C 0 km/h
181 17-04-2009 12:01:01 10.1 C 8.42 g/m*3 10.1 C 0 km/h
182 17-04-2009 12:13:01 10.2 C 8.47 g/m*3 10.2 C 0 km/h
183 17-04-2009 12:25:02 10.1 C 8.32 g/m*3 10.1 C 0 km/h
184 17-04-2009 12:37:01 10.1 C 8.32 g/m*3 10.1 C 0 km/h
185 17-04-2009 12:49:01 10 C 8.27 g/m*3 10 C 0 km/h
186 17-04-2009 13:01:01 10 C 8.36 g/m*3 10 C 0 km/h
187 17-04-2009 13:13:01 10 C 8.36 g/m*3 10 C 0 km/h
188 17-04-2009 13:25:01 10.3 C 8.52 g/m*3 10.3 C 0 km/h
189 17-04-2009 13:37:01 10.3 C 8.52 g/m*3 10.3 C 0 km/h
190 17-04-2009 13:49:01 10.4 C 8.58 g/m*3 10.4 C 0 km/h
191 17-04-2009 14:01:01 10.4 C 8.58 g/m*3 10.4 C 0 km/h
192 17-04-2009 14:13:01 10.5 C 8.63 g/m*3 10.5 C 0 km/h
193 17-04-2009 14:25:00 10.7 C 8.74 g/m*3 10.7 C 0 km/h
194 17-04-2009 14:37:00 10.5 C 8.63 g/m*3 10.5 C 0 km/h
195 17-04-2009 14:49:00 10.6 C 8.69 g/m*3 10.6 C 0 km/h
196 17-04-2009 15:01:00 10.5 C 8.63 g/m*3 10.5 C 0 km/h
197 17-04-2009 15:13:00 10.4 C 8.58 g/m*3 10.4 C 0 km/h
198 17-04-2009 15:25:59 10.2 C 8.56 g/m*3 10.2 C 0 km/h
199 17-04-2009 15:37:00 10 C 8.46 g/m*3 10 C 0 km/h
200 17-04-2009 15:49:00 9.9 C 8.5 g/m*3 9.9 C 0 km/h
Sensor: Nr:Datum:Temp:Abs-Feuchte:Windchill:Wind:
Aussen-T/F 201 17-04-2009 16:01:59 9.9 C 8.5 g/m*3 9.9 C 0 km/h
202 17-04-2009 16:12:59 9.8 C 8.54 g/m*3 9.8 C 0 km/h
203 17-04-2009 16:24:59 9.7 C 8.48 g/m*3 9.7 C 0 km/h
204 17-04-2009 16:37:59 9.6 C 8.43 g/m*3 9.6 C 0 km/h
205 17-04-2009 16:49:59 9.6 C 8.43 g/m*3 9.6 C 0 km/h
206 17-04-2009 17:01:58 9.6 C 8.52 g/m*3 9.6 C 0 km/h
207 17-04-2009 17:13:59 9.6 C 8.52 g/m*3 9.6 C 0 km/h
208 17-04-2009 17:25:59 9.5 C 8.47 g/m*3 9.5 C 0 km/h
209 17-04-2009 17:37:58 9.5 C 8.47 g/m*3 9.5 C 0 km/h
210 17-04-2009 17:49:58 9.5 C 8.47 g/m*3 9.5 C 0 km/h
211 17-04-2009 18:01:59 9.5 C 8.47 g/m*3 9.5 C 0 km/h
212 17-04-2009 18:13:58 9.6 C 8.61 g/m*3 9.6 C 0 km/h
213 17-04-2009 18:25:58 9.5 C 8.56 g/m*3 9.5 C 0 km/h
214 17-04-2009 18:37:58 9.5 C 8.56 g/m*3 9.5 C 0 km/h
215 17-04-2009 18:49:58 9.5 C 8.56 g/m*3 9.5 C 0 km/h
216 17-04-2009 19:01:58 9.5 C 8.56 g/m*3 9.5 C 0 km/h
217 17-04-2009 19:13:57 9.6 C 8.61 g/m*3 9.6 C 0 km/h
218 17-04-2009 19:25:57 9.5 C 8.56 g/m*3 9.5 C 0 km/h
219 17-04-2009 19:37:57 9.5 C 8.56 g/m*3 9.5 C 0 km/h
220 17-04-2009 19:49:57 9.5 C 8.56 g/m*3 9.5 C 0 km/h
221 17-04-2009 20:01:57 9.6 C 8.7 g/m*3 9.6 C 0 km/h
222 17-04-2009 20:13:57 9.6 C 8.7 g/m*3 9.6 C 0 km/h
223 17-04-2009 20:25:57 9.7 C 8.76 g/m*3 9.7 C 0 km/h
224 17-04-2009 20:37:57 9.7 C 8.76 g/m*3 9.7 C 0 km/h
225 17-04-2009 20:49:57 9.8 C 8.81 g/m*3 9.8 C 0 km/h
Sensor: Nr:Datum:Temp:Abs-Feuchte:Windchill:Wind:
Aussen-T/F 226 17-04-2009 21:01:57 9.8 C 8.81 g/m*3 9.8 C 0 km/h
227 17-04-2009 21:13:56 9.8 C 8.81 g/m*3 9.8 C 0 km/h
228 17-04-2009 21:25:56 9.8 C 8.81 g/m*3 9.8 C 0 km/h
229 17-04-2009 21:37:56 9.9 C 8.87 g/m*3 9.9 C 0 km/h
230 17-04-2009 21:49:56 9.9 C 8.87 g/m*3 9.9 C 0 km/h
231 17-04-2009 22:01:56 9.9 C 8.87 g/m*3 9.9 C 0 km/h
232 17-04-2009 22:13:56 9.9 C 8.87 g/m*3 9.9 C 0 km/h
233 17-04-2009 22:25:56 9.9 C 8.87 g/m*3 9.9 C 0 km/h
234 17-04-2009 22:38:55 9.8 C 8.81 g/m*3 9.8 C 0 km/h
235 17-04-2009 22:50:55 9.8 C 8.81 g/m*3 9.8 C 0 km/h
236 17-04-2009 23:02:55 9.7 C 8.76 g/m*3 9.7 C 0 km/h
237 17-04-2009 23:14:55 9.6 C 8.7 g/m*3 9.6 C 0 km/h
238 17-04-2009 23:26:55 9.5 C 8.65 g/m*3 9.5 C 0 km/h
239 17-04-2009 23:38:56 9.4 C 8.59 g/m*3 9.4 C 0 km/h
240 17-04-2009 23:50:56 9.4 C 8.59 g/m*3 9.4 C 0 km/h
241 18-04-2009 00:02:56 9.4 C 8.59 g/m*3 9.4 C 0 km/h
242 18-04-2009 00:14:56 9.4 C 8.59 g/m*3 9.4 C 0 km/h
243 18-04-2009 00:26:56 9.4 C 8.59 g/m*3 9.4 C 0 km/h
244 18-04-2009 00:38:56 9.4 C 8.59 g/m*3 9.4 C 0 km/h
245 18-04-2009 00:50:56 9.4 C 8.59 g/m*3 9.4 C 0 km/h
246 18-04-2009 01:02:56 9.4 C 8.59 g/m*3 9.4 C 0 km/h
247 18-04-2009 01:14:56 9.4 C 8.59 g/m*3 9.4 C 0 km/h
248 18-04-2009 01:26:56 9.4 C 8.59 g/m*3 9.4 C 0 km/h
249 18-04-2009 01:38:56 9.4 C 8.59 g/m*3 9.4 C 0 km/h
250 18-04-2009 01:50:56 9.4 C 8.59 g/m*3 9.4 C 0 km/h
Sensor: Nr:Datum:Temp:Abs-Feuchte:Windchill:Wind:
Aussen-T/F 251 18-04-2009 02:02:56 9.4 C 8.59 g/m*3 9.4 C 0 km/h
252 18-04-2009 02:14:56 9.4 C 8.59 g/m*3 9.4 C 0 km/h
253 18-04-2009 02:26:56 9.5 C 8.65 g/m*3 9.5 C 0 km/h
254 18-04-2009 02:38:56 9.5 C 8.65 g/m*3 9.5 C 0 km/h
255 18-04-2009 02:50:56 9.5 C 8.65 g/m*3 9.5 C 0 km/h
256 18-04-2009 03:02:56 9.5 C 8.65 g/m*3 9.5 C 0 km/h
257 18-04-2009 03:14:56 9.5 C 8.65 g/m*3 9.5 C 0 km/h
258 18-04-2009 03:26:56 9.4 C 8.59 g/m*3 9.4 C 0 km/h
259 18-04-2009 03:38:56 9.5 C 8.65 g/m*3 9.5 C 0 km/h
260 18-04-2009 03:50:57 9.4 C 8.59 g/m*3 9.4 C 0 km/h
261 18-04-2009 04:02:57 9.5 C 8.65 g/m*3 9.5 C 0 km/h
262 18-04-2009 04:14:57 9.6 C 8.7 g/m*3 9.6 C 0 km/h
263 18-04-2009 04:26:57 9.5 C 8.65 g/m*3 9.5 C 0 km/h
264 18-04-2009 04:38:57 9.6 C 8.7 g/m*3 9.6 C 0 km/h
265 18-04-2009 04:50:57 9.5 C 8.65 g/m*3 9.5 C 0 km/h
266 18-04-2009 05:02:57 9.5 C 8.65 g/m*3 9.5 C 0 km/h
267 18-04-2009 05:14:57 9.5 C 8.65 g/m*3 9.5 C 0 km/h
268 18-04-2009 05:26:57 9.5 C 8.65 g/m*3 9.5 C 0 km/h
269 18-04-2009 05:38:57 9.4 C 8.59 g/m*3 9.4 C 0 km/h
270 18-04-2009 05:50:57 9.4 C 8.59 g/m*3 9.4 C 0 km/h
271 18-04-2009 06:02:57 9.3 C 8.54 g/m*3 9.3 C 0 km/h
272 18-04-2009 06:14:57 9.4 C 8.59 g/m*3 9.4 C 0 km/h
273 18-04-2009 06:26:57 9.4 C 8.59 g/m*3 9.4 C 0 km/h
274 18-04-2009 06:38:57 9.4 C 8.59 g/m*3 9.4 C 0 km/h
275 18-04-2009 06:50:57 9.5 C 8.65 g/m*3 9.5 C 0 km/h
Sensor: Nr:Datum:Temp:Abs-Feuchte:Windchill:Wind:
Aussen-T/F 276 18-04-2009 07:02:57 9.5 C 8.65 g/m*3 9.5 C 0 km/h
277 18-04-2009 07:14:57 9.5 C 8.65 g/m*3 9.5 C 0 km/h
278 18-04-2009 07:26:57 9.6 C 8.7 g/m*3 9.6 C 0 km/h
279 18-04-2009 07:38:57 9.6 C 8.7 g/m*3 9.6 C 0 km/h
280 18-04-2009 07:50:58 9.6 C 8.7 g/m*3 9.6 C 0 km/h
281 18-04-2009 08:02:58 9.7 C 8.76 g/m*3 9.7 C 0 km/h
282 18-04-2009 08:14:58 9.7 C 8.76 g/m*3 9.7 C 0 km/h
283 18-04-2009 08:26:58 9.8 C 8.81 g/m*3 9.8 C 0 km/h
284 18-04-2009 08:38:56 9.9 C 8.87 g/m*3 9.9 C 0 km/h
285 18-04-2009 08:50:55 10 C 8.93 g/m*3 10 C 0 km/h
286 18-04-2009 09:02:55 10.1 C 8.98 g/m*3 10.1 C 0 km/h
287 18-04-2009 09:14:54 10 C 8.93 g/m*3 10 C 0 km/h
288 18-04-2009 09:26:54 10.1 C 8.98 g/m*3 10.1 C 0 km/h
289 18-04-2009 09:38:55 10 C 8.93 g/m*3 10 C 0 km/h
290 18-04-2009 09:50:54 9.8 C 8.81 g/m*3 9.8 C 0 km/h
291 18-04-2009 10:02:54 9.8 C 8.81 g/m*3 9.8 C 0 km/h
292 18-04-2009 10:14:54 9.7 C 8.76 g/m*3 9.7 C 0 km/h
293 18-04-2009 10:26:54 9.7 C 8.76 g/m*3 9.7 C 0 km/h
294 18-04-2009 10:38:54 9.8 C 8.72 g/m*3 9.8 C 0 km/h
295 18-04-2009 10:50:53 9.8 C 8.72 g/m*3 9.8 C 0 km/h
296 18-04-2009 11:02:54 9.6 C 8.61 g/m*3 9.6 C 0 km/h
297 18-04-2009 11:14:54 9.5 C 8.56 g/m*3 9.5 C 0 km/h
298 18-04-2009 11:26:54 9.8 C 8.72 g/m*3 9.8 C 0 km/h
299 18-04-2009 11:38:53 9.6 C 8.52 g/m*3 9.6 C 0 km/h
300 18-04-2009 11:50:54 9.6 C 8.52 g/m*3 9.6 C 0 km/h
Sensor: Nr:Datum:Temp:Abs-Feuchte:Windchill:Wind:
Aussen-T/F 301 18-04-2009 12:02:53 9.7 C 8.48 g/m*3 9.7 C 0 km/h
302 18-04-2009 12:14:53 9.6 C 8.43 g/m*3 9.6 C 0 km/h
303 18-04-2009 12:26:54 9.7 C 8.48 g/m*3 9.7 C 0 km/h
304 18-04-2009 12:38:52 9.8 C 8.63 g/m*3 9.8 C 0 km/h
305 18-04-2009 12:50:53 9.7 C 8.48 g/m*3 9.7 C 0 km/h
306 18-04-2009 13:02:52 9.8 C 8.63 g/m*3 9.8 C 0 km/h
307 18-04-2009 13:14:52 9.8 C 8.63 g/m*3 9.8 C 0 km/h
308 18-04-2009 13:26:52 9.6 C 8.52 g/m*3 9.6 C 0 km/h
309 18-04-2009 13:38:53 9.5 C 8.37 g/m*3 9.5 C 0 km/h
310 18-04-2009 13:50:52 9.6 C 8.52 g/m*3 9.6 C 0 km/h
311 18-04-2009 14:02:52 9.5 C 8.47 g/m*3 9.5 C 0 km/h
312 18-04-2009 14:14:52 9.4 C 8.41 g/m*3 9.4 C 0 km/h
313 18-04-2009 14:26:52 9.5 C 8.37 g/m*3 9.5 C 0 km/h
314 18-04-2009 14:38:52 9.5 C 8.19 g/m*3 9.5 C 0 km/h
315 18-04-2009 14:50:51 9.4 C 8.05 g/m*3 9.4 C 0 km/h
316 18-04-2009 15:02:52 9.5 C 8.1 g/m*3 9.5 C 0 km/h
317 18-04-2009 15:14:51 9.7 C 8.3 g/m*3 9.7 C 0 km/h
318 18-04-2009 15:26:51 9.8 C 8.35 g/m*3 9.8 C 0 km/h
319 18-04-2009 15:38:51 9.8 C 8.44 g/m*3 9.8 C 0 km/h
320 18-04-2009 15:50:51 9.8 C 8.44 g/m*3 9.8 C 0 km/h
321 18-04-2009 16:02:51 9.8 C 8.44 g/m*3 9.8 C 0 km/h
322 18-04-2009 16:14:51 10.1 C 8.51 g/m*3 10.1 C 0 km/h
323 18-04-2009 16:26:51 10.7 C 8.94 g/m*3 10.7 C 0 km/h
324 18-04-2009 16:38:50 11.1 C 9.07 g/m*3 11.1 C 0 km/h
325 18-04-2009 16:50:51 11.3 C 9.08 g/m*3 11.3 C 0 km/h
Sensor: Nr:Datum:Temp:Abs-Feuchte:Windchill:Wind:
Aussen-T/F 326 18-04-2009 17:02:50 11.4 C 9.03 g/m*3 11.4 C 0 km/h
327 18-04-2009 17:14:50 11.5 C 8.99 g/m*3 11.5 C 0 km/h
328 18-04-2009 17:26:50 11.6 C 9.04 g/m*3 11.6 C 0 km/h
329 18-04-2009 17:38:50 11.7 C 8.89 g/m*3 11.7 C 0 km/h
330 18-04-2009 17:50:50 11.5 C 8.57 g/m*3 11.5 C 0 km/h
331 18-04-2009 18:02:49 11.6 C 8.63 g/m*3 11.6 C 0 km/h
332 18-04-2009 18:14:50 11.3 C 8.47 g/m*3 11.3 C 0 km/h
333 18-04-2009 18:26:50 11.2 C 8.51 g/m*3 11.2 C 0 km/h
334 18-04-2009 18:38:50 11.1 C 8.56 g/m*3 11.1 C 0 km/h
335 18-04-2009 18:50:49 11.1 C 8.56 g/m*3 11.1 C 0 km/h
336 18-04-2009 19:02:50 11 C 8.61 g/m*3 11 C 0 km/h
337 18-04-2009 19:14:49 10.8 C 8.6 g/m*3 10.8 C 0 km/h
338 18-04-2009 19:26:49 10.6 C 8.49 g/m*3 10.6 C 0 km/h
339 18-04-2009 19:38:49 10.4 C 8.38 g/m*3 10.4 C 0 km/h
340 18-04-2009 19:50:49 10.2 C 8.28 g/m*3 10.2 C 0 km/h
341 18-04-2009 20:02:49 10.1 C 8.23 g/m*3 10.1 C 0 km/h
342 18-04-2009 20:14:48 10.1 C 8.13 g/m*3 10.1 C 0 km/h
343 18-04-2009 20:26:48 10.1 C 8.04 g/m*3 10.1 C 0 km/h
344 18-04-2009 20:38:48 9.9 C 8.12 g/m*3 9.9 C 0 km/h
345 18-04-2009 20:50:48 9.9 C 8.12 g/m*3 9.9 C 0 km/h
346 18-04-2009 21:02:48 9.8 C 8.07 g/m*3 9.8 C 0 km/h
347 18-04-2009 21:14:48 9.8 C 7.98 g/m*3 9.8 C 0 km/h
348 18-04-2009 21:26:48 9.8 C 7.98 g/m*3 9.8 C 0 km/h
349 18-04-2009 21:38:47 9.7 C 7.93 g/m*3 9.7 C 0 km/h
350 18-04-2009 21:50:48 9.8 C 8.07 g/m*3 9.8 C 0 km/h
Sensor: Nr:Datum:Temp:Abs-Feuchte:Windchill:Wind:
Aussen-T/F 351 18-04-2009 22:02:47 9.7 C 8.02 g/m*3 9.7 C 0 km/h
352 18-04-2009 22:14:47 9.6 C 8.06 g/m*3 9.6 C 0 km/h
353 18-04-2009 22:26:47 9.6 C 8.06 g/m*3 9.6 C 0 km/h
354 18-04-2009 22:38:48 9.6 C 8.06 g/m*3 9.6 C 0 km/h
355 18-04-2009 22:50:47 9.6 C 8.15 g/m*3 9.6 C 0 km/h
356 18-04-2009 23:03:49 9.6 C 8.15 g/m*3 9.6 C 0 km/h
357 18-04-2009 23:15:49 9.5 C 8.1 g/m*3 9.5 C 0 km/h
358 18-04-2009 23:27:49 9.3 C 8 g/m*3 9.3 C 0 km/h
359 18-04-2009 23:39:50 9.1 C 7.9 g/m*3 9.1 C 0 km/h
360 18-04-2009 23:51:50 9.1 C 7.99 g/m*3 9.1 C 0 km/h
361 19-04-2009 00:03:50 9.2 C 8.13 g/m*3 9.2 C 0 km/h
362 19-04-2009 00:15:50 9.4 C 8.23 g/m*3 9.4 C 0 km/h
363 19-04-2009 00:27:50 9.4 C 8.23 g/m*3 9.4 C 0 km/h
364 19-04-2009 00:39:50 9.5 C 8.19 g/m*3 9.5 C 0 km/h
365 19-04-2009 00:51:50 9.5 C 8.19 g/m*3 9.5 C 0 km/h
366 19-04-2009 01:03:50 9.6 C 8.15 g/m*3 9.6 C 0 km/h
367 19-04-2009 01:15:50 9.6 C 8.15 g/m*3 9.6 C 0 km/h
368 19-04-2009 01:27:50 9.6 C 8.15 g/m*3 9.6 C 0 km/h
369 19-04-2009 01:39:50 9.6 C 8.15 g/m*3 9.6 C 0 km/h
370 19-04-2009 01:51:50 9.6 C 8.15 g/m*3 9.6 C 0 km/h
371 19-04-2009 02:03:50 9.6 C 8.15 g/m*3 9.6 C 0 km/h
372 19-04-2009 02:15:50 9.7 C 8.2 g/m*3 9.7 C 0 km/h
373 19-04-2009 02:27:50 9.8 C 8.26 g/m*3 9.8 C 0 km/h
374 19-04-2009 02:39:50 9.8 C 8.26 g/m*3 9.8 C 0 km/h
375 19-04-2009 02:51:50 9.9 C 8.22 g/m*3 9.9 C 0 km/h
Sensor: Nr:Datum:Temp:Abs-Feuchte:Windchill:Wind:
Aussen-T/F 376 19-04-2009 03:03:50 9.9 C 8.22 g/m*3 9.9 C 0 km/h
377 19-04-2009 03:15:50 9.8 C 8.16 g/m*3 9.8 C 0 km/h
378 19-04-2009 03:27:51 9.8 C 8.16 g/m*3 9.8 C 0 km/h
379 19-04-2009 03:39:51 9.8 C 8.16 g/m*3 9.8 C 0 km/h
380 19-04-2009 03:51:51 9.8 C 8.16 g/m*3 9.8 C 0 km/h
381 19-04-2009 04:03:51 9.7 C 8.11 g/m*3 9.7 C 0 km/h
382 19-04-2009 04:15:51 9.4 C 7.96 g/m*3 9.4 C 0 km/h
383 19-04-2009 04:27:51 9.4 C 8.05 g/m*3 9.4 C 0 km/h
384 19-04-2009 04:39:51 9.3 C 8 g/m*3 9.3 C 0 km/h
385 19-04-2009 04:51:51 9.3 C 8 g/m*3 9.3 C 0 km/h
386 19-04-2009 05:03:51 9.3 C 8.09 g/m*3 9.3 C 0 km/h
387 19-04-2009 05:15:51 9.3 C 8.09 g/m*3 9.3 C 0 km/h
388 19-04-2009 05:27:51 9.4 C 8.05 g/m*3 9.4 C 0 km/h
389 19-04-2009 05:39:51 9.4 C 8.05 g/m*3 9.4 C 0 km/h
390 19-04-2009 05:51:51 9.3 C 8 g/m*3 9.3 C 0 km/h
391 19-04-2009 06:03:51 9.3 C 7.91 g/m*3 9.3 C 0 km/h
392 19-04-2009 06:15:51 9.3 C 7.91 g/m*3 9.3 C 0 km/h
393 19-04-2009 06:27:51 9.3 C 7.91 g/m*3 9.3 C 0 km/h
394 19-04-2009 06:39:51 9.3 C 7.91 g/m*3 9.3 C 0 km/h
395 19-04-2009 06:51:51 9.3 C 7.91 g/m*3 9.3 C 0 km/h
396 19-04-2009 07:03:51 9.3 C 7.91 g/m*3 9.3 C 0 km/h
397 19-04-2009 07:15:52 9.5 C 8.01 g/m*3 9.5 C 0 km/h
398 19-04-2009 07:27:52 9.6 C 8.06 g/m*3 9.6 C 0 km/h
399 19-04-2009 07:39:52 9.8 C 8.16 g/m*3 9.8 C 0 km/h
400 19-04-2009 07:51:52 10 C 8.08 g/m*3 10 C 0 km/h
Sensor: Nr:Datum:Temp:Abs-Feuchte:Windchill:Wind:
Aussen-T/F 401 19-04-2009 08:03:52 10.1 C 8.13 g/m*3 10.1 C 0 km/h
402 19-04-2009 08:15:52 9.8 C 7.98 g/m*3 9.8 C 0 km/h
403 19-04-2009 08:27:52 9.7 C 7.93 g/m*3 9.7 C 0 km/h
404 19-04-2009 08:39:48 9.8 C 7.98 g/m*3 9.8 C 0 km/h
405 19-04-2009 08:51:47 10.5 C 8.15 g/m*3 10.5 C 0 km/h
406 19-04-2009 09:03:48 11 C 8.01 g/m*3 11 C 0 km/h
407 19-04-2009 09:15:47 11.1 C 7.66 g/m*3 11.1 C 0 km/h
408 19-04-2009 09:27:47 11.2 C 7.5 g/m*3 11.2 C 0 km/h
409 19-04-2009 09:39:47 11.6 C 7.59 g/m*3 11.6 C 0 km/h
410 19-04-2009 09:51:47 11.9 C 7.31 g/m*3 11.9 C 0 km/h
411 19-04-2009 10:03:47 12.4 C 7.21 g/m*3 12.4 C 0 km/h
412 19-04-2009 10:15:47 12.9 C 7.21 g/m*3 12.9 C 0 km/h
413 19-04-2009 10:27:47 12.7 C 7.24 g/m*3 12.7 C 0 km/h
414 19-04-2009 10:39:46 13 C 6.92 g/m*3 13 C 0 km/h
415 19-04-2009 10:51:47 13.6 C 7.18 g/m*3 13.6 C 0 km/h
416 19-04-2009 11:03:46 14.3 C 6.88 g/m*3 14.3 C 0 km/h
417 19-04-2009 11:15:46 14.6 C 6.51 g/m*3 14.6 C 0 km/h
418 19-04-2009 11:27:46 15.1 C 6.71 g/m*3 15.1 C 0 km/h
419 19-04-2009 11:39:46 15.1 C 6.32 g/m*3 15.1 C 0 km/h
420 19-04-2009 11:51:46 15.5 C 6.48 g/m*3 15.5 C 0 km/h
421 19-04-2009 12:03:45 16 C 6.54 g/m*3 16 C 0 km/h
422 19-04-2009 12:15:46 16 C 6.27 g/m*3 16 C 0 km/h
423 19-04-2009 12:27:46 17.1 C 6.55 g/m*3 17.1 C 0 km/h
424 19-04-2009 12:39:46 17 C 6.08 g/m*3 17 C 0 km/h
425 19-04-2009 12:51:45 16 C 6.54 g/m*3 16 C 0 km/h
Sensor: Nr:Datum:Temp:Abs-Feuchte:Windchill:Wind:
Aussen-T/F 426 19-04-2009 13:03:46 15.9 C 6.23 g/m*3 15.9 C 0 km/h
427 19-04-2009 13:15:45 16 C 6.13 g/m*3 16 C 0 km/h
428 19-04-2009 13:27:45 16.9 C 6.76 g/m*3 16.9 C 0 km/h
429 19-04-2009 13:39:45 16.9 C 6.76 g/m*3 16.9 C 0 km/h
430 19-04-2009 13:51:45 17.1 C 6.26 g/m*3 17.1 C 0 km/h
431 19-04-2009 14:03:45 17.5 C 6.41 g/m*3 17.5 C 0 km/h
432 19-04-2009 14:15:44 18.7 C 6.24 g/m*3 18.7 C 0 km/h
433 19-04-2009 14:27:44 19.1 C 5.74 g/m*3 19.1 C 0 km/h
434 19-04-2009 14:39:44 19.9 C 6.01 g/m*3 19.9 C 0 km/h
435 19-04-2009 14:51:44 21 C 5.31 g/m*3 21 C 0 km/h
436 19-04-2009 15:03:44 20.9 C 5.46 g/m*3 20.9 C 0 km/h
437 19-04-2009 15:15:43 21.1 C 5.53 g/m*3 21.1 C 0 km/h
438 19-04-2009 15:27:43 22.1 C 5.08 g/m*3 22.1 C 0 km/h
439 19-04-2009 15:39:44 21.2 C 5.74 g/m*3 21.2 C 0 km/h
440 19-04-2009 15:51:43 22.3 C 5.13 g/m*3 22.3 C 0 km/h
441 19-04-2009 16:03:43 23.3 C 4.81 g/m*3 23.3 C 0 km/h
442 19-04-2009 16:15:44 23.9 C 4.76 g/m*3 23.9 C 0 km/h
443 19-04-2009 16:27:44 25.2 C 4.89 g/m*3 25.2 C 0 km/h
444 19-04-2009 16:39:02 24.6 C 4.73 g/m*3 24.6 C 0 km/h
445 19-04-2009 16:51:01 25.4 C 4.71 g/m*3 25.4 C 0 km/h
446 19-04-2009 17:03:01 25.3 C 4.68 g/m*3 25.3 C 0 km/h
447 19-04-2009 17:15:01 25.4 C 4.71 g/m*3 25.4 C 0 km/h
448 19-04-2009 17:27:01 25.7 C 4.79 g/m*3 25.7 C 0 km/h
449 19-04-2009 17:39:01 25.6 C 4.76 g/m*3 25.6 C 0 km/h
450 19-04-2009 17:51:01 25.7 C 4.79 g/m*3 25.7 C 0 km/h
Sensor: Nr:Datum:Temp:Abs-Feuchte:Windchill:Wind:
Aussen-T/F 451 19-04-2009 18:03:01 25.6 C 4.76 g/m*3 25.6 C 0 km/h
452 19-04-2009 18:15:00 25.2 C 4.66 g/m*3 25.2 C 0 km/h
453 19-04-2009 18:27:00 25.1 C 4.63 g/m*3 25.1 C 0 km/h
454 19-04-2009 18:39:00 25.2 C 4.66 g/m*3 25.2 C 0 km/h
455 19-04-2009 18:51:00 24.9 C 4.58 g/m*3 24.9 C 0 km/h
456 19-04-2009 19:03:00 24.5 C 4.48 g/m*3 24.5 C 0 km/h
457 19-04-2009 19:15:59 24.2 C 4.4 g/m*3 24.2 C 0 km/h
458 19-04-2009 19:27:59 23.7 C 4.71 g/m*3 23.7 C 0 km/h
459 19-04-2009 19:39:00 23 C 4.93 g/m*3 23 C 0 km/h
460 19-04-2009 19:51:59 22.2 C 5.3 g/m*3 22.2 C 0 km/h
461 19-04-2009 20:03:59 21 C 5.68 g/m*3 21 C 0 km/h
462 19-04-2009 20:14:59 19.3 C 5.64 g/m*3 19.3 C 0 km/h
463 19-04-2009 20:26:59 18.3 C 5.63 g/m*3 18.3 C 0 km/h
464 19-04-2009 20:39:59 17.2 C 5.86 g/m*3 17.2 C 0 km/h
465 19-04-2009 20:51:59 16.6 C 5.79 g/m*3 16.6 C 0 km/h
466 19-04-2009 21:03:59 16.2 C 6.07 g/m*3 16.2 C 0 km/h
467 19-04-2009 21:15:58 15.8 C 6.33 g/m*3 15.8 C 0 km/h
468 19-04-2009 21:27:58 15.4 C 6.44 g/m*3 15.4 C 0 km/h
469 19-04-2009 21:39:59 15.2 C 6.62 g/m*3 15.2 C 0 km/h
470 19-04-2009 21:51:58 14.9 C 6.63 g/m*3 14.9 C 0 km/h
471 19-04-2009 22:03:58 14.6 C 6.63 g/m*3 14.6 C 0 km/h
472 19-04-2009 22:15:57 14.3 C 6.63 g/m*3 14.3 C 0 km/h
473 19-04-2009 22:27:57 14.1 C 6.67 g/m*3 14.1 C 0 km/h
474 19-04-2009 22:40:59 13.8 C 6.79 g/m*3 13.8 C 0 km/h
475 19-04-2009 22:52:59 13.7 C 6.87 g/m*3 13.7 C 0 km/h
Sensor: Nr:Datum:Temp:Abs-Feuchte:Windchill:Wind:
Aussen-T/F 476 19-04-2009 23:04:59 13.4 C 6.86 g/m*3 13.4 C 0 km/h
477 19-04-2009 23:17:00 13.1 C 6.96 g/m*3 13.1 C 0 km/h
478 19-04-2009 23:29:00 12.9 C 7.1 g/m*3 12.9 C 0 km/h
479 19-04-2009 23:41:00 12.7 C 7.12 g/m*3 12.7 C 0 km/h
480 19-04-2009 23:53:00 12.6 C 7.19 g/m*3 12.6 C 0 km/h
481 20-04-2009 00:05:00 12.4 C 7.21 g/m*3 12.4 C 0 km/h
482 20-04-2009 00:17:00 12.2 C 7.23 g/m*3 12.2 C 0 km/h
483 20-04-2009 00:29:00 12.1 C 7.29 g/m*3 12.1 C 0 km/h
484 20-04-2009 00:41:00 11.8 C 7.37 g/m*3 11.8 C 0 km/h
485 20-04-2009 00:53:00 11.7 C 7.43 g/m*3 11.7 C 0 km/h
486 20-04-2009 01:05:00 11.6 C 7.38 g/m*3 11.6 C 0 km/h
487 20-04-2009 01:17:00 11.3 C 7.34 g/m*3 11.3 C 0 km/h
488 20-04-2009 01:28:00 11.1 C 7.35 g/m*3 11.1 C 0 km/h
489 20-04-2009 01:40:00 11 C 7.31 g/m*3 11 C 0 km/h
490 20-04-2009 01:52:00 10.9 C 7.36 g/m*3 10.9 C 0 km/h
491 20-04-2009 02:04:00 10.7 C 7.27 g/m*3 10.7 C 0 km/h
492 20-04-2009 02:16:00 10.4 C 7.13 g/m*3 10.4 C 0 km/h
493 20-04-2009 02:28:00 10.2 C 7.14 g/m*3 10.2 C 0 km/h
494 20-04-2009 02:40:00 10.1 C 7.19 g/m*3 10.1 C 0 km/h
495 20-04-2009 02:52:00 9.9 C 7.28 g/m*3 9.9 C 0 km/h
496 20-04-2009 03:04:00 9.7 C 7.28 g/m*3 9.7 C 0 km/h
497 20-04-2009 03:16:01 9.4 C 7.24 g/m*3 9.4 C 0 km/h
498 20-04-2009 03:28:01 9.3 C 7.28 g/m*3 9.3 C 0 km/h
499 20-04-2009 03:40:01 9.1 C 7.19 g/m*3 9.1 C 0 km/h
500 20-04-2009 03:52:01 9 C 7.14 g/m*3 9 C 0 km/h
Sensor: Nr:Datum:Temp:Abs-Feuchte:Windchill:Wind:
Aussen-T/F 501 20-04-2009 04:04:01 8.9 C 7.27 g/m*3 8.9 C 0 km/h
502 20-04-2009 04:16:01 8.7 C 7.18 g/m*3 8.7 C 0 km/h
503 20-04-2009 04:28:01 8.6 C 7.13 g/m*3 8.6 C 0 km/h
504 20-04-2009 04:40:01 8.4 C 7.04 g/m*3 8.4 C 0 km/h
505 20-04-2009 04:52:01 8.3 C 7.08 g/m*3 8.3 C 0 km/h
506 20-04-2009 05:04:01 8.1 C 6.99 g/m*3 8.1 C 0 km/h
507 20-04-2009 05:16:01 8 C 6.94 g/m*3 8 C 0 km/h
508 20-04-2009 05:28:01 7.8 C 7.02 g/m*3 7.8 C 0 km/h
509 20-04-2009 05:40:01 7.6 C 6.93 g/m*3 7.6 C 0 km/h
510 20-04-2009 05:52:01 7.5 C 6.96 g/m*3 7.5 C 0 km/h
511 20-04-2009 06:04:01 7.3 C 6.79 g/m*3 7.3 C 0 km/h
512 20-04-2009 06:16:01 7.3 C 6.87 g/m*3 7.3 C 0 km/h
513 20-04-2009 06:28:01 7.1 C 6.79 g/m*3 7.1 C 0 km/h
514 20-04-2009 06:40:01 7 C 6.74 g/m*3 7 C 0 km/h
515 20-04-2009 06:52:58 6.8 C 6.81 g/m*3 6.8 C 0 km/h
516 20-04-2009 07:04:58 6.8 C 6.81 g/m*3 6.8 C 0 km/h
517 20-04-2009 07:16:59 6.9 C 6.85 g/m*3 6.9 C 0 km/h
518 20-04-2009 07:28:59 7 C 6.9 g/m*3 7 C 0 km/h
519 20-04-2009 07:40:02 7.2 C 7.06 g/m*3 7.2 C 0 km/h
520 20-04-2009 07:52:01 7.1 C 7.02 g/m*3 7.1 C 0 km/h
521 20-04-2009 08:04:02 7.2 C 6.99 g/m*3 7.2 C 0 km/h
522 20-04-2009 08:16:01 7.3 C 7.03 g/m*3 7.3 C 0 km/h
523 20-04-2009 08:28:01 7.4 C 7.08 g/m*3 7.4 C 0 km/h
524 20-04-2009 08:40:01 7.7 C 7.22 g/m*3 7.7 C 0 km/h
525 20-04-2009 08:52:02 8 C 7.28 g/m*3 8 C 0 km/h
Sensor: Nr:Datum:Temp:Abs-Feuchte:Windchill:Wind:
Aussen-T/F 526 20-04-2009 09:04:01 7.9 C 7.31 g/m*3 7.9 C 0 km/h
527 20-04-2009 09:16:00 8.2 C 7.45 g/m*3 8.2 C 0 km/h
528 20-04-2009 09:28:00 8.4 C 7.55 g/m*3 8.4 C 0 km/h
529 20-04-2009 09:40:01 8.9 C 7.8 g/m*3 8.9 C 0 km/h
530 20-04-2009 09:52:00 9.6 C 8.06 g/m*3 9.6 C 0 km/h
531 20-04-2009 10:04:00 10.4 C 8.29 g/m*3 10.4 C 0 km/h
532 20-04-2009 10:16:00 11.1 C 8.26 g/m*3 11.1 C 0 km/h
533 20-04-2009 10:28:00 12.1 C 8.47 g/m*3 12.1 C 0 km/h
534 20-04-2009 10:40:00 13 C 8.28 g/m*3 13 C 0 km/h
535 20-04-2009 10:52:59 13.5 C 7.72 g/m*3 13.5 C 0 km/h
536 20-04-2009 11:04:00 14.1 C 7.77 g/m*3 14.1 C 0 km/h
537 20-04-2009 11:16:00 14.9 C 7.77 g/m*3 14.9 C 0 km/h
538 20-04-2009 11:28:00 15.7 C 7.76 g/m*3 15.7 C 0 km/h
539 20-04-2009 11:40:59 16.2 C 7.72 g/m*3 16.2 C 0 km/h
540 20-04-2009 11:52:59 16.8 C 7.43 g/m*3 16.8 C 0 km/h
541 20-04-2009 12:04:59 17.2 C 7.18 g/m*3 17.2 C 0 km/h
542 20-04-2009 12:16:59 17.6 C 6.9 g/m*3 17.6 C 0 km/h
543 20-04-2009 12:28:59 18.3 C 6.72 g/m*3 18.3 C 0 km/h
544 20-04-2009 12:40:58 18.7 C 6.88 g/m*3 18.7 C 0 km/h
545 20-04-2009 12:52:59 18.9 C 6.64 g/m*3 18.9 C 0 km/h
546 20-04-2009 13:04:58 19.2 C 6.1 g/m*3 19.2 C 0 km/h
547 20-04-2009 13:16:58 20 C 6.39 g/m*3 20 C 0 km/h
548 20-04-2009 13:28:58 20.9 C 6.37 g/m*3 20.9 C 0 km/h
549 20-04-2009 13:40:58 21.2 C 5.56 g/m*3 21.2 C 0 km/h
550 20-04-2009 13:52:58 21.4 C 5.44 g/m*3 21.4 C 0 km/h
Sensor: Nr:Datum:Temp:Abs-Feuchte:Windchill:Wind:
Aussen-T/F 551 20-04-2009 14:04:57 21.5 C 5.28 g/m*3 21.5 C 0 km/h
552 20-04-2009 14:16:58 21.4 C 5.25 g/m*3 21.4 C 0 km/h
553 20-04-2009 14:28:58 22 C 5.05 g/m*3 22 C 0 km/h
554 20-04-2009 14:40:58 23.1 C 5.17 g/m*3 23.1 C 0 km/h
555 20-04-2009 14:52:57 22.7 C 4.65 g/m*3 22.7 C 0 km/h
556 20-04-2009 15:04:58 23.7 C 4.49 g/m*3 23.7 C 0 km/h
557 20-04-2009 15:16:57 23.8 C 4.3 g/m*3 23.8 C 0 km/h
558 20-04-2009 15:28:57 23.7 C 4.28 g/m*3 23.7 C 0 km/h
559 20-04-2009 15:40:57 23.8 C 4.3 g/m*3 23.8 C 0 km/h
560 20-04-2009 15:52:56 24.1 C 4.38 g/m*3 24.1 C 0 km/h
561 20-04-2009 16:04:57 24.1 C 4.38 g/m*3 24.1 C 0 km/h
562 20-04-2009 16:16:56 24.3 C 4.43 g/m*3 24.3 C 0 km/h
563 20-04-2009 16:28:56 25.2 C 4.66 g/m*3 25.2 C 0 km/h
564 20-04-2009 16:40:56 25.7 C 4.79 g/m*3 25.7 C 0 km/h
565 20-04-2009 16:52:56 26 C 4.87 g/m*3 26 C 0 km/h
566 20-04-2009 17:04:56 26 C 4.87 g/m*3 26 C 0 km/h
567 20-04-2009 17:16:56 27 C 5.15 g/m*3 27 C 0 km/h
568 20-04-2009 17:28:56 26 C 4.87 g/m*3 26 C 0 km/h
569 20-04-2009 17:40:56 25.6 C 4.76 g/m*3 25.6 C 0 km/h
570 20-04-2009 17:52:56 27.1 C 5.18 g/m*3 27.1 C 0 km/h
571 20-04-2009 18:04:55 25.9 C 4.84 g/m*3 25.9 C 0 km/h
572 20-04-2009 18:16:55 25.7 C 4.79 g/m*3 25.7 C 0 km/h
573 20-04-2009 18:28:55 25.3 C 4.68 g/m*3 25.3 C 0 km/h
574 20-04-2009 18:40:55 23.9 C 5.19 g/m*3 23.9 C 0 km/h
575 20-04-2009 18:52:55 22.8 C 5.49 g/m*3 22.8 C 0 km/h
Sensor: Nr:Datum:Temp:Abs-Feuchte:Windchill:Wind:
Aussen-T/F 576 20-04-2009 19:04:54 22.4 C 5.16 g/m*3 22.4 C 0 km/h
577 20-04-2009 19:16:55 21.5 C 5.47 g/m*3 21.5 C 0 km/h
578 20-04-2009 19:28:55 21.2 C 5.37 g/m*3 21.2 C 0 km/h
579 20-04-2009 19:40:55 21.2 C 5.56 g/m*3 21.2 C 0 km/h
580 20-04-2009 19:52:54 20.9 C 5.83 g/m*3 20.9 C 0 km/h
581 20-04-2009 20:04:55 20.4 C 5.66 g/m*3 20.4 C 0 km/h
582 20-04-2009 20:16:54 19.7 C 5.77 g/m*3 19.7 C 0 km/h
583 20-04-2009 20:28:54 19 C 5.87 g/m*3 19 C 0 km/h
584 20-04-2009 20:40:54 18.5 C 6.33 g/m*3 18.5 C 0 km/h
585 20-04-2009 20:52:54 18.1 C 5.87 g/m*3 18.1 C 0 km/h
586 20-04-2009 21:04:53 17.6 C 5.7 g/m*3 17.6 C 0 km/h
587 20-04-2009 21:16:54 17 C 5.5 g/m*3 17 C 0 km/h
588 20-04-2009 21:28:54 16.7 C 5.68 g/m*3 16.7 C 0 km/h
589 20-04-2009 21:40:54 16.3 C 5.69 g/m*3 16.3 C 0 km/h
590 20-04-2009 21:52:53 16.1 C 5.89 g/m*3 16.1 C 0 km/h
591 20-04-2009 22:04:54 15.9 C 5.69 g/m*3 15.9 C 0 km/h
592 20-04-2009 22:16:53 15.5 C 5.68 g/m*3 15.5 C 0 km/h
593 20-04-2009 22:28:53 15.2 C 5.58 g/m*3 15.2 C 0 km/h
594 20-04-2009 22:41:55 14.8 C 5.7 g/m*3 14.8 C 0 km/h
595 20-04-2009 22:53:55 14.6 C 5.76 g/m*3 14.6 C 0 km/h
596 20-04-2009 23:05:55 14.2 C 5.74 g/m*3 14.2 C 0 km/h
597 20-04-2009 23:17:55 14 C 5.79 g/m*3 14 C 0 km/h
598 20-04-2009 23:29:55 13.7 C 5.8 g/m*3 13.7 C 0 km/h
599 20-04-2009 23:41:55 13.7 C 5.92 g/m*3 13.7 C 0 km/h
600 20-04-2009 23:53:55 13.6 C 5.77 g/m*3 13.6 C 0 km/h
Sensor: Nr:Datum:Temp:Abs-Feuchte:Windchill:Wind:
Aussen-T/F 601 21-04-2009 00:05:55 13.2 C 5.63 g/m*3 13.2 C 0 km/h
602 21-04-2009 00:17:55 13.2 C 5.74 g/m*3 13.2 C 0 km/h
603 21-04-2009 00:29:55 12.9 C 5.75 g/m*3 12.9 C 0 km/h
604 21-04-2009 00:41:55 12.8 C 5.71 g/m*3 12.8 C 0 km/h
605 21-04-2009 00:53:55 12.5 C 5.72 g/m*3 12.5 C 0 km/h
606 21-04-2009 01:05:55 12.3 C 5.75 g/m*3 12.3 C 0 km/h
607 21-04-2009 01:17:55 11.9 C 5.93 g/m*3 11.9 C 0 km/h
608 21-04-2009 01:29:55 11.5 C 5.99 g/m*3 11.5 C 0 km/h
609 21-04-2009 01:41:55 11.4 C 5.95 g/m*3 11.4 C 0 km/h
610 21-04-2009 01:53:55 11.1 C 6.04 g/m*3 11.1 C 0 km/h
611 21-04-2009 02:05:55 10.7 C 5.99 g/m*3 10.7 C 0 km/h
612 21-04-2009 02:17:56 10.6 C 5.86 g/m*3 10.6 C 0 km/h
613 21-04-2009 02:29:56 10.5 C 5.92 g/m*3 10.5 C 0 km/h
614 21-04-2009 02:41:56 10.2 C 6 g/m*3 10.2 C 0 km/h
615 21-04-2009 02:53:56 10 C 6.01 g/m*3 10 C 0 km/h
616 21-04-2009 03:05:56 9.8 C 6.03 g/m*3 9.8 C 0 km/h
617 21-04-2009 03:17:56 9.6 C 6.05 g/m*3 9.6 C 0 km/h
618 21-04-2009 03:29:56 9.3 C 5.93 g/m*3 9.3 C 0 km/h
619 21-04-2009 03:41:56 9.2 C 5.98 g/m*3 9.2 C 0 km/h
620 21-04-2009 03:53:56 9 C 5.99 g/m*3 9 C 0 km/h
621 21-04-2009 04:05:56 8.8 C 6.01 g/m*3 8.8 C 0 km/h
622 21-04-2009 04:17:56 8.7 C 6.05 g/m*3 8.7 C 0 km/h
623 21-04-2009 04:29:56 8.5 C 6.15 g/m*3 8.5 C 0 km/h
624 21-04-2009 04:41:56 8.2 C 6.2 g/m*3 8.2 C 0 km/h
625 21-04-2009 04:53:56 8.1 C 6.16 g/m*3 8.1 C 0 km/h
Sensor: Nr:Datum:Temp:Abs-Feuchte:Windchill:Wind:
Aussen-T/F 626 21-04-2009 05:05:56 7.9 C 6.16 g/m*3 7.9 C 0 km/h
627 21-04-2009 05:17:56 7.9 C 6.24 g/m*3 7.9 C 0 km/h
628 21-04-2009 05:29:56 7.7 C 6.16 g/m*3 7.7 C 0 km/h
629 21-04-2009 05:41:56 7.6 C 6.28 g/m*3 7.6 C 0 km/h
630 21-04-2009 05:53:56 7.5 C 6.24 g/m*3 7.5 C 0 km/h
631 21-04-2009 06:05:57 7.4 C 6.28 g/m*3 7.4 C 0 km/h
632 21-04-2009 06:17:57 7.2 C 6.2 g/m*3 7.2 C 0 km/h
633 21-04-2009 06:29:57 7.1 C 6.24 g/m*3 7.1 C 0 km/h
634 21-04-2009 06:41:57 7.1 C 6.24 g/m*3 7.1 C 0 km/h
635 21-04-2009 06:53:55 7.1 C 6.32 g/m*3 7.1 C 0 km/h
636 21-04-2009 07:05:55 7.1 C 6.32 g/m*3 7.1 C 0 km/h
637 21-04-2009 07:17:54 7.1 C 6.32 g/m*3 7.1 C 0 km/h
638 21-04-2009 07:29:54 7.1 C 6.4 g/m*3 7.1 C 0 km/h
639 21-04-2009 07:41:54 7.3 C 6.48 g/m*3 7.3 C 0 km/h
640 21-04-2009 07:53:54 7.4 C 6.52 g/m*3 7.4 C 0 km/h
641 21-04-2009 08:05:54 7.5 C 6.64 g/m*3 7.5 C 0 km/h
642 21-04-2009 08:17:54 7.8 C 6.69 g/m*3 7.8 C 0 km/h
643 21-04-2009 08:29:54 8 C 6.7 g/m*3 8 C 0 km/h
644 21-04-2009 08:41:54 8.2 C 6.78 g/m*3 8.2 C 0 km/h
645 21-04-2009 08:53:53 8.5 C 6.83 g/m*3 8.5 C 0 km/h
646 21-04-2009 09:05:53 8.9 C 6.92 g/m*3 8.9 C 0 km/h
647 21-04-2009 09:17:54 9.4 C 7.15 g/m*3 9.4 C 0 km/h
648 21-04-2009 09:29:54 10.2 C 7.23 g/m*3 10.2 C 0 km/h
649 21-04-2009 09:41:53 10.8 C 7.31 g/m*3 10.8 C 0 km/h
650 21-04-2009 09:53:53 11.5 C 7.33 g/m*3 11.5 C 0 km/h
Sensor: Nr:Datum:Temp:Abs-Feuchte:Windchill:Wind:
Aussen-T/F 651 21-04-2009 10:05:53 12.2 C 7.01 g/m*3 12.2 C 0 km/h
652 21-04-2009 10:17:53 12.7 C 7.01 g/m*3 12.7 C 0 km/h
653 21-04-2009 10:29:53 13.4 C 7.09 g/m*3 13.4 C 0 km/h
654 21-04-2009 10:41:52 14 C 7 g/m*3 14 C 0 km/h
655 21-04-2009 10:53:53 14.7 C 7.05 g/m*3 14.7 C 0 km/h
656 21-04-2009 11:05:52 15.3 C 6.66 g/m*3 15.3 C 0 km/h
657 21-04-2009 11:17:52 15.9 C 6.09 g/m*3 15.9 C 0 km/h
658 21-04-2009 11:29:52 16.4 C 6.14 g/m*3 16.4 C 0 km/h
659 21-04-2009 11:41:52 16.8 C 6 g/m*3 16.8 C 0 km/h
660 21-04-2009 11:53:52 16.9 C 5.32 g/m*3 16.9 C 0 km/h
661 21-04-2009 12:05:52 17.2 C 5.42 g/m*3 17.2 C 0 km/h
662 21-04-2009 12:17:52 17.8 C 5.46 g/m*3 17.8 C 0 km/h
663 21-04-2009 12:29:52 18.7 C 5.6 g/m*3 18.7 C 0 km/h
664 21-04-2009 12:41:52 19.2 C 5.28 g/m*3 19.2 C 0 km/h
665 21-04-2009 12:53:52 19.7 C 5.6 g/m*3 19.7 C 0 km/h
666 21-04-2009 13:05:51 20 C 5.53 g/m*3 20 C 0 km/h
667 21-04-2009 13:17:51 21 C 5.5 g/m*3 21 C 0 km/h
668 21-04-2009 13:29:51 20.6 C 5.19 g/m*3 20.6 C 0 km/h
669 21-04-2009 13:41:50 21.3 C 4.85 g/m*3 21.3 C 0 km/h
670 21-04-2009 13:53:51 21.3 C 4.85 g/m*3 21.3 C 0 km/h
671 21-04-2009 14:05:50 21.6 C 5.12 g/m*3 21.6 C 0 km/h
672 21-04-2009 14:17:50 22.3 C 4.54 g/m*3 22.3 C 0 km/h
673 21-04-2009 14:29:50 22.2 C 4.71 g/m*3 22.2 C 0 km/h
674 21-04-2009 14:41:51 23.1 C 4.55 g/m*3 23.1 C 0 km/h
675 21-04-2009 14:53:50 23.7 C 4.49 g/m*3 23.7 C 0 km/h
Sensor: Nr:Datum:Temp:Abs-Feuchte:Windchill:Wind:
Aussen-T/F 676 21-04-2009 15:05:50 24.6 C 4.5 g/m*3 24.6 C 0 km/h
677 21-04-2009 15:17:50 24 C 4.35 g/m*3 24 C 0 km/h
678 21-04-2009 15:29:50 23.6 C 4.25 g/m*3 23.6 C 0 km/h
679 21-04-2009 15:41:50 24.4 C 4.45 g/m*3 24.4 C 0 km/h
680 21-04-2009 15:53:49 24.6 C 4.5 g/m*3 24.6 C 0 km/h
681 21-04-2009 16:05:50 25.7 C 4.79 g/m*3 25.7 C 0 km/h
682 21-04-2009 16:17:49 25.9 C 4.84 g/m*3 25.9 C 0 km/h
683 21-04-2009 16:29:49 26.2 C 4.92 g/m*3 26.2 C 0 km/h
684 21-04-2009 16:41:49 25.5 C 4.73 g/m*3 25.5 C 0 km/h
685 21-04-2009 16:53:49 25.2 C 4.66 g/m*3 25.2 C 0 km/h
686 21-04-2009 17:05:49 25.5 C 4.73 g/m*3 25.5 C 0 km/h
687 21-04-2009 17:17:49 25.6 C 4.76 g/m*3 25.6 C 0 km/h
688 21-04-2009 17:29:49 26 C 4.87 g/m*3 26 C 0 km/h
689 21-04-2009 17:41:48 26.1 C 4.9 g/m*3 26.1 C 0 km/h
690 21-04-2009 17:53:49 25.4 C 4.71 g/m*3 25.4 C 0 km/h
691 21-04-2009 18:05:48 24.4 C 4.45 g/m*3 24.4 C 0 km/h
692 21-04-2009 18:17:48 25 C 4.6 g/m*3 25 C 0 km/h
693 21-04-2009 18:29:48 24.7 C 4.53 g/m*3 24.7 C 0 km/h
694 21-04-2009 18:41:48 24.4 C 4.45 g/m*3 24.4 C 0 km/h
695 21-04-2009 18:53:48 24.2 C 4.4 g/m*3 24.2 C 0 km/h
696 21-04-2009 19:05:47 23.7 C 4.28 g/m*3 23.7 C 0 km/h
697 21-04-2009 19:17:48 24 C 4.35 g/m*3 24 C 0 km/h
698 21-04-2009 19:29:48 23.4 C 4.21 g/m*3 23.4 C 0 km/h
699 21-04-2009 19:41:48 23 C 4.11 g/m*3 23 C 0 km/h
700 21-04-2009 19:53:47 22 C 4.08 g/m*3 22 C 0 km/h
Sensor: Nr:Datum:Temp:Abs-Feuchte:Windchill:Wind:
Aussen-T/F 701 21-04-2009 20:05:48 21.7 C 4.2 g/m*3 21.7 C 0 km/h
702 21-04-2009 20:17:47 20.4 C 4.42 g/m*3 20.4 C 0 km/h
703 21-04-2009 20:29:47 19.8 C 4.44 g/m*3 19.8 C 0 km/h
704 21-04-2009 20:41:47 19.2 C 4.12 g/m*3 19.2 C 0 km/h
705 21-04-2009 20:53:46 18.7 C 4.64 g/m*3 18.7 C 0 km/h
706 21-04-2009 21:05:46 18.4 C 4.72 g/m*3 18.4 C 0 km/h
707 21-04-2009 21:17:47 17.9 C 4.73 g/m*3 17.9 C 0 km/h
708 21-04-2009 21:29:48 17.8 C 4.86 g/m*3 17.8 C 0 km/h
709 21-04-2009 21:41:46 17.5 C 5.22 g/m*3 17.5 C 0 km/h
710 21-04-2009 21:53:46 17.3 C 5.3 g/m*3 17.3 C 0 km/h
711 21-04-2009 22:05:45 17.1 C 5.39 g/m*3 17.1 C 0 km/h
712 21-04-2009 22:17:46 16.9 C 5.61 g/m*3 16.9 C 0 km/h
713 21-04-2009 22:29:46 16.7 C 5.68 g/m*3 16.7 C 0 km/h
714 21-04-2009 22:41:46 16.3 C 5.55 g/m*3 16.3 C 0 km/h
715 21-04-2009 22:54:46 16.2 C 5.65 g/m*3 16.2 C 0 km/h
716 21-04-2009 23:06:46 16 C 5.72 g/m*3 16 C 0 km/h
717 21-04-2009 23:18:46 15.5 C 5.95 g/m*3 15.5 C 0 km/h
718 21-04-2009 23:30:46 15.5 C 5.82 g/m*3 15.5 C 0 km/h
719 21-04-2009 23:42:46 15.1 C 5.81 g/m*3 15.1 C 0 km/h
720 21-04-2009 23:54:46 15.1 C 5.81 g/m*3 15.1 C 0 km/h
721 22-04-2009 00:06:46 14.8 C 5.95 g/m*3 14.8 C 0 km/h
722 22-04-2009 00:18:46 14.7 C 6.04 g/m*3 14.7 C 0 km/h
723 22-04-2009 00:30:46 14.6 C 5.88 g/m*3 14.6 C 0 km/h
724 22-04-2009 00:42:47 14.5 C 5.97 g/m*3 14.5 C 0 km/h
725 22-04-2009 00:54:47 14.1 C 5.83 g/m*3 14.1 C 0 km/h
Sensor: Nr:Datum:Temp:Abs-Feuchte:Windchill:Wind:
Aussen-T/F 726 22-04-2009 01:06:47 13.9 C 5.99 g/m*3 13.9 C 0 km/h
727 22-04-2009 01:18:47 13.7 C 6.04 g/m*3 13.7 C 0 km/h
728 22-04-2009 01:30:47 13.2 C 6.09 g/m*3 13.2 C 0 km/h
729 22-04-2009 01:42:47 13.1 C 6.28 g/m*3 13.1 C 0 km/h
730 22-04-2009 01:54:47 13 C 6.01 g/m*3 13 C 0 km/h
731 22-04-2009 02:06:47 13 C 6.12 g/m*3 13 C 0 km/h
732 22-04-2009 02:18:47 12.8 C 6.16 g/m*3 12.8 C 0 km/h
733 22-04-2009 02:30:47 12.6 C 6.2 g/m*3 12.6 C 0 km/h
734 22-04-2009 02:42:47 12.3 C 6.19 g/m*3 12.3 C 0 km/h
735 22-04-2009 02:54:47 12.1 C 6.22 g/m*3 12.1 C 0 km/h
736 22-04-2009 03:06:47 11.8 C 6.31 g/m*3 11.8 C 0 km/h
737 22-04-2009 03:18:47 11.7 C 6.28 g/m*3 11.7 C 0 km/h
738 22-04-2009 03:30:47 11.8 C 6.21 g/m*3 11.8 C 0 km/h
739 22-04-2009 03:42:47 11.7 C 6.17 g/m*3 11.7 C 0 km/h
740 22-04-2009 03:54:47 11.3 C 6.12 g/m*3 11.3 C 0 km/h
741 22-04-2009 04:06:47 11 C 6.01 g/m*3 11 C 0 km/h
742 22-04-2009 04:18:47 10.9 C 5.97 g/m*3 10.9 C 0 km/h
743 22-04-2009 04:30:48 10.8 C 5.93 g/m*3 10.8 C 0 km/h
744 22-04-2009 04:42:48 10.7 C 5.99 g/m*3 10.7 C 0 km/h
745 22-04-2009 04:54:48 10.5 C 6.01 g/m*3 10.5 C 0 km/h
746 22-04-2009 05:06:48 10.7 C 6.09 g/m*3 10.7 C 0 km/h
747 22-04-2009 05:18:48 10.6 C 6.05 g/m*3 10.6 C 0 km/h
748 22-04-2009 05:30:48 10.3 C 6.13 g/m*3 10.3 C 0 km/h
749 22-04-2009 05:42:48 10 C 6.11 g/m*3 10 C 0 km/h
750 22-04-2009 05:54:48 9.9 C 6.26 g/m*3 9.9 C 0 km/h
Sensor: Nr:Datum:Temp:Abs-Feuchte:Windchill:Wind:
Aussen-T/F 751 22-04-2009 06:06:48 9.9 C 6.44 g/m*3 9.9 C 0 km/h
752 22-04-2009 06:18:48 9.7 C 6.45 g/m*3 9.7 C 0 km/h
753 22-04-2009 06:30:48 9.6 C 6.5 g/m*3 9.6 C 0 km/h
754 22-04-2009 06:42:48 9.6 C 6.69 g/m*3 9.6 C 0 km/h
755 22-04-2009 06:54:48 9.6 C 6.69 g/m*3 9.6 C 0 km/h
756 22-04-2009 07:06:48 9.7 C 6.82 g/m*3 9.7 C 0 km/h
757 22-04-2009 07:18:48 9.7 C 6.82 g/m*3 9.7 C 0 km/h
758 22-04-2009 07:30:48 9.8 C 6.87 g/m*3 9.8 C 0 km/h
759 22-04-2009 07:42:48 9.9 C 6.91 g/m*3 9.9 C 0 km/h
760 22-04-2009 07:54:46 10.1 C 7 g/m*3 10.1 C 0 km/h
761 22-04-2009 08:06:46 10.3 C 6.99 g/m*3 10.3 C 0 km/h
762 22-04-2009 08:18:47 10.4 C 6.84 g/m*3 10.4 C 0 km/h
763 22-04-2009 08:30:46 10.5 C 6.89 g/m*3 10.5 C 0 km/h
764 22-04-2009 08:42:46 10.5 C 6.79 g/m*3 10.5 C 0 km/h
765 22-04-2009 08:54:46 10.6 C 6.73 g/m*3 10.6 C 0 km/h
766 22-04-2009 09:06:46 10.7 C 6.68 g/m*3 10.7 C 0 km/h
767 22-04-2009 09:18:46 11 C 6.71 g/m*3 11 C 0 km/h
768 22-04-2009 09:30:45 11.2 C 6.69 g/m*3 11.2 C 0 km/h
769 22-04-2009 09:42:45 10.7 C 6.38 g/m*3 10.7 C 0 km/h
770 22-04-2009 09:54:46 11.2 C 6.49 g/m*3 11.2 C 0 km/h
771 22-04-2009 10:06:45 11.4 C 5.95 g/m*3 11.4 C 0 km/h
772 22-04-2009 10:18:45 11.8 C 5.79 g/m*3 11.8 C 0 km/h
773 22-04-2009 10:30:45 11.8 C 5.89 g/m*3 11.8 C 0 km/h
774 22-04-2009 10:42:45 12.4 C 6.01 g/m*3 12.4 C 0 km/h
775 22-04-2009 10:54:45 12.9 C 5.64 g/m*3 12.9 C 0 km/h
Sensor: Nr:Datum:Temp:Abs-Feuchte:Windchill:Wind:
Aussen-T/F 776 22-04-2009 11:06:45 13.1 C 5.59 g/m*3 13.1 C 0 km/h
777 22-04-2009 11:18:44 13.3 C 5.66 g/m*3 13.3 C 0 km/h
778 22-04-2009 11:30:45 14 C 5.67 g/m*3 14 C 0 km/h
779 22-04-2009 11:42:45 14.6 C 5.51 g/m*3 14.6 C 0 km/h
780 22-04-2009 11:54:44 15 C 5.39 g/m*3 15 C 0 km/h
781 22-04-2009 12:06:44 15.7 C 5.62 g/m*3 15.7 C 0 km/h
782 22-04-2009 12:18:44 16.1 C 5.76 g/m*3 16.1 C 0 km/h
783 22-04-2009 12:30:44 15.7 C 5.62 g/m*3 15.7 C 0 km/h
784 22-04-2009 12:42:44 16 C 5.59 g/m*3 16 C 0 km/h
785 22-04-2009 12:54:43 16.2 C 5.52 g/m*3 16.2 C 0 km/h
786 22-04-2009 13:06:44 17.1 C 5.68 g/m*3 17.1 C 0 km/h
787 22-04-2009 13:18:43 17.5 C 5.96 g/m*3 17.5 C 0 km/h
788 22-04-2009 13:30:43 16.7 C 5.4 g/m*3 16.7 C 0 km/h
789 22-04-2009 13:42:43 17.2 C 5.56 g/m*3 17.2 C 0 km/h
790 22-04-2009 13:54:43 17 C 5.35 g/m*3 17 C 0 km/h
791 22-04-2009 14:06:43 16.6 C 5.51 g/m*3 16.6 C 0 km/h
792 22-04-2009 14:18:43 17.2 C 5.42 g/m*3 17.2 C 0 km/h
793 22-04-2009 14:30:42 17.8 C 5.46 g/m*3 17.8 C 0 km/h
794 22-04-2009 14:42:42 16.8 C 5.15 g/m*3 16.8 C 0 km/h
795 22-04-2009 14:54:43 17.4 C 5.48 g/m*3 17.4 C 0 km/h
796 22-04-2009 15:06:42 16.9 C 5.03 g/m*3 16.9 C 0 km/h
797 22-04-2009 15:18:42 17.5 C 4.92 g/m*3 17.5 C 0 km/h
798 22-04-2009 15:30:42 17.1 C 4.8 g/m*3 17.1 C 0 km/h
799 22-04-2009 15:42:42 16.4 C 5.02 g/m*3 16.4 C 0 km/h
800 22-04-2009 15:54:42 16.7 C 5.12 g/m*3 16.7 C 0 km/h
Sensor: Nr:Datum:Temp:Abs-Feuchte:Windchill:Wind:
Aussen-T/F 801 22-04-2009 16:06:42 18 C 4.15 g/m*3 18 C 0 km/h
802 22-04-2009 16:18:41 18 C 3.38 g/m*3 18 C 0 km/h
803 22-04-2009 16:30:42 17.9 C 3.05 g/m*3 17.9 C 0 km/h
804 22-04-2009 16:42:42 18.2 C 3.11 g/m*3 18.2 C 0 km/h
805 22-04-2009 16:54:41 19.1 C 3.28 g/m*3 19.1 C 0 km/h
806 22-04-2009 17:06:41 18.4 C 3.15 g/m*3 18.4 C 0 km/h
807 22-04-2009 17:18:41 18.5 C 3.16 g/m*3 18.5 C 0 km/h
808 22-04-2009 17:30:41 19.6 C 3.38 g/m*3 19.6 C 0 km/h
809 22-04-2009 17:42:41 19 C 3.26 g/m*3 19 C 0 km/h
810 22-04-2009 17:54:41 19 C 3.26 g/m*3 19 C 0 km/h
811 22-04-2009 18:06:41 17.8 C 3.79 g/m*3 17.8 C 0 km/h
812 22-04-2009 18:18:40 18 C 3.84 g/m*3 18 C 0 km/h
813 22-04-2009 18:30:40 17.8 C 3.95 g/m*3 17.8 C 0 km/h
814 22-04-2009 18:42:40 17.1 C 3.93 g/m*3 17.1 C 0 km/h
815 22-04-2009 18:54:40 17.7 C 3.92 g/m*3 17.7 C 0 km/h
816 22-04-2009 19:06:40 17.4 C 4 g/m*3 17.4 C 0 km/h
817 22-04-2009 19:18:40 16.5 C 4.21 g/m*3 16.5 C 0 km/h
818 22-04-2009 19:30:40 16.1 C 4.11 g/m*3 16.1 C 0 km/h
819 22-04-2009 19:42:40 16.6 C 4.38 g/m*3 16.6 C 0 km/h
820 22-04-2009 19:54:39 16.5 C 4.21 g/m*3 16.5 C 0 km/h
821 22-04-2009 20:06:39 16.4 C 3.91 g/m*3 16.4 C 0 km/h
822 22-04-2009 20:18:40 15.6 C 3.59 g/m*3 15.6 C 0 km/h
823 22-04-2009 20:30:39 14.8 C 3.8 g/m*3 14.8 C 0 km/h
824 22-04-2009 20:42:39 14.2 C 3.66 g/m*3 14.2 C 0 km/h
825 22-04-2009 20:54:39 13.8 C 3.57 g/m*3 13.8 C 0 km/h
Sensor: Nr:Datum:Temp:Abs-Feuchte:Windchill:Wind:
Aussen-T/F 826 22-04-2009 21:06:39 13.3 C 3.47 g/m*3 13.3 C 0 km/h
827 22-04-2009 21:18:39 13 C 3.4 g/m*3 13 C 0 km/h
828 22-04-2009 21:30:39 12.7 C 3.67 g/m*3 12.7 C 0 km/h
829 22-04-2009 21:42:39 12.4 C 3.61 g/m*3 12.4 C 0 km/h
830 22-04-2009 21:54:38 12.1 C 3.54 g/m*3 12.1 C 0 km/h
831 22-04-2009 22:06:39 12 C 3.62 g/m*3 12 C 0 km/h
832 22-04-2009 22:19:39 11.9 C 3.71 g/m*3 11.9 C 0 km/h
833 22-04-2009 22:31:39 11.7 C 3.77 g/m*3 11.7 C 0 km/h
834 22-04-2009 22:43:39 11.4 C 3.8 g/m*3 11.4 C 0 km/h
835 22-04-2009 22:55:39 11.3 C 3.88 g/m*3 11.3 C 0 km/h
836 22-04-2009 23:07:39 11 C 3.9 g/m*3 11 C 0 km/h
837 22-04-2009 23:19:39 10.8 C 4.05 g/m*3 10.8 C 0 km/h
838 22-04-2009 23:31:39 10.2 C 4 g/m*3 10.2 C 0 km/h
839 22-04-2009 23:43:39 10.1 C 4.16 g/m*3 10.1 C 0 km/h
840 22-04-2009 23:55:39 10 C 4.23 g/m*3 10 C 0 km/h
841 23-04-2009 00:07:39 9.7 C 4.24 g/m*3 9.7 C 0 km/h
842 23-04-2009 00:19:39 9.5 C 4.28 g/m*3 9.5 C 0 km/h
843 23-04-2009 00:31:39 9.2 C 4.46 g/m*3 9.2 C 0 km/h
844 23-04-2009 00:43:39 8.9 C 4.47 g/m*3 8.9 C 0 km/h
845 23-04-2009 00:55:39 8.6 C 4.73 g/m*3 8.6 C 0 km/h
846 23-04-2009 01:07:39 8.5 C 4.7 g/m*3 8.5 C 0 km/h
847 23-04-2009 01:19:39 8.4 C 4.67 g/m*3 8.4 C 0 km/h
848 23-04-2009 01:31:39 8.1 C 4.66 g/m*3 8.1 C 0 km/h
849 23-04-2009 01:43:39 8.1 C 4.66 g/m*3 8.1 C 0 km/h
850 23-04-2009 01:55:39 7.8 C 4.82 g/m*3 7.8 C 0 km/h
Sensor: Nr:Datum:Temp:Abs-Feuchte:Windchill:Wind:
Aussen-T/F 851 23-04-2009 02:07:39 7.7 C 4.7 g/m*3 7.7 C 0 km/h
852 23-04-2009 02:19:40 7.4 C 4.85 g/m*3 7.4 C 0 km/h
853 23-04-2009 02:31:40 7.6 C 4.83 g/m*3 7.6 C 0 km/h
854 23-04-2009 02:43:40 7.7 C 4.87 g/m*3 7.7 C 0 km/h
855 23-04-2009 02:55:40 7.3 C 4.98 g/m*3 7.3 C 0 km/h
856 23-04-2009 03:07:40 7.1 C 4.91 g/m*3 7.1 C 0 km/h
857 23-04-2009 03:19:40 7.1 C 4.91 g/m*3 7.1 C 0 km/h
858 23-04-2009 03:31:40 7.1 C 4.91 g/m*3 7.1 C 0 km/h
859 23-04-2009 03:43:40 7 C 4.96 g/m*3 7 C 0 km/h
860 23-04-2009 03:55:40 6.9 C 5.08 g/m*3 6.9 C 0 km/h
861 23-04-2009 04:07:40 6.6 C 5.06 g/m*3 6.6 C 0 km/h
862 23-04-2009 04:19:40 6.2 C 5.15 g/m*3 6.2 C 0 km/h
863 23-04-2009 04:31:40 6.3 C 5.33 g/m*3 6.3 C 0 km/h
864 23-04-2009 04:43:40 6.3 C 5.4 g/m*3 6.3 C 0 km/h
865 23-04-2009 04:55:40 6.5 C 5.47 g/m*3 6.5 C 0 km/h
866 23-04-2009 05:07:40 6.7 C 5.47 g/m*3 6.7 C 0 km/h
867 23-04-2009 05:19:40 6.5 C 5.47 g/m*3 6.5 C 0 km/h
868 23-04-2009 05:31:40 6.5 C 5.55 g/m*3 6.5 C 0 km/h
869 23-04-2009 05:43:40 6.8 C 5.66 g/m*3 6.8 C 0 km/h
870 23-04-2009 05:55:40 6.8 C 5.58 g/m*3 6.8 C 0 km/h
871 23-04-2009 06:07:41 6.8 C 5.66 g/m*3 6.8 C 0 km/h
872 23-04-2009 06:19:41 7 C 5.66 g/m*3 7 C 0 km/h
873 23-04-2009 06:31:41 7 C 5.66 g/m*3 7 C 0 km/h
874 23-04-2009 06:43:41 6.9 C 5.62 g/m*3 6.9 C 0 km/h
875 23-04-2009 06:55:41 7 C 5.66 g/m*3 7 C 0 km/h
Sensor: Nr:Datum:Temp:Abs-Feuchte:Windchill:Wind:
Aussen-T/F 876 23-04-2009 07:07:39 7.1 C 5.69 g/m*3 7.1 C 0 km/h
877 23-04-2009 07:19:39 7 C 5.66 g/m*3 7 C 0 km/h
878 23-04-2009 07:31:38 7.1 C 5.77 g/m*3 7.1 C 0 km/h
879 23-04-2009 07:43:38 7.1 C 5.69 g/m*3 7.1 C 0 km/h
880 23-04-2009 07:55:39 7.4 C 5.81 g/m*3 7.4 C 0 km/h
881 23-04-2009 08:07:38 7.7 C 5.84 g/m*3 7.7 C 0 km/h
882 23-04-2009 08:19:38 7.9 C 5.83 g/m*3 7.9 C 0 km/h
883 23-04-2009 08:31:38 8.4 C 5.94 g/m*3 8.4 C 0 km/h
884 23-04-2009 08:43:38 8.5 C 5.89 g/m*3 8.5 C 0 km/h
885 23-04-2009 08:55:38 8.6 C 5.93 g/m*3 8.6 C 0 km/h
886 23-04-2009 09:07:38 9 C 5.82 g/m*3 9 C 0 km/h
887 23-04-2009 09:19:37 9.5 C 5.92 g/m*3 9.5 C 0 km/h
888 23-04-2009 09:31:37 9.8 C 5.85 g/m*3 9.8 C 0 km/h
889 23-04-2009 09:43:37 10.3 C 5.75 g/m*3 10.3 C 0 km/h
890 23-04-2009 09:55:37 11 C 5.81 g/m*3 11 C 0 km/h
891 23-04-2009 10:07:37 11.5 C 5.58 g/m*3 11.5 C 0 km/h
892 23-04-2009 10:19:37 11.7 C 5.33 g/m*3 11.7 C 0 km/h
893 23-04-2009 10:31:37 11.1 C 5.24 g/m*3 11.1 C 0 km/h
894 23-04-2009 10:43:37 10.8 C 5.24 g/m*3 10.8 C 0 km/h
895 23-04-2009 10:55:36 10.9 C 5.07 g/m*3 10.9 C 0 km/h
896 23-04-2009 11:07:36 11.2 C 5.07 g/m*3 11.2 C 0 km/h
897 23-04-2009 11:19:37 11.9 C 5.3 g/m*3 11.9 C 0 km/h
898 23-04-2009 11:31:36 12 C 4.9 g/m*3 12 C 0 km/h
899 23-04-2009 11:43:36 11.6 C 4.57 g/m*3 11.6 C 0 km/h
900 23-04-2009 11:55:36 12.7 C 4.79 g/m*3 12.7 C 0 km/h
Sensor: Nr:Datum:Temp:Abs-Feuchte:Windchill:Wind:
Aussen-T/F 901 23-04-2009 12:07:36 13.9 C 4.2 g/m*3 13.9 C 0 km/h
902 23-04-2009 12:19:36 13.3 C 4.39 g/m*3 13.3 C 0 km/h
903 23-04-2009 12:31:36 13.1 C 4.11 g/m*3 13.1 C 0 km/h
904 23-04-2009 12:43:36 14 C 4.34 g/m*3 14 C 0 km/h
905 23-04-2009 12:55:35 14 C 4.22 g/m*3 14 C 0 km/h
906 23-04-2009 13:07:36 14.1 C 4.37 g/m*3 14.1 C 0 km/h
907 23-04-2009 13:19:35 16 C 4.09 g/m*3 16 C 0 km/h
908 23-04-2009 13:31:35 15.2 C 4.15 g/m*3 15.2 C 0 km/h
909 23-04-2009 13:43:35 16.2 C 4.27 g/m*3 16.2 C 0 km/h
910 23-04-2009 13:55:35 16.9 C 4.46 g/m*3 16.9 C 0 km/h
911 23-04-2009 14:07:35 15 C 4.23 g/m*3 15 C 0 km/h
912 23-04-2009 14:19:34 15 C 4.49 g/m*3 15 C 0 km/h
913 23-04-2009 14:31:35 15 C 4.23 g/m*3 15 C 0 km/h
914 23-04-2009 14:43:36 15.2 C 4.54 g/m*3 15.2 C 0 km/h
915 23-04-2009 14:55:34 16.7 C 4.69 g/m*3 16.7 C 0 km/h
916 23-04-2009 15:07:34 17.9 C 4.43 g/m*3 17.9 C 0 km/h
917 23-04-2009 15:19:34 18.5 C 3.64 g/m*3 18.5 C 0 km/h
918 23-04-2009 15:31:34 17.5 C 3.88 g/m*3 17.5 C 0 km/h
919 23-04-2009 15:43:34 18 C 3.84 g/m*3 18 C 0 km/h
920 23-04-2009 15:55:33 18.1 C 3.55 g/m*3 18.1 C 0 km/h
921 23-04-2009 16:07:33 16.6 C 3.81 g/m*3 16.6 C 0 km/h
922 23-04-2009 16:19:34 17.7 C 3.92 g/m*3 17.7 C 0 km/h
923 23-04-2009 16:31:33 18.1 C 3.71 g/m*3 18.1 C 0 km/h
924 23-04-2009 16:43:33 19.5 C 3.86 g/m*3 19.5 C 0 km/h
925 23-04-2009 16:55:33 18.1 C 3.4 g/m*3 18.1 C 0 km/h
Sensor: Nr:Datum:Temp:Abs-Feuchte:Windchill:Wind:
Aussen-T/F 926 23-04-2009 17:07:33 20.1 C 3.65 g/m*3 20.1 C 0 km/h
927 23-04-2009 17:19:33 20.4 C 3.71 g/m*3 20.4 C 0 km/h
928 23-04-2009 17:31:32 19.7 C 3.57 g/m*3 19.7 C 0 km/h
929 23-04-2009 17:43:32 18.6 C 3.82 g/m*3 18.6 C 0 km/h
930 23-04-2009 17:55:33 18.1 C 4.02 g/m*3 18.1 C 0 km/h
931 23-04-2009 18:07:32 17.7 C 4.07 g/m*3 17.7 C 0 km/h
932 23-04-2009 18:19:32 17.7 C 4.07 g/m*3 17.7 C 0 km/h
933 23-04-2009 18:31:32 17.4 C 4.15 g/m*3 17.4 C 0 km/h
934 23-04-2009 18:43:32 17.1 C 4.08 g/m*3 17.1 C 0 km/h
935 23-04-2009 18:55:32 16.9 C 4.31 g/m*3 16.9 C 0 km/h
936 23-04-2009 19:07:32 17.9 C 4.12 g/m*3 17.9 C 0 km/h
937 23-04-2009 19:19:31 18.1 C 4.17 g/m*3 18.1 C 0 km/h
938 23-04-2009 19:31:32 16.6 C 4.1 g/m*3 16.6 C 0 km/h
939 23-04-2009 19:43:33 15.4 C 4.2 g/m*3 15.4 C 0 km/h
940 23-04-2009 19:55:31 14.3 C 4.55 g/m*3 14.3 C 0 km/h
941 23-04-2009 20:07:31 14 C 4.58 g/m*3 14 C 0 km/h
942 23-04-2009 20:19:31 13.5 C 4.68 g/m*3 13.5 C 0 km/h
943 23-04-2009 20:31:31 13.4 C 4.65 g/m*3 13.4 C 0 km/h
944 23-04-2009 20:43:31 13.2 C 4.59 g/m*3 13.2 C 0 km/h
945 23-04-2009 20:55:30 12.6 C 4.76 g/m*3 12.6 C 0 km/h
946 23-04-2009 21:07:31 12.2 C 4.75 g/m*3 12.2 C 0 km/h
947 23-04-2009 21:19:30 12.1 C 4.93 g/m*3 12.1 C 0 km/h
948 23-04-2009 21:31:31 11.8 C 5.16 g/m*3 11.8 C 0 km/h
949 23-04-2009 21:43:32 11.7 C 5.23 g/m*3 11.7 C 0 km/h
950 23-04-2009 21:55:30 11.2 C 5.17 g/m*3 11.2 C 0 km/h
Sensor: Nr:Datum:Temp:Abs-Feuchte:Windchill:Wind:
Aussen-T/F 951 23-04-2009 22:07:30 11.2 C 5.27 g/m*3 11.2 C 0 km/h
952 23-04-2009 22:19:30 11 C 5.2 g/m*3 11 C 0 km/h
953 23-04-2009 22:32:31 10.5 C 5.24 g/m*3 10.5 C 0 km/h
954 23-04-2009 22:44:31 10.4 C 5.4 g/m*3 10.4 C 0 km/h
955 23-04-2009 22:56:31 10.1 C 5.39 g/m*3 10.1 C 0 km/h
956 23-04-2009 23:08:32 9.9 C 5.51 g/m*3 9.9 C 0 km/h
957 23-04-2009 23:20:32 9.6 C 5.5 g/m*3 9.6 C 0 km/h
958 23-04-2009 23:32:32 9.5 C 5.55 g/m*3 9.5 C 0 km/h
959 23-04-2009 23:44:32 9.3 C 5.57 g/m*3 9.3 C 0 km/h
960 23-04-2009 23:56:32 9.2 C 5.63 g/m*3 9.2 C 0 km/h
961 24-04-2009 00:08:32 9 C 5.64 g/m*3 9 C 0 km/h
962 24-04-2009 00:20:32 8.7 C 5.62 g/m*3 8.7 C 0 km/h
963 24-04-2009 00:32:32 8.6 C 5.67 g/m*3 8.6 C 0 km/h
964 24-04-2009 00:44:32 8.5 C 5.72 g/m*3 8.5 C 0 km/h
965 24-04-2009 00:56:32 8.3 C 5.82 g/m*3 8.3 C 0 km/h
966 24-04-2009 01:08:32 8.1 C 5.74 g/m*3 8.1 C 0 km/h
967 24-04-2009 01:20:32 7.9 C 5.75 g/m*3 7.9 C 0 km/h
968 24-04-2009 01:32:32 8.1 C 5.82 g/m*3 8.1 C 0 km/h
969 24-04-2009 01:44:32 8.3 C 5.98 g/m*3 8.3 C 0 km/h
970 24-04-2009 01:56:32 8.2 C 6.03 g/m*3 8.2 C 0 km/h
971 24-04-2009 02:08:32 8.1 C 5.91 g/m*3 8.1 C 0 km/h
972 24-04-2009 02:20:32 8.1 C 5.99 g/m*3 8.1 C 0 km/h
973 24-04-2009 02:32:32 8.2 C 5.95 g/m*3 8.2 C 0 km/h
974 24-04-2009 02:44:32 7.9 C 5.91 g/m*3 7.9 C 0 km/h
975 24-04-2009 02:56:33 7.9 C 6 g/m*3 7.9 C 0 km/h
Sensor: Nr:Datum:Temp:Abs-Feuchte:Windchill:Wind:
Aussen-T/F 976 24-04-2009 03:08:33 8 C 5.95 g/m*3 8 C 0 km/h
977 24-04-2009 03:20:33 7.7 C 5.92 g/m*3 7.7 C 0 km/h
978 24-04-2009 03:32:33 7.3 C 5.85 g/m*3 7.3 C 0 km/h
979 24-04-2009 03:44:33 7 C 5.97 g/m*3 7 C 0 km/h
980 24-04-2009 03:56:33 6.6 C 5.96 g/m*3 6.6 C 0 km/h
981 24-04-2009 04:08:33 6.5 C 5.92 g/m*3 6.5 C 0 km/h
982 24-04-2009 04:20:33 6.4 C 5.96 g/m*3 6.4 C 0 km/h
983 24-04-2009 04:32:33 6.7 C 6.23 g/m*3 6.7 C 0 km/h
984 24-04-2009 04:44:33 6.9 C 6.24 g/m*3 6.9 C 0 km/h
985 24-04-2009 04:56:33 7 C 6.2 g/m*3 7 C 0 km/h
986 24-04-2009 05:08:33 6.9 C 6.24 g/m*3 6.9 C 0 km/h
987 24-04-2009 05:20:33 7 C 6.12 g/m*3 7 C 0 km/h
988 24-04-2009 05:32:33 7 C 6.12 g/m*3 7 C 0 km/h
989 24-04-2009 05:44:33 7.2 C 6.12 g/m*3 7.2 C 0 km/h
990 24-04-2009 05:56:33 7.1 C 6.01 g/m*3 7.1 C 0 km/h
991 24-04-2009 06:08:33 7 C 5.97 g/m*3 7 C 0 km/h
992 24-04-2009 06:20:33 7 C 5.97 g/m*3 7 C 0 km/h
993 24-04-2009 06:32:31 6.8 C 6.04 g/m*3 6.8 C 0 km/h
994 24-04-2009 06:44:31 6.9 C 6.08 g/m*3 6.9 C 0 km/h
995 24-04-2009 06:56:31 6.9 C 6 g/m*3 6.9 C 0 km/h
996 24-04-2009 07:08:31 6.9 C 6 g/m*3 6.9 C 0 km/h
997 24-04-2009 07:20:30 6.9 C 6 g/m*3 6.9 C 0 km/h
998 24-04-2009 07:32:31 7 C 6.04 g/m*3 7 C 0 km/h
999 24-04-2009 07:44:30 7.1 C 6.08 g/m*3 7.1 C 0 km/h
1000 24-04-2009 07:56:30 7.3 C 6.16 g/m*3 7.3 C 0 km/h
Sensor: Nr:Datum:Temp:Abs-Feuchte:Windchill:Wind:
Aussen-T/F 1001 24-04-2009 08:08:30 7.4 C 6.2 g/m*3 7.4 C 0 km/h
1002 24-04-2009 08:20:30 7.6 C 6.2 g/m*3 7.6 C 0 km/h
1003 24-04-2009 08:32:30 7.9 C 6.32 g/m*3 7.9 C 0 km/h
1004 24-04-2009 08:44:29 8.1 C 6.16 g/m*3 8.1 C 0 km/h
1005 24-04-2009 08:56:29 8.3 C 6.15 g/m*3 8.3 C 0 km/h
1006 24-04-2009 09:08:29 8.7 C 6.23 g/m*3 8.7 C 0 km/h
1007 24-04-2009 09:20:30 9.1 C 6.03 g/m*3 9.1 C 0 km/h
1008 24-04-2009 09:32:29 9.5 C 6.01 g/m*3 9.5 C 0 km/h
1009 24-04-2009 09:44:29 9.9 C 5.98 g/m*3 9.9 C 0 km/h
1010 24-04-2009 09:56:29 10.4 C 5.98 g/m*3 10.4 C 0 km/h
1011 24-04-2009 10:08:29 10.8 C 5.83 g/m*3 10.8 C 0 km/h
1012 24-04-2009 10:20:29 11.3 C 5.81 g/m*3 11.3 C 0 km/h
1013 24-04-2009 10:32:29 11.8 C 5.79 g/m*3 11.8 C 0 km/h
1014 24-04-2009 10:44:29 12.4 C 5.68 g/m*3 12.4 C 0 km/h
1015 24-04-2009 10:56:29 13 C 5.44 g/m*3 13 C 0 km/h
1016 24-04-2009 11:08:29 13.3 C 5.31 g/m*3 13.3 C 0 km/h
1017 24-04-2009 11:20:28 13.8 C 5.36 g/m*3 13.8 C 0 km/h
1018 24-04-2009 11:32:28 14.3 C 5.41 g/m*3 14.3 C 0 km/h
1019 24-04-2009 11:44:28 14.8 C 5.32 g/m*3 14.8 C 0 km/h
1020 24-04-2009 11:56:28 15.3 C 5.09 g/m*3 15.3 C 0 km/h
1021 24-04-2009 12:08:28 15.5 C 5.02 g/m*3 15.5 C 0 km/h
1022 24-04-2009 12:20:27 15.6 C 4.79 g/m*3 15.6 C 0 km/h
1023 24-04-2009 12:32:28 16.2 C 4.83 g/m*3 16.2 C 0 km/h
1024 24-04-2009 12:44:27 16.8 C 4.72 g/m*3 16.8 C 0 km/h
1025 24-04-2009 12:56:27 17.4 C 4.45 g/m*3 17.4 C 0 km/h
Sensor: Nr:Datum:Temp:Abs-Feuchte:Windchill:Wind:
Aussen-T/F 1026 24-04-2009 13:08:27 18.3 C 3.91 g/m*3 18.3 C 0 km/h
1027 24-04-2009 13:20:28 19.2 C 3.3 g/m*3 19.2 C 0 km/h
1028 24-04-2009 13:32:27 19.6 C 3.38 g/m*3 19.6 C 0 km/h
1029 24-04-2009 13:44:27 19.6 C 3.38 g/m*3 19.6 C 0 km/h
1030 24-04-2009 13:56:27 19.5 C 3.36 g/m*3 19.5 C 0 km/h
1031 24-04-2009 14:08:27 19.9 C 3.44 g/m*3 19.9 C 0 km/h
1032 24-04-2009 14:20:27 20.6 C 3.58 g/m*3 20.6 C 0 km/h
1033 24-04-2009 14:32:26 21 C 3.66 g/m*3 21 C 0 km/h
1034 24-04-2009 14:44:26 20.8 C 3.62 g/m*3 20.8 C 0 km/h
1035 24-04-2009 14:56:26 21 C 3.66 g/m*3 21 C 0 km/h
1036 24-04-2009 15:08:26 21.8 C 3.84 g/m*3 21.8 C 0 km/h
1037 24-04-2009 15:20:26 22.3 C 3.95 g/m*3 22.3 C 0 km/h
1038 24-04-2009 15:32:26 22.8 C 4.06 g/m*3 22.8 C 0 km/h
1039 24-04-2009 15:44:26 22.9 C 4.09 g/m*3 22.9 C 0 km/h
1040 24-04-2009 15:56:26 23.7 C 4.28 g/m*3 23.7 C 0 km/h
1041 24-04-2009 16:08:26 23.1 C 4.13 g/m*3 23.1 C 0 km/h
1042 24-04-2009 16:20:25 24.2 C 4.4 g/m*3 24.2 C 0 km/h
1043 24-04-2009 16:32:25 24 C 4.35 g/m*3 24 C 0 km/h
1044 24-04-2009 16:44:25 24.4 C 4.45 g/m*3 24.4 C 0 km/h
1045 24-04-2009 16:56:25 23.6 C 4.25 g/m*3 23.6 C 0 km/h
1046 24-04-2009 17:08:25 23.6 C 4.25 g/m*3 23.6 C 0 km/h
1047 24-04-2009 17:20:24 24.1 C 4.38 g/m*3 24.1 C 0 km/h
1048 24-04-2009 17:32:25 24.2 C 4.4 g/m*3 24.2 C 0 km/h
1049 24-04-2009 17:44:24 24.4 C 4.45 g/m*3 24.4 C 0 km/h
1050 24-04-2009 17:56:24 24.5 C 4.48 g/m*3 24.5 C 0 km/h
Sensor: Nr:Datum:Temp:Abs-Feuchte:Windchill:Wind:
Aussen-T/F 1051 24-04-2009 18:08:24 24.8 C 4.55 g/m*3 24.8 C 0 km/h
1052 24-04-2009 18:20:25 24.2 C 4.4 g/m*3 24.2 C 0 km/h
1053 24-04-2009 18:32:24 24.2 C 4.4 g/m*3 24.2 C 0 km/h
1054 24-04-2009 18:44:24 24.5 C 4.48 g/m*3 24.5 C 0 km/h
1055 24-04-2009 18:56:24 24.4 C 4.45 g/m*3 24.4 C 0 km/h
1056 24-04-2009 19:08:24 24.1 C 4.38 g/m*3 24.1 C 0 km/h
1057 24-04-2009 19:20:24 24.1 C 4.38 g/m*3 24.1 C 0 km/h
1058 24-04-2009 19:32:23 22.9 C 4.09 g/m*3 22.9 C 0 km/h
1059 24-04-2009 19:44:24 22.7 C 4.04 g/m*3 22.7 C 0 km/h
1060 24-04-2009 19:56:24 22.2 C 4.32 g/m*3 22.2 C 0 km/h
1061 24-04-2009 20:08:23 20.9 C 4.55 g/m*3 20.9 C 0 km/h
1062 24-04-2009 20:20:23 19.6 C 4.9 g/m*3 19.6 C 0 km/h
1063 24-04-2009 20:32:23 18.4 C 4.88 g/m*3 18.4 C 0 km/h
1064 24-04-2009 20:44:23 17.3 C 4.86 g/m*3 17.3 C 0 km/h
1065 24-04-2009 20:56:23 16.6 C 4.94 g/m*3 16.6 C 0 km/h
1066 24-04-2009 21:08:23 15.9 C 5.01 g/m*3 15.9 C 0 km/h
1067 24-04-2009 21:20:23 15.4 C 4.99 g/m*3 15.4 C 0 km/h
1068 24-04-2009 21:32:22 15.1 C 5.16 g/m*3 15.1 C 0 km/h
1069 24-04-2009 21:44:22 15 C 5.13 g/m*3 15 C 0 km/h
1070 24-04-2009 21:56:22 14.8 C 5.19 g/m*3 14.8 C 0 km/h
1071 24-04-2009 22:09:22 14.5 C 5.22 g/m*3 14.5 C 0 km/h
1072 24-04-2009 22:21:22 14.2 C 5.25 g/m*3 14.2 C 0 km/h
1073 24-04-2009 22:33:22 14.1 C 5.46 g/m*3 14.1 C 0 km/h
1074 24-04-2009 22:45:23 14 C 5.31 g/m*3 14 C 0 km/h
1075 24-04-2009 22:57:23 13.7 C 5.33 g/m*3 13.7 C 0 km/h
Sensor: Nr:Datum:Temp:Abs-Feuchte:Windchill:Wind:
Aussen-T/F 1076 24-04-2009 23:09:23 13.3 C 5.43 g/m*3 13.3 C 0 km/h
1077 24-04-2009 23:21:23 13.1 C 5.48 g/m*3 13.1 C 0 km/h
1078 24-04-2009 23:33:23 13.1 C 5.71 g/m*3 13.1 C 0 km/h
1079 24-04-2009 23:45:23 12.8 C 5.82 g/m*3 12.8 C 0 km/h
1080 24-04-2009 23:57:23 12.4 C 5.79 g/m*3 12.4 C 0 km/h
1081 25-04-2009 00:09:23 12.2 C 5.83 g/m*3 12.2 C 0 km/h
1082 25-04-2009 00:21:23 11.9 C 6.04 g/m*3 11.9 C 0 km/h
1083 25-04-2009 00:33:23 11.4 C 6.06 g/m*3 11.4 C 0 km/h
1084 25-04-2009 00:45:23 11.3 C 6.12 g/m*3 11.3 C 0 km/h
1085 25-04-2009 00:57:23 11 C 6.01 g/m*3 11 C 0 km/h
1086 25-04-2009 01:09:23 10.9 C 6.07 g/m*3 10.9 C 0 km/h
1087 25-04-2009 01:21:23 10.7 C 6.09 g/m*3 10.7 C 0 km/h
1088 25-04-2009 01:33:23 10.4 C 6.07 g/m*3 10.4 C 0 km/h
1089 25-04-2009 01:45:23 10.3 C 6.03 g/m*3 10.3 C 0 km/h
1090 25-04-2009 01:57:23 10.1 C 6.05 g/m*3 10.1 C 0 km/h
1091 25-04-2009 02:09:23 9.8 C 6.12 g/m*3 9.8 C 0 km/h
1092 25-04-2009 02:21:23 9.6 C 6.05 g/m*3 9.6 C 0 km/h
1093 25-04-2009 02:33:23 9.4 C 6.15 g/m*3 9.4 C 0 km/h
1094 25-04-2009 02:45:24 9.1 C 6.12 g/m*3 9.1 C 0 km/h
1095 25-04-2009 02:57:24 8.9 C 6.22 g/m*3 8.9 C 0 km/h
1096 25-04-2009 03:09:24 8.7 C 6.14 g/m*3 8.7 C 0 km/h
1097 25-04-2009 03:21:24 8.6 C 6.1 g/m*3 8.6 C 0 km/h
1098 25-04-2009 03:33:24 8.4 C 6.11 g/m*3 8.4 C 0 km/h
1099 25-04-2009 03:45:24 8.4 C 6.11 g/m*3 8.4 C 0 km/h
1100 25-04-2009 03:57:24 8.1 C 6.07 g/m*3 8.1 C 0 km/h
Sensor: Nr:Datum:Temp:Abs-Feuchte:Windchill:Wind:
Aussen-T/F 1101 25-04-2009 04:09:24 8.2 C 6.2 g/m*3 8.2 C 0 km/h
1102 25-04-2009 04:21:24 8.1 C 6.57 g/m*3 8.1 C 0 km/h
1103 25-04-2009 04:33:24 7.8 C 6.86 g/m*3 7.8 C 0 km/h
1104 25-04-2009 04:45:24 7.3 C 6.79 g/m*3 7.3 C 0 km/h
1105 25-04-2009 04:57:24 7.4 C 6.92 g/m*3 7.4 C 0 km/h
1106 25-04-2009 05:09:24 7.3 C 6.87 g/m*3 7.3 C 0 km/h
1107 25-04-2009 05:21:24 7.4 C 7 g/m*3 7.4 C 0 km/h
1108 25-04-2009 05:33:24 7.2 C 6.91 g/m*3 7.2 C 0 km/h
1109 25-04-2009 05:45:24 6.9 C 6.77 g/m*3 6.9 C 0 km/h
1110 25-04-2009 05:57:24 6.9 C 6.77 g/m*3 6.9 C 0 km/h
1111 25-04-2009 06:09:24 6.6 C 6.64 g/m*3 6.6 C 0 km/h
1112 25-04-2009 06:21:24 6.5 C 6.6 g/m*3 6.5 C 0 km/h
1113 25-04-2009 06:33:24 6.4 C 6.56 g/m*3 6.4 C 0 km/h
1114 25-04-2009 06:45:24 6.4 C 6.56 g/m*3 6.4 C 0 km/h
1115 25-04-2009 06:57:25 6.3 C 6.51 g/m*3 6.3 C 0 km/h
1116 25-04-2009 07:09:25 6.3 C 6.51 g/m*3 6.3 C 0 km/h
1117 25-04-2009 07:21:22 6.4 C 6.63 g/m*3 6.4 C 0 km/h
1118 25-04-2009 07:33:22 6.5 C 6.67 g/m*3 6.5 C 0 km/h
1119 25-04-2009 07:45:21 6.7 C 6.76 g/m*3 6.7 C 0 km/h
1120 25-04-2009 07:57:21 7 C 6.82 g/m*3 7 C 0 km/h
1121 25-04-2009 08:09:22 7.1 C 6.94 g/m*3 7.1 C 0 km/h
1122 25-04-2009 08:21:21 7.5 C 7.12 g/m*3 7.5 C 0 km/h
1123 25-04-2009 08:33:21 7.7 C 7.22 g/m*3 7.7 C 0 km/h
1124 25-04-2009 08:45:21 8 C 7.28 g/m*3 8 C 0 km/h
1125 25-04-2009 08:57:21 8.5 C 7.51 g/m*3 8.5 C 0 km/h
Sensor: Nr:Datum:Temp:Abs-Feuchte:Windchill:Wind:
Aussen-T/F 1126 25-04-2009 09:09:20 8.9 C 7.62 g/m*3 8.9 C 0 km/h
1127 25-04-2009 09:21:21 9.6 C 7.88 g/m*3 9.6 C 0 km/h
1128 25-04-2009 09:33:20 10.4 C 8.1 g/m*3 10.4 C 0 km/h
1129 25-04-2009 09:45:20 11.3 C 8.16 g/m*3 11.3 C 0 km/h
1130 25-04-2009 09:57:20 12.1 C 8.26 g/m*3 12.1 C 0 km/h
1131 25-04-2009 10:09:20 13 C 7.94 g/m*3 13 C 0 km/h
1132 25-04-2009 10:21:20 14.1 C 6.67 g/m*3 14.1 C 0 km/h
1133 25-04-2009 10:33:20 15.3 C 6.01 g/m*3 15.3 C 0 km/h
1134 25-04-2009 10:45:20 15.8 C 6.06 g/m*3 15.8 C 0 km/h
1135 25-04-2009 10:57:20 16.3 C 5.97 g/m*3 16.3 C 0 km/h
1136 25-04-2009 11:09:20 16.9 C 6.04 g/m*3 16.9 C 0 km/h
1137 25-04-2009 11:21:19 16.6 C 6.07 g/m*3 16.6 C 0 km/h
1138 25-04-2009 11:33:19 16.6 C 6.22 g/m*3 16.6 C 0 km/h
1139 25-04-2009 11:45:19 16.3 C 6.24 g/m*3 16.3 C 0 km/h
1140 25-04-2009 11:57:19 17.3 C 6.33 g/m*3 17.3 C 0 km/h
1141 25-04-2009 12:09:19 17.8 C 6.37 g/m*3 17.8 C 0 km/h
1142 25-04-2009 12:21:18 17.6 C 6.45 g/m*3 17.6 C 0 km/h
1143 25-04-2009 12:33:19 18.1 C 6.49 g/m*3 18.1 C 0 km/h
1144 25-04-2009 12:45:19 18.3 C 6.41 g/m*3 18.3 C 0 km/h
1145 25-04-2009 12:57:19 18.5 C 6.49 g/m*3 18.5 C 0 km/h
1146 25-04-2009 13:09:18 18.8 C 6.44 g/m*3 18.8 C 0 km/h
1147 25-04-2009 13:21:19 18.9 C 6.32 g/m*3 18.9 C 0 km/h
1148 25-04-2009 13:33:18 19.5 C 6.38 g/m*3 19.5 C 0 km/h
1149 25-04-2009 13:45:18 19.6 C 6.42 g/m*3 19.6 C 0 km/h
1150 25-04-2009 13:57:18 19.9 C 6.53 g/m*3 19.9 C 0 km/h
Sensor: Nr:Datum:Temp:Abs-Feuchte:Windchill:Wind:
Aussen-T/F 1151 25-04-2009 14:09:18 20.3 C 6.51 g/m*3 20.3 C 0 km/h
1152 25-04-2009 14:21:18 20.3 C 6.51 g/m*3 20.3 C 0 km/h
1153 25-04-2009 14:33:17 20.9 C 6.74 g/m*3 20.9 C 0 km/h
1154 25-04-2009 14:45:17 20.7 C 6.48 g/m*3 20.7 C 0 km/h
1155 25-04-2009 14:57:17 19.9 C 6.36 g/m*3 19.9 C 0 km/h
1156 25-04-2009 15:09:17 19.5 C 6.55 g/m*3 19.5 C 0 km/h
1157 25-04-2009 15:21:17 19.9 C 6.53 g/m*3 19.9 C 0 km/h
1158 25-04-2009 15:33:17 20.8 C 6.34 g/m*3 20.8 C 0 km/h
1159 25-04-2009 15:45:17 21.7 C 6.29 g/m*3 21.7 C 0 km/h
1160 25-04-2009 15:57:17 21.8 C 6.14 g/m*3 21.8 C 0 km/h
1161 25-04-2009 16:09:17 21.5 C 6.03 g/m*3 21.5 C 0 km/h
1162 25-04-2009 16:21:16 21.6 C 6.07 g/m*3 21.6 C 0 km/h
1163 25-04-2009 16:33:16 22 C 6.02 g/m*3 22 C 0 km/h
1164 25-04-2009 16:45:16 21 C 6.23 g/m*3 21 C 0 km/h
1165 25-04-2009 16:57:16 20.9 C 6.37 g/m*3 20.9 C 0 km/h
1166 25-04-2009 17:09:16 20.9 C 6.56 g/m*3 20.9 C 0 km/h
1167 25-04-2009 17:21:15 20.6 C 6.44 g/m*3 20.6 C 0 km/h
1168 25-04-2009 17:33:16 21.4 C 6.37 g/m*3 21.4 C 0 km/h
1169 25-04-2009 17:45:16 22.1 C 6.05 g/m*3 22.1 C 0 km/h
1170 25-04-2009 17:57:16 22.7 C 6.26 g/m*3 22.7 C 0 km/h
1171 25-04-2009 18:09:15 22.4 C 6.16 g/m*3 22.4 C 0 km/h
1172 25-04-2009 18:21:16 22.7 C 6.26 g/m*3 22.7 C 0 km/h
1173 25-04-2009 18:33:15 22.4 C 6.16 g/m*3 22.4 C 0 km/h
1174 25-04-2009 18:45:15 22.9 C 6.34 g/m*3 22.9 C 0 km/h
1175 25-04-2009 18:57:15 22.6 C 6.03 g/m*3 22.6 C 0 km/h
Sensor: Nr:Datum:Temp:Abs-Feuchte:Windchill:Wind:
Aussen-T/F 1176 25-04-2009 19:09:15 23.2 C 6.24 g/m*3 23.2 C 0 km/h
1177 25-04-2009 19:21:15 23.7 C 6.42 g/m*3 23.7 C 0 km/h
1178 25-04-2009 19:33:15 23.2 C 6.24 g/m*3 23.2 C 0 km/h
1179 25-04-2009 19:45:15 22.2 C 6.87 g/m*3 22.2 C 0 km/h
1180 25-04-2009 19:57:15 21.2 C 7.04 g/m*3 21.2 C 0 km/h
1181 25-04-2009 20:09:14 20.2 C 7.17 g/m*3 20.2 C 0 km/h
1182 25-04-2009 20:21:14 19.3 C 7.3 g/m*3 19.3 C 0 km/h
1183 25-04-2009 20:33:14 18.6 C 7.48 g/m*3 18.6 C 0 km/h
1184 25-04-2009 20:45:14 18.2 C 7.46 g/m*3 18.2 C 0 km/h
1185 25-04-2009 20:57:14 17.6 C 7.35 g/m*3 17.6 C 0 km/h
1186 25-04-2009 21:09:14 17.2 C 7.32 g/m*3 17.2 C 0 km/h
1187 25-04-2009 21:21:14 17 C 7.52 g/m*3 17 C 0 km/h
1188 25-04-2009 21:33:13 17 C 7.52 g/m*3 17 C 0 km/h
1189 25-04-2009 21:45:14 17 C 7.52 g/m*3 17 C 0 km/h
1190 25-04-2009 21:57:14 17 C 7.52 g/m*3 17 C 0 km/h
1191 25-04-2009 22:10:14 16.5 C 7.58 g/m*3 16.5 C 0 km/h
1192 25-04-2009 22:22:14 16.4 C 7.54 g/m*3 16.4 C 0 km/h
1193 25-04-2009 22:34:14 16.1 C 7.54 g/m*3 16.1 C 0 km/h
1194 25-04-2009 22:46:14 16.1 C 7.54 g/m*3 16.1 C 0 km/h
1195 25-04-2009 22:58:14 16 C 7.63 g/m*3 16 C 0 km/h
1196 25-04-2009 23:10:14 15.6 C 7.98 g/m*3 15.6 C 0 km/h
1197 25-04-2009 23:22:14 15.1 C 7.87 g/m*3 15.1 C 0 km/h
1198 25-04-2009 23:34:14 14.9 C 7.9 g/m*3 14.9 C 0 km/h
1199 25-04-2009 23:46:15 15 C 7.82 g/m*3 15 C 0 km/h
1200 25-04-2009 23:58:15 14.9 C 8.03 g/m*3 14.9 C 0 km/h
Sensor: Nr:Datum:Temp:Abs-Feuchte:Windchill:Wind:
Aussen-T/F 1201 26-04-2009 00:10:15 14.8 C 7.98 g/m*3 14.8 C 0 km/h
1202 26-04-2009 00:22:15 14.9 C 8.16 g/m*3 14.9 C 0 km/h
1203 26-04-2009 00:34:15 14.8 C 8.11 g/m*3 14.8 C 0 km/h
1204 26-04-2009 00:46:15 14.8 C 8.23 g/m*3 14.8 C 0 km/h
1205 26-04-2009 00:58:15 14.7 C 8.18 g/m*3 14.7 C 0 km/h
1206 26-04-2009 01:10:15 14.2 C 8.06 g/m*3 14.2 C 0 km/h
1207 26-04-2009 01:22:15 14 C 8.08 g/m*3 14 C 0 km/h
1208 26-04-2009 01:34:15 14 C 8.2 g/m*3 14 C 0 km/h
1209 26-04-2009 01:46:15 14.1 C 8.25 g/m*3 14.1 C 0 km/h
1210 26-04-2009 01:58:15 14 C 8.08 g/m*3 14 C 0 km/h
1211 26-04-2009 02:10:15 14.1 C 8.25 g/m*3 14.1 C 0 km/h
1212 26-04-2009 02:22:15 14 C 8.2 g/m*3 14 C 0 km/h
1213 26-04-2009 02:34:15 14 C 8.2 g/m*3 14 C 0 km/h
1214 26-04-2009 02:46:15 14 C 8.08 g/m*3 14 C 0 km/h
1215 26-04-2009 02:58:15 13.9 C 8.15 g/m*3 13.9 C 0 km/h
1216 26-04-2009 03:10:15 13.8 C 8.22 g/m*3 13.8 C 0 km/h
1217 26-04-2009 03:22:15 13.7 C 8.17 g/m*3 13.7 C 0 km/h
1218 26-04-2009 03:34:15 13.6 C 8.12 g/m*3 13.6 C 0 km/h
1219 26-04-2009 03:46:16 13.5 C 8.07 g/m*3 13.5 C 0 km/h
1220 26-04-2009 03:58:16 13.4 C 8.14 g/m*3 13.4 C 0 km/h
1221 26-04-2009 04:10:16 13.4 C 8.25 g/m*3 13.4 C 0 km/h
1222 26-04-2009 04:22:16 13.3 C 8.2 g/m*3 13.3 C 0 km/h
1223 26-04-2009 04:34:16 13.2 C 8.15 g/m*3 13.2 C 0 km/h
1224 26-04-2009 04:46:16 13 C 8.05 g/m*3 13 C 0 km/h
1225 26-04-2009 04:58:16 13.1 C 8.22 g/m*3 13.1 C 0 km/h
Sensor: Nr:Datum:Temp:Abs-Feuchte:Windchill:Wind:
Aussen-T/F 1226 26-04-2009 05:10:16 13 C 8.17 g/m*3 13 C 0 km/h
1227 26-04-2009 05:22:16 12.9 C 8.23 g/m*3 12.9 C 0 km/h
1228 26-04-2009 05:34:16 12.8 C 8.29 g/m*3 12.8 C 0 km/h
1229 26-04-2009 05:46:16 12.8 C 8.18 g/m*3 12.8 C 0 km/h
1230 26-04-2009 05:58:16 12.6 C 8.19 g/m*3 12.6 C 0 km/h
1231 26-04-2009 06:10:16 12.4 C 8.09 g/m*3 12.4 C 0 km/h
1232 26-04-2009 06:22:16 12.2 C 8.2 g/m*3 12.2 C 0 km/h
1233 26-04-2009 06:34:16 12 C 8.1 g/m*3 12 C 0 km/h
1234 26-04-2009 06:46:15 11.9 C 8.26 g/m*3 11.9 C 0 km/h
1235 26-04-2009 06:58:15 11.7 C 8.37 g/m*3 11.7 C 0 km/h
1236 26-04-2009 07:10:14 11.8 C 8.42 g/m*3 11.8 C 0 km/h
1237 26-04-2009 07:22:14 11.8 C 8.42 g/m*3 11.8 C 0 km/h
1238 26-04-2009 07:34:14 11.8 C 8.42 g/m*3 11.8 C 0 km/h
1239 26-04-2009 07:46:14 12.2 C 8.63 g/m*3 12.2 C 0 km/h
1240 26-04-2009 07:58:14 12.3 C 8.58 g/m*3 12.3 C 0 km/h
1241 26-04-2009 08:10:13 12.6 C 8.63 g/m*3 12.6 C 0 km/h
1242 26-04-2009 08:22:14 12.9 C 8.68 g/m*3 12.9 C 0 km/h
1243 26-04-2009 08:34:13 13.3 C 8.78 g/m*3 13.3 C 0 km/h
1244 26-04-2009 08:46:14 13.6 C 8.71 g/m*3 13.6 C 0 km/h
1245 26-04-2009 08:58:14 14.2 C 8.55 g/m*3 14.2 C 0 km/h
1246 26-04-2009 09:10:13 14.9 C 8.54 g/m*3 14.9 C 0 km/h
1247 26-04-2009 09:22:13 15.1 C 8.39 g/m*3 15.1 C 0 km/h
1248 26-04-2009 09:34:13 15.9 C 8.53 g/m*3 15.9 C 0 km/h
1249 26-04-2009 09:46:13 16.4 C 8.23 g/m*3 16.4 C 0 km/h
1250 26-04-2009 09:58:13 16.8 C 8.29 g/m*3 16.8 C 0 km/h
Sensor: Nr:Datum:Temp:Abs-Feuchte:Windchill:Wind:
Aussen-T/F 1251 26-04-2009 10:10:12 17.2 C 8.05 g/m*3 17.2 C 0 km/h
1252 26-04-2009 10:22:13 17.2 C 8.05 g/m*3 17.2 C 0 km/h
1253 26-04-2009 10:34:13 17.5 C 8.2 g/m*3 17.5 C 0 km/h
1254 26-04-2009 10:46:12 17.1 C 8.01 g/m*3 17.1 C 0 km/h
1255 26-04-2009 10:58:12 17.7 C 8.3 g/m*3 17.7 C 0 km/h
1256 26-04-2009 11:10:12 17.8 C 8.2 g/m*3 17.8 C 0 km/h
1257 26-04-2009 11:22:12 18.4 C 8.18 g/m*3 18.4 C 0 km/h
1258 26-04-2009 11:34:12 19.1 C 7.54 g/m*3 19.1 C 0 km/h
1259 26-04-2009 11:46:11 20.1 C 7.47 g/m*3 20.1 C 0 km/h
1260 26-04-2009 11:58:11 20.4 C 7.08 g/m*3 20.4 C 0 km/h
1261 26-04-2009 12:10:12 20.5 C 6.94 g/m*3 20.5 C 0 km/h
1262 26-04-2009 12:22:11 21.1 C 6.82 g/m*3 21.1 C 0 km/h
1263 26-04-2009 12:34:11 21.8 C 6.72 g/m*3 21.8 C 0 km/h
1264 26-04-2009 12:46:11 22.3 C 6.52 g/m*3 22.3 C 0 km/h
1265 26-04-2009 12:58:11 22 C 6.21 g/m*3 22 C 0 km/h
1266 26-04-2009 13:10:11 22.6 C 6.63 g/m*3 22.6 C 0 km/h
1267 26-04-2009 13:22:11 23.5 C 6.34 g/m*3 23.5 C 0 km/h
1268 26-04-2009 13:34:10 24.3 C 6.2 g/m*3 24.3 C 0 km/h
1269 26-04-2009 13:46:11 24.1 C 5.91 g/m*3 24.1 C 0 km/h
1270 26-04-2009 13:58:11 24.3 C 6.2 g/m*3 24.3 C 0 km/h
1271 26-04-2009 14:10:10 22.8 C 5.49 g/m*3 22.8 C 0 km/h
1272 26-04-2009 14:22:10 23.9 C 5.62 g/m*3 23.9 C 0 km/h
1273 26-04-2009 14:34:10 24.6 C 5.85 g/m*3 24.6 C 0 km/h
1274 26-04-2009 14:46:10 25.4 C 5.89 g/m*3 25.4 C 0 km/h
1275 26-04-2009 14:58:11 25.5 C 5.68 g/m*3 25.5 C 0 km/h
Sensor: Nr:Datum:Temp:Abs-Feuchte:Windchill:Wind:
Aussen-T/F 1276 26-04-2009 15:10:09 25.1 C 5.56 g/m*3 25.1 C 0 km/h
1277 26-04-2009 15:22:10 25.2 C 5.82 g/m*3 25.2 C 0 km/h
1278 26-04-2009 15:34:10 25.7 C 5.51 g/m*3 25.7 C 0 km/h
1279 26-04-2009 15:46:09 24.7 C 5.66 g/m*3 24.7 C 0 km/h
1280 26-04-2009 15:58:09 24 C 5.66 g/m*3 24 C 0 km/h
1281 26-04-2009 16:10:10 23.5 C 5.71 g/m*3 23.5 C 0 km/h
1282 26-04-2009 16:22:09 26 C 5.6 g/m*3 26 C 0 km/h
1283 26-04-2009 16:34:09 27.5 C 5.29 g/m*3 27.5 C 0 km/h
1284 26-04-2009 16:46:08 26.5 C 5.01 g/m*3 26.5 C 0 km/h
1285 26-04-2009 16:58:08 27.7 C 5.35 g/m*3 27.7 C 0 km/h
1286 26-04-2009 17:10:09 26.8 C 5.09 g/m*3 26.8 C 0 km/h
1287 26-04-2009 17:22:08 28 C 5.44 g/m*3 28 C 0 km/h
1288 26-04-2009 17:34:08 28.2 C 5.5 g/m*3 28.2 C 0 km/h
1289 26-04-2009 17:46:08 29.5 C 5.9 g/m*3 29.5 C 0 km/h
1290 26-04-2009 17:58:08 28.5 C 5.59 g/m*3 28.5 C 0 km/h
1291 26-04-2009 18:10:08 26.7 C 5.06 g/m*3 26.7 C 0 km/h
1292 26-04-2009 18:22:08 27.1 C 5.18 g/m*3 27.1 C 0 km/h
1293 26-04-2009 18:34:07 26.4 C 4.98 g/m*3 26.4 C 0 km/h
1294 26-04-2009 18:46:08 25.1 C 5.79 g/m*3 25.1 C 0 km/h
1295 26-04-2009 18:58:08 24.1 C 5.69 g/m*3 24.1 C 0 km/h
1296 26-04-2009 19:10:07 23.6 C 6.17 g/m*3 23.6 C 0 km/h
1297 26-04-2009 19:22:07 22.7 C 6.26 g/m*3 22.7 C 0 km/h
1298 26-04-2009 19:34:07 22.2 C 6.28 g/m*3 22.2 C 0 km/h
1299 26-04-2009 19:46:07 21.8 C 6.52 g/m*3 21.8 C 0 km/h
1300 26-04-2009 19:58:07 21.3 C 6.52 g/m*3 21.3 C 0 km/h
Sensor: Nr:Datum:Temp:Abs-Feuchte:Windchill:Wind:
Aussen-T/F 1301 26-04-2009 20:10:06 21.1 C 6.63 g/m*3 21.1 C 0 km/h
1302 26-04-2009 20:22:07 20.7 C 6.84 g/m*3 20.7 C 0 km/h
1303 26-04-2009 20:34:07 20.2 C 6.82 g/m*3 20.2 C 0 km/h
1304 26-04-2009 20:46:06 20.1 C 7.13 g/m*3 20.1 C 0 km/h
1305 26-04-2009 20:58:06 19.6 C 7.09 g/m*3 19.6 C 0 km/h
1306 26-04-2009 21:10:06 19.5 C 7.05 g/m*3 19.5 C 0 km/h
1307 26-04-2009 21:22:06 19.3 C 7.13 g/m*3 19.3 C 0 km/h
1308 26-04-2009 21:34:06 19.2 C 7.42 g/m*3 19.2 C 0 km/h
1309 26-04-2009 21:46:06 18.8 C 7.73 g/m*3 18.8 C 0 km/h
1310 26-04-2009 21:58:07 17.7 C 8.6 g/m*3 17.7 C 0 km/h
1311 26-04-2009 22:10:05 16.6 C 9.46 g/m*3 16.6 C 0 km/h
1312 26-04-2009 22:22:06 16.3 C 10.13 g/m*3 16.3 C 0 km/h
1313 26-04-2009 22:34:06 15.9 C 9.62 g/m*3 15.9 C 0 km/h
1314 26-04-2009 22:47:05 15.6 C 9.97 g/m*3 15.6 C 0 km/h
1315 26-04-2009 22:59:05 15.4 C 10.25 g/m*3 15.4 C 0 km/h
1316 26-04-2009 23:11:05 15.4 C 10.25 g/m*3 15.4 C 0 km/h
1317 26-04-2009 23:23:05 15.6 C 10.24 g/m*3 15.6 C 0 km/h
1318 26-04-2009 23:35:05 15.8 C 9.83 g/m*3 15.8 C 0 km/h
1319 26-04-2009 23:47:06 16 C 9.67 g/m*3 16 C 0 km/h
1320 26-04-2009 23:59:06 15.9 C 9.75 g/m*3 15.9 C 0 km/h
1321 27-04-2009 00:11:06 16 C 9.67 g/m*3 16 C 0 km/h
1322 27-04-2009 00:23:06 15.8 C 9.69 g/m*3 15.8 C 0 km/h
1323 27-04-2009 00:35:06 15.7 C 9.63 g/m*3 15.7 C 0 km/h
1324 27-04-2009 00:47:06 15.7 C 9.63 g/m*3 15.7 C 0 km/h
1325 27-04-2009 00:59:06 15.7 C 9.63 g/m*3 15.7 C 0 km/h
Sensor: Nr:Datum:Temp:Abs-Feuchte:Windchill:Wind:
Aussen-T/F 1326 27-04-2009 01:11:06 15.5 C 9.52 g/m*3 15.5 C 0 km/h
1327 27-04-2009 01:23:06 15.3 C 9.53 g/m*3 15.3 C 0 km/h
1328 27-04-2009 01:35:06 15 C 9.36 g/m*3 15 C 0 km/h
1329 27-04-2009 01:47:06 14.9 C 9.43 g/m*3 14.9 C 0 km/h
1330 27-04-2009 01:59:06 14.7 C 9.32 g/m*3 14.7 C 0 km/h
1331 27-04-2009 02:11:06 14.5 C 9.08 g/m*3 14.5 C 0 km/h
1332 27-04-2009 02:23:06 14.2 C 9.04 g/m*3 14.2 C 0 km/h
1333 27-04-2009 02:35:06 14 C 8.93 g/m*3 14 C 0 km/h
1334 27-04-2009 02:47:06 14.1 C 8.86 g/m*3 14.1 C 0 km/h
1335 27-04-2009 02:59:06 14.1 C 8.74 g/m*3 14.1 C 0 km/h
1336 27-04-2009 03:11:06 14.1 C 8.62 g/m*3 14.1 C 0 km/h
1337 27-04-2009 03:23:06 14.1 C 8.5 g/m*3 14.1 C 0 km/h
1338 27-04-2009 03:35:06 14.1 C 8.5 g/m*3 14.1 C 0 km/h
1339 27-04-2009 03:47:07 14 C 8.32 g/m*3 14 C 0 km/h
1340 27-04-2009 03:59:07 13.8 C 8.34 g/m*3 13.8 C 0 km/h
1341 27-04-2009 04:11:07 14 C 8.32 g/m*3 14 C 0 km/h
1342 27-04-2009 04:23:07 12.8 C 8.62 g/m*3 12.8 C 0 km/h
1343 27-04-2009 04:35:07 12.6 C 9.18 g/m*3 12.6 C 0 km/h
1344 27-04-2009 04:47:07 12.1 C 9.01 g/m*3 12.1 C 0 km/h
1345 27-04-2009 04:59:07 11.5 C 8.99 g/m*3 11.5 C 0 km/h
1346 27-04-2009 05:11:07 11.5 C 8.99 g/m*3 11.5 C 0 km/h
1347 27-04-2009 05:23:07 11.8 C 9.26 g/m*3 11.8 C 0 km/h
1348 27-04-2009 05:35:07 11.9 C 9.32 g/m*3 11.9 C 0 km/h
1349 27-04-2009 05:47:07 11.8 C 9.16 g/m*3 11.8 C 0 km/h
1350 27-04-2009 05:59:07 11.5 C 8.88 g/m*3 11.5 C 0 km/h
Sensor: Nr:Datum:Temp:Abs-Feuchte:Windchill:Wind:
Aussen-T/F 1351 27-04-2009 06:11:07 11.3 C 8.77 g/m*3 11.3 C 0 km/h
1352 27-04-2009 06:23:07 11.5 C 8.88 g/m*3 11.5 C 0 km/h
1353 27-04-2009 06:35:07 11.7 C 8.99 g/m*3 11.7 C 0 km/h
1354 27-04-2009 06:47:07 12 C 9.06 g/m*3 12 C 0 km/h
1355 27-04-2009 06:59:07 12.1 C 9.01 g/m*3 12.1 C 0 km/h
1356 27-04-2009 07:11:05 12.1 C 8.79 g/m*3 12.1 C 0 km/h
1357 27-04-2009 07:23:05 12.2 C 8.74 g/m*3 12.2 C 0 km/h
1358 27-04-2009 07:35:05 12.4 C 8.85 g/m*3 12.4 C 0 km/h
1359 27-04-2009 07:47:04 12.7 C 8.68 g/m*3 12.7 C 0 km/h
1360 27-04-2009 07:59:04 12.7 C 8.68 g/m*3 12.7 C 0 km/h
1361 27-04-2009 08:11:05 13 C 8.51 g/m*3 13 C 0 km/h
1362 27-04-2009 08:23:04 13.1 C 8.1 g/m*3 13.1 C 0 km/h
1363 27-04-2009 08:35:04 13.4 C 8.14 g/m*3 13.4 C 0 km/h
1364 27-04-2009 08:47:04 13.6 C 8.12 g/m*3 13.6 C 0 km/h
1365 27-04-2009 08:59:04 13.5 C 7.84 g/m*3 13.5 C 0 km/h
1366 27-04-2009 09:11:04 13.2 C 7.46 g/m*3 13.2 C 0 km/h
1367 27-04-2009 09:23:04 13.1 C 7.53 g/m*3 13.1 C 0 km/h
1368 27-04-2009 09:35:04 13.2 C 7.46 g/m*3 13.2 C 0 km/h
1369 27-04-2009 09:47:03 13.4 C 7.44 g/m*3 13.4 C 0 km/h
1370 27-04-2009 09:59:03 14 C 7.24 g/m*3 14 C 0 km/h
1371 27-04-2009 10:11:04 14.5 C 7.09 g/m*3 14.5 C 0 km/h
1372 27-04-2009 10:23:03 14.7 C 6.92 g/m*3 14.7 C 0 km/h
1373 27-04-2009 10:35:03 14.4 C 6.55 g/m*3 14.4 C 0 km/h
1374 27-04-2009 10:47:03 14.6 C 6.63 g/m*3 14.6 C 0 km/h
1375 27-04-2009 10:59:03 14.8 C 6.46 g/m*3 14.8 C 0 km/h
Sensor: Nr:Datum:Temp:Abs-Feuchte:Windchill:Wind:
Aussen-T/F 1376 27-04-2009 11:11:03 14.8 C 6.33 g/m*3 14.8 C 0 km/h
1377 27-04-2009 11:23:02 14.9 C 6.12 g/m*3 14.9 C 0 km/h
1378 27-04-2009 11:35:03 15.5 C 6.08 g/m*3 15.5 C 0 km/h
1379 27-04-2009 11:47:02 14.9 C 6.12 g/m*3 14.9 C 0 km/h
1380 27-04-2009 11:59:02 15.5 C 5.95 g/m*3 15.5 C 0 km/h
1381 27-04-2009 12:11:02 15.6 C 5.72 g/m*3 15.6 C 0 km/h
1382 27-04-2009 12:23:01 15.3 C 5.75 g/m*3 15.3 C 0 km/h
1383 27-04-2009 12:35:02 15.4 C 5.91 g/m*3 15.4 C 0 km/h
1384 27-04-2009 12:47:02 15.5 C 5.95 g/m*3 15.5 C 0 km/h
1385 27-04-2009 12:59:02 15.6 C 5.98 g/m*3 15.6 C 0 km/h
1386 27-04-2009 13:11:01 15.4 C 5.78 g/m*3 15.4 C 0 km/h
1387 27-04-2009 13:23:02 15.4 C 5.91 g/m*3 15.4 C 0 km/h
1388 27-04-2009 13:35:01 15.7 C 6.15 g/m*3 15.7 C 0 km/h
1389 27-04-2009 13:47:01 16.6 C 5.93 g/m*3 16.6 C 0 km/h
1390 27-04-2009 13:59:01 16.2 C 5.79 g/m*3 16.2 C 0 km/h
1391 27-04-2009 14:11:01 17 C 5.93 g/m*3 17 C 0 km/h
1392 27-04-2009 14:23:01 16.6 C 5.65 g/m*3 16.6 C 0 km/h
1393 27-04-2009 14:35:01 16.4 C 5.58 g/m*3 16.4 C 0 km/h
1394 27-04-2009 14:47:01 16.6 C 5.51 g/m*3 16.6 C 0 km/h
1395 27-04-2009 14:59:01 16.6 C 5.37 g/m*3 16.6 C 0 km/h
1396 27-04-2009 15:11:01 16.6 C 5.37 g/m*3 16.6 C 0 km/h
1397 27-04-2009 15:23:00 16.6 C 5.65 g/m*3 16.6 C 0 km/h
1398 27-04-2009 15:35:00 17 C 5.5 g/m*3 17 C 0 km/h
1399 27-04-2009 15:47:00 17.1 C 5.24 g/m*3 17.1 C 0 km/h
1400 27-04-2009 15:59:00 17.2 C 5.27 g/m*3 17.2 C 0 km/h
Sensor: Nr:Datum:Temp:Abs-Feuchte:Windchill:Wind:
Aussen-T/F 1401 27-04-2009 16:11:00 18.5 C 5.38 g/m*3 18.5 C 0 km/h
1402 27-04-2009 16:23:59 18 C 5.38 g/m*3 18 C 0 km/h
1403 27-04-2009 16:35:00 17.4 C 5.19 g/m*3 17.4 C 0 km/h
1404 27-04-2009 16:47:59 17.2 C 5.13 g/m*3 17.2 C 0 km/h
1405 27-04-2009 16:59:59 17.6 C 5.25 g/m*3 17.6 C 0 km/h
1406 27-04-2009 17:11:59 18 C 5.22 g/m*3 18 C 0 km/h
1407 27-04-2009 17:23:59 19.3 C 4.98 g/m*3 19.3 C 0 km/h
1408 27-04-2009 17:35:02 19.2 C 4.78 g/m*3 19.2 C 0 km/h
1409 27-04-2009 17:47:01 19.3 C 4.98 g/m*3 19.3 C 0 km/h
1410 27-04-2009 17:59:01 19.3 C 4.64 g/m*3 19.3 C 0 km/h
1411 27-04-2009 18:11:01 19.8 C 5.12 g/m*3 19.8 C 0 km/h
1412 27-04-2009 18:23:01 19.6 C 4.9 g/m*3 19.6 C 0 km/h
1413 27-04-2009 18:35:01 18.4 C 5.03 g/m*3 18.4 C 0 km/h
1414 27-04-2009 18:47:01 18.1 C 5.1 g/m*3 18.1 C 0 km/h
1415 27-04-2009 18:59:01 18 C 4.92 g/m*3 18 C 0 km/h
1416 27-04-2009 19:11:01 17.8 C 5.16 g/m*3 17.8 C 0 km/h
1417 27-04-2009 19:23:00 18 C 5.07 g/m*3 18 C 0 km/h
1418 27-04-2009 19:35:01 17.2 C 5.13 g/m*3 17.2 C 0 km/h
1419 27-04-2009 19:47:00 16.9 C 5.32 g/m*3 16.9 C 0 km/h
1420 27-04-2009 19:59:00 16.7 C 5.54 g/m*3 16.7 C 0 km/h
1421 27-04-2009 20:11:00 16.2 C 5.52 g/m*3 16.2 C 0 km/h
1422 27-04-2009 20:22:59 15.8 C 5.92 g/m*3 15.8 C 0 km/h
1423 27-04-2009 20:35:00 15.4 C 5.91 g/m*3 15.4 C 0 km/h
1424 27-04-2009 20:47:59 14.9 C 5.86 g/m*3 14.9 C 0 km/h
1425 27-04-2009 20:59:59 14.3 C 5.9 g/m*3 14.3 C 0 km/h
Sensor: Nr:Datum:Temp:Abs-Feuchte:Windchill:Wind:
Aussen-T/F 1426 27-04-2009 21:11:59 14.2 C 6.11 g/m*3 14.2 C 0 km/h
1427 27-04-2009 21:23:00 14.3 C 6.14 g/m*3 14.3 C 0 km/h
1428 27-04-2009 21:35:59 14.3 C 6.14 g/m*3 14.3 C 0 km/h
1429 27-04-2009 21:48:01 14.1 C 6.07 g/m*3 14.1 C 0 km/h
1430 27-04-2009 22:00:01 14.1 C 6.07 g/m*3 14.1 C 0 km/h
1431 27-04-2009 22:12:01 14.1 C 6.19 g/m*3 14.1 C 0 km/h
1432 27-04-2009 22:24:01 14.1 C 6.19 g/m*3 14.1 C 0 km/h
1433 27-04-2009 22:36:01 13.2 C 6.89 g/m*3 13.2 C 0 km/h
1434 27-04-2009 22:48:01 12.6 C 7.19 g/m*3 12.6 C 0 km/h
1435 27-04-2009 23:00:01 12.5 C 7.37 g/m*3 12.5 C 0 km/h
1436 27-04-2009 23:12:01 12.8 C 7.06 g/m*3 12.8 C 0 km/h
1437 27-04-2009 23:24:01 12.9 C 6.99 g/m*3 12.9 C 0 km/h
1438 27-04-2009 23:36:01 12.4 C 6.99 g/m*3 12.4 C 0 km/h
1439 27-04-2009 23:48:01 12 C 7.25 g/m*3 12 C 0 km/h
1440 28-04-2009 00:00:01 12.4 C 7.43 g/m*3 12.4 C 0 km/h
1441 28-04-2009 00:12:01 12.5 C 7.48 g/m*3 12.5 C 0 km/h
1442 28-04-2009 00:24:01 12.1 C 7.29 g/m*3 12.1 C 0 km/h
1443 28-04-2009 00:36:01 11.5 C 7.23 g/m*3 11.5 C 0 km/h
1444 28-04-2009 00:48:01 10.8 C 7.71 g/m*3 10.8 C 0 km/h
1445 28-04-2009 01:00:01 10.7 C 8.05 g/m*3 10.7 C 0 km/h
1446 28-04-2009 01:12:01 10.6 C 8.2 g/m*3 10.6 C 0 km/h
1447 28-04-2009 01:24:01 10.5 C 8.24 g/m*3 10.5 C 0 km/h
1448 28-04-2009 01:36:01 10.5 C 8.34 g/m*3 10.5 C 0 km/h
1449 28-04-2009 01:48:02 10.6 C 8.49 g/m*3 10.6 C 0 km/h
1450 28-04-2009 02:00:02 10.7 C 8.55 g/m*3 10.7 C 0 km/h
Sensor: Nr:Datum:Temp:Abs-Feuchte:Windchill:Wind:
Aussen-T/F 1451 28-04-2009 02:12:02 10.7 C 8.55 g/m*3 10.7 C 0 km/h
1452 28-04-2009 02:24:02 10.8 C 8.6 g/m*3 10.8 C 0 km/h
1453 28-04-2009 02:36:02 10.9 C 8.65 g/m*3 10.9 C 0 km/h
1454 28-04-2009 02:48:02 10.6 C 8.49 g/m*3 10.6 C 0 km/h
1455 28-04-2009 03:00:02 10.5 C 8.53 g/m*3 10.5 C 0 km/h
1456 28-04-2009 03:12:02 10.5 C 8.63 g/m*3 10.5 C 0 km/h
1457 28-04-2009 03:24:02 10.6 C 8.69 g/m*3 10.6 C 0 km/h
1458 28-04-2009 03:36:02 10.6 C 8.69 g/m*3 10.6 C 0 km/h
1459 28-04-2009 03:48:02 10.5 C 8.63 g/m*3 10.5 C 0 km/h
1460 28-04-2009 04:00:02 10.5 C 8.63 g/m*3 10.5 C 0 km/h
1461 28-04-2009 04:12:02 10.4 C 8.67 g/m*3 10.4 C 0 km/h
1462 28-04-2009 04:24:02 10.4 C 8.58 g/m*3 10.4 C 0 km/h
1463 28-04-2009 04:36:02 10.2 C 8.56 g/m*3 10.2 C 0 km/h
1464 28-04-2009 04:48:02 10.4 C 8.67 g/m*3 10.4 C 0 km/h
1465 28-04-2009 05:00:02 10.2 C 8.56 g/m*3 10.2 C 0 km/h
1466 28-04-2009 05:12:02 10.3 C 8.62 g/m*3 10.3 C 0 km/h
1467 28-04-2009 05:24:02 10.1 C 8.51 g/m*3 10.1 C 0 km/h
1468 28-04-2009 05:36:02 10.1 C 8.51 g/m*3 10.1 C 0 km/h
1469 28-04-2009 05:48:03 10.2 C 8.56 g/m*3 10.2 C 0 km/h
1470 28-04-2009 06:00:03 10.1 C 8.51 g/m*3 10.1 C 0 km/h
1471 28-04-2009 06:12:03 10.1 C 8.61 g/m*3 10.1 C 0 km/h
1472 28-04-2009 06:24:03 10 C 8.55 g/m*3 10 C 0 km/h
1473 28-04-2009 06:36:00 9.9 C 8.59 g/m*3 9.9 C 0 km/h
1474 28-04-2009 06:48:00 9.9 C 8.59 g/m*3 9.9 C 0 km/h
1475 28-04-2009 07:00:00 10 C 8.55 g/m*3 10 C 0 km/h
Sensor: Nr:Datum:Temp:Abs-Feuchte:Windchill:Wind:
Aussen-T/F 1476 28-04-2009 07:12:00 10.2 C 8.66 g/m*3 10.2 C 0 km/h
1477 28-04-2009 07:24:00 10.2 C 8.66 g/m*3 10.2 C 0 km/h
1478 28-04-2009 07:36:00 10.3 C 8.71 g/m*3 10.3 C 0 km/h
1479 28-04-2009 07:48:59 10.3 C 8.71 g/m*3 10.3 C 0 km/h
1480 28-04-2009 08:00:00 10.4 C 8.77 g/m*3 10.4 C 0 km/h
1481 28-04-2009 08:12:01 10.5 C 8.83 g/m*3 10.5 C 0 km/h
1482 28-04-2009 08:24:59 10.5 C 8.83 g/m*3 10.5 C 0 km/h
1483 28-04-2009 08:36:59 10.8 C 8.99 g/m*3 10.8 C 0 km/h
1484 28-04-2009 08:48:59 10.9 C 9.05 g/m*3 10.9 C 0 km/h
1485 28-04-2009 09:00:59 10.9 C 9.05 g/m*3 10.9 C 0 km/h
1486 28-04-2009 09:12:59 11 C 9.01 g/m*3 11 C 0 km/h
1487 28-04-2009 09:24:59 11 C 9.01 g/m*3 11 C 0 km/h
1488 28-04-2009 09:36:58 10.8 C 8.9 g/m*3 10.8 C 0 km/h
1489 28-04-2009 09:48:59 10.8 C 8.9 g/m*3 10.8 C 0 km/h
1490 28-04-2009 10:00:58 11 C 9.01 g/m*3 11 C 0 km/h
1491 28-04-2009 10:12:58 11.1 C 9.07 g/m*3 11.1 C 0 km/h
1492 28-04-2009 10:24:58 11.1 C 9.07 g/m*3 11.1 C 0 km/h
1493 28-04-2009 10:36:58 11.5 C 9.3 g/m*3 11.5 C 0 km/h
1494 28-04-2009 10:48:58 11.4 C 9.24 g/m*3 11.4 C 0 km/h
1495 28-04-2009 11:00:57 11.5 C 9.3 g/m*3 11.5 C 0 km/h
1496 28-04-2009 11:12:57 11.2 C 9.02 g/m*3 11.2 C 0 km/h
1497 28-04-2009 11:24:58 11.3 C 9.08 g/m*3 11.3 C 0 km/h
1498 28-04-2009 11:36:58 11.5 C 9.19 g/m*3 11.5 C 0 km/h
1499 28-04-2009 11:48:57 11.6 C 9.15 g/m*3 11.6 C 0 km/h
1500 28-04-2009 12:00:58 11.9 C 9.32 g/m*3 11.9 C 0 km/h
Sensor: Nr:Datum:Temp:Abs-Feuchte:Windchill:Wind:
Aussen-T/F 1501 28-04-2009 12:12:58 11.6 C 9.04 g/m*3 11.6 C 0 km/h
1502 28-04-2009 12:24:57 12.1 C 9.22 g/m*3 12.1 C 0 km/h
1503 28-04-2009 12:36:57 12.2 C 9.06 g/m*3 12.2 C 0 km/h
1504 28-04-2009 12:48:57 12.6 C 9.29 g/m*3 12.6 C 0 km/h
1505 28-04-2009 13:00:57 12.8 C 9.3 g/m*3 12.8 C 0 km/h
1506 28-04-2009 13:12:57 12.7 C 9.24 g/m*3 12.7 C 0 km/h
1507 28-04-2009 13:24:56 12.7 C 9.02 g/m*3 12.7 C 0 km/h
1508 28-04-2009 13:36:56 11.5 C 8.47 g/m*3 11.5 C 0 km/h
1509 28-04-2009 13:48:56 10.4 C 7.9 g/m*3 10.4 C 0 km/h
1510 28-04-2009 14:00:56 10.5 C 7.95 g/m*3 10.5 C 0 km/h
1511 28-04-2009 14:12:56 10.5 C 8.05 g/m*3 10.5 C 0 km/h
1512 28-04-2009 14:24:56 10.7 C 8.05 g/m*3 10.7 C 0 km/h
1513 28-04-2009 14:36:56 11.5 C 8.06 g/m*3 11.5 C 0 km/h
1514 28-04-2009 14:48:56 11.6 C 7.8 g/m*3 11.6 C 0 km/h
1515 28-04-2009 15:00:55 11.5 C 7.64 g/m*3 11.5 C 0 km/h
1516 28-04-2009 15:12:55 11.5 C 7.44 g/m*3 11.5 C 0 km/h
1517 28-04-2009 15:24:56 11.6 C 7.48 g/m*3 11.6 C 0 km/h
1518 28-04-2009 15:36:55 11.9 C 7.52 g/m*3 11.9 C 0 km/h
1519 28-04-2009 15:48:55 11.9 C 7.52 g/m*3 11.9 C 0 km/h
1520 28-04-2009 16:00:55 12.1 C 7.4 g/m*3 12.1 C 0 km/h
1521 28-04-2009 16:12:55 12.2 C 7.34 g/m*3 12.2 C 0 km/h
1522 28-04-2009 16:24:55 12.5 C 7.26 g/m*3 12.5 C 0 km/h
1523 28-04-2009 16:36:54 13.1 C 7.07 g/m*3 13.1 C 0 km/h
1524 28-04-2009 16:48:55 13.3 C 6.82 g/m*3 13.3 C 0 km/h
1525 28-04-2009 17:00:55 13.4 C 6.74 g/m*3 13.4 C 0 km/h
Sensor: Nr:Datum:Temp:Abs-Feuchte:Windchill:Wind:
Aussen-T/F 1526 28-04-2009 17:12:55 13.6 C 6.59 g/m*3 13.6 C 0 km/h
1527 28-04-2009 17:24:54 13.4 C 6.39 g/m*3 13.4 C 0 km/h
1528 28-04-2009 17:36:54 13.3 C 6.47 g/m*3 13.3 C 0 km/h
1529 28-04-2009 17:48:54 13.4 C 6.51 g/m*3 13.4 C 0 km/h
1530 28-04-2009 18:00:54 13.2 C 6.09 g/m*3 13.2 C 0 km/h
1531 28-04-2009 18:12:54 13.2 C 6.2 g/m*3 13.2 C 0 km/h
1532 28-04-2009 18:24:53 12.9 C 5.97 g/m*3 12.9 C 0 km/h
1533 28-04-2009 18:36:54 13 C 6.12 g/m*3 13 C 0 km/h
1534 28-04-2009 18:48:53 13.1 C 6.28 g/m*3 13.1 C 0 km/h
1535 28-04-2009 19:00:53 12.9 C 6.2 g/m*3 12.9 C 0 km/h
1536 28-04-2009 19:12:53 12.9 C 6.88 g/m*3 12.9 C 0 km/h
1537 28-04-2009 19:24:53 12.8 C 7.17 g/m*3 12.8 C 0 km/h
1538 28-04-2009 19:36:53 12.8 C 7.17 g/m*3 12.8 C 0 km/h
1539 28-04-2009 19:48:52 12.7 C 7.01 g/m*3 12.7 C 0 km/h
1540 28-04-2009 20:00:53 12.6 C 7.08 g/m*3 12.6 C 0 km/h
1541 28-04-2009 20:12:53 12.5 C 7.04 g/m*3 12.5 C 0 km/h
1542 28-04-2009 20:24:53 11.6 C 6.96 g/m*3 11.6 C 0 km/h
1543 28-04-2009 20:36:52 10.8 C 6.92 g/m*3 10.8 C 0 km/h
1544 28-04-2009 20:48:53 10.1 C 6.71 g/m*3 10.1 C 0 km/h
1545 28-04-2009 21:00:52 9.6 C 6.69 g/m*3 9.6 C 0 km/h
1546 28-04-2009 21:12:52 9.2 C 6.79 g/m*3 9.2 C 0 km/h
1547 28-04-2009 21:24:52 9.1 C 6.83 g/m*3 9.1 C 0 km/h
1548 28-04-2009 21:36:52 9.2 C 6.88 g/m*3 9.2 C 0 km/h
1549 28-04-2009 21:49:53 9.3 C 6.92 g/m*3 9.3 C 0 km/h
1550 28-04-2009 22:01:53 9.2 C 6.88 g/m*3 9.2 C 0 km/h
Sensor: Nr:Datum:Temp:Abs-Feuchte:Windchill:Wind:
Aussen-T/F 1551 28-04-2009 22:13:53 9.1 C 7.01 g/m*3 9.1 C 0 km/h
1552 28-04-2009 22:25:53 9 C 6.96 g/m*3 9 C 0 km/h
1553 28-04-2009 22:37:53 8.9 C 7.01 g/m*3 8.9 C 0 km/h
1554 28-04-2009 22:49:53 8.6 C 6.87 g/m*3 8.6 C 0 km/h
1555 28-04-2009 23:01:53 8.7 C 6.92 g/m*3 8.7 C 0 km/h
1556 28-04-2009 23:13:53 8.8 C 6.96 g/m*3 8.8 C 0 km/h
1557 28-04-2009 23:25:53 8.9 C 7.01 g/m*3 8.9 C 0 km/h
1558 28-04-2009 23:37:53 8.8 C 6.96 g/m*3 8.8 C 0 km/h
1559 28-04-2009 23:49:53 8.7 C 6.92 g/m*3 8.7 C 0 km/h
1560 29-04-2009 00:01:53 8.6 C 6.96 g/m*3 8.6 C 0 km/h
1561 29-04-2009 00:13:53 8.6 C 6.96 g/m*3 8.6 C 0 km/h
1562 29-04-2009 00:25:53 8.6 C 7.05 g/m*3 8.6 C 0 km/h
1563 29-04-2009 00:37:53 8.5 C 7 g/m*3 8.5 C 0 km/h
1564 29-04-2009 00:49:54 8.4 C 7.04 g/m*3 8.4 C 0 km/h
1565 29-04-2009 01:01:54 8.4 C 7.04 g/m*3 8.4 C 0 km/h
1566 29-04-2009 01:13:54 8.3 C 7 g/m*3 8.3 C 0 km/h
1567 29-04-2009 01:25:54 8.2 C 6.95 g/m*3 8.2 C 0 km/h
1568 29-04-2009 01:37:54 8.1 C 6.91 g/m*3 8.1 C 0 km/h
1569 29-04-2009 01:49:54 8 C 6.86 g/m*3 8 C 0 km/h
1570 29-04-2009 02:01:54 7.9 C 6.9 g/m*3 7.9 C 0 km/h
1571 29-04-2009 02:13:54 7.7 C 6.81 g/m*3 7.7 C 0 km/h
1572 29-04-2009 02:25:54 7.7 C 6.89 g/m*3 7.7 C 0 km/h
1573 29-04-2009 02:37:54 7.6 C 6.85 g/m*3 7.6 C 0 km/h
1574 29-04-2009 02:49:54 7.4 C 6.76 g/m*3 7.4 C 0 km/h
1575 29-04-2009 03:01:54 7.3 C 6.79 g/m*3 7.3 C 0 km/h
Sensor: Nr:Datum:Temp:Abs-Feuchte:Windchill:Wind:
Aussen-T/F 1576 29-04-2009 03:13:54 7.3 C 6.87 g/m*3 7.3 C 0 km/h
1577 29-04-2009 03:25:54 7.3 C 6.87 g/m*3 7.3 C 0 km/h
1578 29-04-2009 03:37:54 7.2 C 6.83 g/m*3 7.2 C 0 km/h
1579 29-04-2009 03:49:54 7.2 C 6.83 g/m*3 7.2 C 0 km/h
1580 29-04-2009 04:01:54 7.1 C 6.79 g/m*3 7.1 C 0 km/h
1581 29-04-2009 04:13:54 6.9 C 6.77 g/m*3 6.9 C 0 km/h
1582 29-04-2009 04:25:54 6.9 C 6.77 g/m*3 6.9 C 0 km/h
1583 29-04-2009 04:37:54 6.8 C 6.73 g/m*3 6.8 C 0 km/h
1584 29-04-2009 04:49:55 6.7 C 6.69 g/m*3 6.7 C 0 km/h
1585 29-04-2009 05:01:55 6.6 C 6.72 g/m*3 6.6 C 0 km/h
1586 29-04-2009 05:13:55 6.6 C 6.72 g/m*3 6.6 C 0 km/h
1587 29-04-2009 05:25:55 7 C 6.9 g/m*3 7 C 0 km/h
1588 29-04-2009 05:37:55 7.2 C 6.99 g/m*3 7.2 C 0 km/h
1589 29-04-2009 05:49:55 7.3 C 7.11 g/m*3 7.3 C 0 km/h
1590 29-04-2009 06:01:55 7.1 C 6.94 g/m*3 7.1 C 0 km/h
1591 29-04-2009 06:13:55 7 C 6.97 g/m*3 7 C 0 km/h
1592 29-04-2009 06:25:55 6.9 C 6.93 g/m*3 6.9 C 0 km/h
1593 29-04-2009 06:37:55 7 C 6.97 g/m*3 7 C 0 km/h
1594 29-04-2009 06:49:55 7 C 6.97 g/m*3 7 C 0 km/h
1595 29-04-2009 07:01:55 7 C 6.97 g/m*3 7 C 0 km/h
1596 29-04-2009 07:13:55 7.1 C 7.02 g/m*3 7.1 C 0 km/h
1597 29-04-2009 07:25:53 7.4 C 7.16 g/m*3 7.4 C 0 km/h
1598 29-04-2009 07:37:52 7.6 C 7.25 g/m*3 7.6 C 0 km/h
1599 29-04-2009 07:49:52 7.8 C 7.26 g/m*3 7.8 C 0 km/h
1600 29-04-2009 08:01:52 8 C 7.19 g/m*3 8 C 0 km/h
Sensor: Nr:Datum:Temp:Abs-Feuchte:Windchill:Wind:
Aussen-T/F 1601 29-04-2009 08:13:52 8.1 C 7.07 g/m*3 8.1 C 0 km/h
1602 29-04-2009 08:25:52 8.1 C 6.99 g/m*3 8.1 C 0 km/h
1603 29-04-2009 08:37:51 8.2 C 7.03 g/m*3 8.2 C 0 km/h
1604 29-04-2009 08:49:51 8.5 C 7.17 g/m*3 8.5 C 0 km/h
1605 29-04-2009 09:01:51 8.7 C 7.18 g/m*3 8.7 C 0 km/h
1606 29-04-2009 09:13:51 9.3 C 7.28 g/m*3 9.3 C 0 km/h
1607 29-04-2009 09:25:51 9.7 C 7.28 g/m*3 9.7 C 0 km/h
1608 29-04-2009 09:37:51 10.3 C 7.28 g/m*3 10.3 C 0 km/h
1609 29-04-2009 09:49:51 10.8 C 7.31 g/m*3 10.8 C 0 km/h
1610 29-04-2009 10:01:50 11.5 C 7.33 g/m*3 11.5 C 0 km/h
1611 29-04-2009 10:13:50 12.2 C 7.45 g/m*3 12.2 C 0 km/h
1612 29-04-2009 10:25:51 12.9 C 7.44 g/m*3 12.9 C 0 km/h
1613 29-04-2009 10:37:50 13.2 C 7.23 g/m*3 13.2 C 0 km/h
1614 29-04-2009 10:49:50 13.5 C 7.25 g/m*3 13.5 C 0 km/h
1615 29-04-2009 11:01:50 14.1 C 7.04 g/m*3 14.1 C 0 km/h
1616 29-04-2009 11:13:50 14.7 C 6.92 g/m*3 14.7 C 0 km/h
1617 29-04-2009 11:25:50 15.5 C 6.87 g/m*3 15.5 C 0 km/h
1618 29-04-2009 11:37:50 15.5 C 6.74 g/m*3 15.5 C 0 km/h
1619 29-04-2009 11:49:50 16.3 C 6.66 g/m*3 16.3 C 0 km/h
1620 29-04-2009 12:01:50 16.6 C 6.5 g/m*3 16.6 C 0 km/h
1621 29-04-2009 12:13:50 16.4 C 5.44 g/m*3 16.4 C 0 km/h
1622 29-04-2009 12:25:49 17.3 C 5.6 g/m*3 17.3 C 0 km/h
1623 29-04-2009 12:37:50 17 C 5.35 g/m*3 17 C 0 km/h
1624 29-04-2009 12:49:49 17.9 C 5.65 g/m*3 17.9 C 0 km/h
1625 29-04-2009 13:01:49 18.5 C 5.22 g/m*3 18.5 C 0 km/h
Sensor: Nr:Datum:Temp:Abs-Feuchte:Windchill:Wind:
Aussen-T/F 1626 29-04-2009 13:13:50 18.6 C 4.93 g/m*3 18.6 C 0 km/h
1627 29-04-2009 13:25:49 18.3 C 5 g/m*3 18.3 C 0 km/h
1628 29-04-2009 13:37:49 18.5 C 4.59 g/m*3 18.5 C 0 km/h
1629 29-04-2009 13:49:48 18.1 C 3.86 g/m*3 18.1 C 0 km/h
1630 29-04-2009 14:01:48 17.9 C 4.12 g/m*3 17.9 C 0 km/h
1631 29-04-2009 14:13:48 17.5 C 4.47 g/m*3 17.5 C 0 km/h
1632 29-04-2009 14:25:49 18.5 C 4.75 g/m*3 18.5 C 0 km/h
1633 29-04-2009 14:37:48 18.6 C 4.77 g/m*3 18.6 C 0 km/h
1634 29-04-2009 14:49:48 20.3 C 5.1 g/m*3 20.3 C 0 km/h
1635 29-04-2009 15:01:48 20.2 C 4.37 g/m*3 20.2 C 0 km/h
1636 29-04-2009 15:13:48 18.1 C 4.94 g/m*3 18.1 C 0 km/h
1637 29-04-2009 15:25:48 17.5 C 5.22 g/m*3 17.5 C 0 km/h
1638 29-04-2009 15:37:47 18 C 4.92 g/m*3 18 C 0 km/h
1639 29-04-2009 15:49:48 20 C 5.01 g/m*3 20 C 0 km/h
1640 29-04-2009 16:01:47 21.1 C 4.97 g/m*3 21.1 C 0 km/h
1641 29-04-2009 16:13:47 20.5 C 4.45 g/m*3 20.5 C 0 km/h
1642 29-04-2009 16:25:47 20.7 C 4.5 g/m*3 20.7 C 0 km/h
1643 29-04-2009 16:37:48 21.2 C 4.63 g/m*3 21.2 C 0 km/h
1644 29-04-2009 16:49:47 21.8 C 4.22 g/m*3 21.8 C 0 km/h
1645 29-04-2009 17:01:47 19.5 C 4.36 g/m*3 19.5 C 0 km/h
1646 29-04-2009 17:13:47 17.6 C 4.65 g/m*3 17.6 C 0 km/h
1647 29-04-2009 17:25:47 17.3 C 5.01 g/m*3 17.3 C 0 km/h
1648 29-04-2009 17:37:47 16.8 C 5 g/m*3 16.8 C 0 km/h
1649 29-04-2009 17:49:46 14.9 C 6.37 g/m*3 14.9 C 0 km/h
1650 29-04-2009 18:01:47 13.7 C 8.64 g/m*3 13.7 C 0 km/h
Sensor: Nr:Datum:Temp:Abs-Feuchte:Windchill:Wind:
Aussen-T/F 1651 29-04-2009 18:13:47 12.5 C 8.36 g/m*3 12.5 C 0 km/h
1652 29-04-2009 18:25:46 12 C 8.42 g/m*3 12 C 0 km/h
1653 29-04-2009 18:37:46 11.2 C 8.11 g/m*3 11.2 C 0 km/h
1654 29-04-2009 18:49:46 11.8 C 8.63 g/m*3 11.8 C 0 km/h
1655 29-04-2009 19:01:46 12.7 C 9.02 g/m*3 12.7 C 0 km/h
1656 29-04-2009 19:13:46 12.8 C 8.62 g/m*3 12.8 C 0 km/h
1657 29-04-2009 19:25:45 12.7 C 8.68 g/m*3 12.7 C 0 km/h
1658 29-04-2009 19:37:46 12.5 C 8.58 g/m*3 12.5 C 0 km/h
1659 29-04-2009 19:49:45 12.5 C 8.47 g/m*3 12.5 C 0 km/h
1660 29-04-2009 20:01:45 12.2 C 8.09 g/m*3 12.2 C 0 km/h
1661 29-04-2009 20:13:45 12.3 C 8.25 g/m*3 12.3 C 0 km/h
1662 29-04-2009 20:25:45 12 C 7.99 g/m*3 12 C 0 km/h
1663 29-04-2009 20:37:45 11.7 C 8.05 g/m*3 11.7 C 0 km/h
1664 29-04-2009 20:49:44 11.7 C 8.05 g/m*3 11.7 C 0 km/h
1665 29-04-2009 21:01:45 11.3 C 7.65 g/m*3 11.3 C 0 km/h
1666 29-04-2009 21:13:46 11.1 C 7.55 g/m*3 11.1 C 0 km/h
1667 29-04-2009 21:25:44 11 C 7.41 g/m*3 11 C 0 km/h
1668 29-04-2009 21:37:44 10.8 C 7.41 g/m*3 10.8 C 0 km/h
1669 29-04-2009 21:49:44 10.7 C 7.27 g/m*3 10.7 C 0 km/h
1670 29-04-2009 22:01:44 10.6 C 7.22 g/m*3 10.6 C 0 km/h
1671 29-04-2009 22:13:44 10.7 C 7.07 g/m*3 10.7 C 0 km/h
1672 29-04-2009 22:25:44 10.7 C 7.07 g/m*3 10.7 C 0 km/h
1673 29-04-2009 22:38:45 10.7 C 7.07 g/m*3 10.7 C 0 km/h
1674 29-04-2009 22:50:45 10.7 C 7.07 g/m*3 10.7 C 0 km/h
1675 29-04-2009 23:02:45 10.7 C 7.17 g/m*3 10.7 C 0 km/h
Sensor: Nr:Datum:Temp:Abs-Feuchte:Windchill:Wind:
Aussen-T/F 1676 29-04-2009 23:14:46 10.6 C 7.12 g/m*3 10.6 C 0 km/h
1677 29-04-2009 23:26:46 10.5 C 7.18 g/m*3 10.5 C 0 km/h
1678 29-04-2009 23:38:46 10.3 C 7.18 g/m*3 10.3 C 0 km/h
1679 29-04-2009 23:50:46 10 C 7.14 g/m*3 10 C 0 km/h
1680 30-04-2009 00:02:46 9.7 C 7.19 g/m*3 9.7 C 0 km/h
1681 30-04-2009 00:14:46 9.5 C 7.19 g/m*3 9.5 C 0 km/h
1682 30-04-2009 00:26:46 9.5 C 7.28 g/m*3 9.5 C 0 km/h
1683 30-04-2009 00:38:46 9.6 C 7.33 g/m*3 9.6 C 0 km/h
1684 30-04-2009 00:50:46 9.6 C 7.42 g/m*3 9.6 C 0 km/h
1685 30-04-2009 01:02:46 9.6 C 7.42 g/m*3 9.6 C 0 km/h
1686 30-04-2009 01:14:46 9.5 C 7.37 g/m*3 9.5 C 0 km/h
1687 30-04-2009 01:26:46 9.2 C 7.32 g/m*3 9.2 C 0 km/h
1688 30-04-2009 01:38:46 9.1 C 7.28 g/m*3 9.1 C 0 km/h
1689 30-04-2009 01:50:46 9 C 7.32 g/m*3 9 C 0 km/h
1690 30-04-2009 02:02:46 8.9 C 7.36 g/m*3 8.9 C 0 km/h
1691 30-04-2009 02:14:46 8.7 C 7.35 g/m*3 8.7 C 0 km/h
1692 30-04-2009 02:26:46 8.8 C 7.4 g/m*3 8.8 C 0 km/h
1693 30-04-2009 02:38:46 8.9 C 7.45 g/m*3 8.9 C 0 km/h
1694 30-04-2009 02:50:46 8.9 C 7.45 g/m*3 8.9 C 0 km/h
1695 30-04-2009 03:02:47 8.9 C 7.45 g/m*3 8.9 C 0 km/h
1696 30-04-2009 03:14:47 8.6 C 7.3 g/m*3 8.6 C 0 km/h
1697 30-04-2009 03:26:47 8.4 C 7.21 g/m*3 8.4 C 0 km/h
1698 30-04-2009 03:38:47 8.2 C 7.12 g/m*3 8.2 C 0 km/h
1699 30-04-2009 03:50:47 8 C 7.11 g/m*3 8 C 0 km/h
1700 30-04-2009 04:02:47 7.8 C 7.18 g/m*3 7.8 C 0 km/h
Sensor: Nr:Datum:Temp:Abs-Feuchte:Windchill:Wind:
Aussen-T/F 1701 30-04-2009 04:14:47 7.8 C 7.18 g/m*3 7.8 C 0 km/h
1702 30-04-2009 04:26:47 7.6 C 7.09 g/m*3 7.6 C 0 km/h
1703 30-04-2009 04:38:47 7.4 C 7.08 g/m*3 7.4 C 0 km/h
1704 30-04-2009 04:50:47 7.4 C 7.08 g/m*3 7.4 C 0 km/h
1705 30-04-2009 05:02:47 7.6 C 7.25 g/m*3 7.6 C 0 km/h
1706 30-04-2009 05:14:47 7.8 C 7.43 g/m*3 7.8 C 0 km/h
1707 30-04-2009 05:26:47 7.9 C 7.47 g/m*3 7.9 C 0 km/h
1708 30-04-2009 05:38:47 8 C 7.36 g/m*3 8 C 0 km/h
1709 30-04-2009 05:50:47 8.1 C 7.41 g/m*3 8.1 C 0 km/h
1710 30-04-2009 06:02:47 8.1 C 7.41 g/m*3 8.1 C 0 km/h
1711 30-04-2009 06:14:47 8.1 C 7.32 g/m*3 8.1 C 0 km/h
1712 30-04-2009 06:26:47 8.2 C 7.37 g/m*3 8.2 C 0 km/h
1713 30-04-2009 06:38:47 8.2 C 7.37 g/m*3 8.2 C 0 km/h
1714 30-04-2009 06:50:44 8.3 C 7.33 g/m*3 8.3 C 0 km/h
1715 30-04-2009 07:02:45 8.3 C 7.33 g/m*3 8.3 C 0 km/h
1716 30-04-2009 07:14:44 8.4 C 7.38 g/m*3 8.4 C 0 km/h
1717 30-04-2009 07:26:44 8.4 C 7.38 g/m*3 8.4 C 0 km/h
1718 30-04-2009 07:38:44 8.6 C 7.48 g/m*3 8.6 C 0 km/h
1719 30-04-2009 07:50:44 8.7 C 7.52 g/m*3 8.7 C 0 km/h
1720 30-04-2009 08:02:44 9 C 7.49 g/m*3 9 C 0 km/h
1721 30-04-2009 08:14:43 9.1 C 7.45 g/m*3 9.1 C 0 km/h
1722 30-04-2009 08:26:43 9.3 C 7.55 g/m*3 9.3 C 0 km/h
1723 30-04-2009 08:38:43 9.6 C 7.6 g/m*3 9.6 C 0 km/h
1724 30-04-2009 08:50:44 9.8 C 7.52 g/m*3 9.8 C 0 km/h
1725 30-04-2009 09:02:43 9.8 C 7.42 g/m*3 9.8 C 0 km/h
Sensor: Nr:Datum:Temp:Abs-Feuchte:Windchill:Wind:
Aussen-T/F 1726 30-04-2009 09:14:43 10.1 C 7.47 g/m*3 10.1 C 0 km/h
1727 30-04-2009 09:26:43 10.3 C 7.47 g/m*3 10.3 C 0 km/h
1728 30-04-2009 09:38:44 10.6 C 7.52 g/m*3 10.6 C 0 km/h
1729 30-04-2009 09:50:43 10.8 C 7.41 g/m*3 10.8 C 0 km/h
1730 30-04-2009 10:02:43 11 C 7.41 g/m*3 11 C 0 km/h
1731 30-04-2009 10:14:42 11.2 C 7.5 g/m*3 11.2 C 0 km/h
1732 30-04-2009 10:26:42 11.4 C 7.49 g/m*3 11.4 C 0 km/h
1733 30-04-2009 10:38:43 11.7 C 7.53 g/m*3 11.7 C 0 km/h
1734 30-04-2009 10:50:42 12 C 7.46 g/m*3 12 C 0 km/h
1735 30-04-2009 11:02:42 12.2 C 7.45 g/m*3 12.2 C 0 km/h
1736 30-04-2009 11:14:42 12.4 C 7.65 g/m*3 12.4 C 0 km/h
1737 30-04-2009 11:26:42 12.6 C 7.63 g/m*3 12.6 C 0 km/h
1738 30-04-2009 11:38:42 12.8 C 7.73 g/m*3 12.8 C 0 km/h
1739 30-04-2009 11:50:41 13.2 C 7.69 g/m*3 13.2 C 0 km/h
1740 30-04-2009 12:02:42 13.4 C 7.56 g/m*3 13.4 C 0 km/h
1741 30-04-2009 12:14:42 13.8 C 7.63 g/m*3 13.8 C 0 km/h
1742 30-04-2009 12:26:42 13.8 C 7.39 g/m*3 13.8 C 0 km/h
1743 30-04-2009 12:38:41 14.2 C 7.45 g/m*3 14.2 C 0 km/h
1744 30-04-2009 12:50:42 15 C 7.44 g/m*3 15 C 0 km/h
1745 30-04-2009 13:02:41 15.3 C 7.31 g/m*3 15.3 C 0 km/h
1746 30-04-2009 13:14:41 16.1 C 7.13 g/m*3 16.1 C 0 km/h
1747 30-04-2009 13:26:41 16.1 C 6.72 g/m*3 16.1 C 0 km/h
1748 30-04-2009 13:38:41 16.9 C 6.9 g/m*3 16.9 C 0 km/h
1749 30-04-2009 13:50:41 18.1 C 6.49 g/m*3 18.1 C 0 km/h
1750 30-04-2009 14:02:40 18.1 C 6.33 g/m*3 18.1 C 0 km/h
Sensor: Nr:Datum:Temp:Abs-Feuchte:Windchill:Wind:
Aussen-T/F 1751 30-04-2009 14:14:40 18 C 6.3 g/m*3 18 C 0 km/h
1752 30-04-2009 14:26:40 19.1 C 6.23 g/m*3 19.1 C 0 km/h
1753 30-04-2009 14:38:40 19 C 6.36 g/m*3 19 C 0 km/h
1754 30-04-2009 14:50:40 17.8 C 6.53 g/m*3 17.8 C 0 km/h
1755 30-04-2009 15:02:40 17.9 C 6.57 g/m*3 17.9 C 0 km/h
1756 30-04-2009 15:14:40 18 C 6.45 g/m*3 18 C 0 km/h
1757 30-04-2009 15:26:40 18.4 C 6.45 g/m*3 18.4 C 0 km/h
1758 30-04-2009 15:38:40 18 C 6.6 g/m*3 18 C 0 km/h
1759 30-04-2009 15:50:39 17.6 C 6.75 g/m*3 17.6 C 0 km/h
1760 30-04-2009 16:02:40 17.6 C 6.6 g/m*3 17.6 C 0 km/h
1761 30-04-2009 16:14:39 17.8 C 6.37 g/m*3 17.8 C 0 km/h
1762 30-04-2009 16:26:39 17.9 C 6.57 g/m*3 17.9 C 0 km/h
1763 30-04-2009 16:38:39 18.1 C 6.64 g/m*3 18.1 C 0 km/h
1764 30-04-2009 16:50:39 18.3 C 6.57 g/m*3 18.3 C 0 km/h
1765 30-04-2009 17:02:39 18.9 C 6.64 g/m*3 18.9 C 0 km/h
1766 30-04-2009 17:14:38 18.9 C 6.64 g/m*3 18.9 C 0 km/h
1767 30-04-2009 17:26:38 18.3 C 6.41 g/m*3 18.3 C 0 km/h
1768 30-04-2009 17:38:39 18.1 C 6.49 g/m*3 18.1 C 0 km/h
1769 30-04-2009 17:50:38 18 C 6.45 g/m*3 18 C 0 km/h
1770 30-04-2009 18:02:38 17.9 C 6.72 g/m*3 17.9 C 0 km/h
1771 30-04-2009 18:14:39 18.1 C 6.49 g/m*3 18.1 C 0 km/h
1772 30-04-2009 18:26:39 17.9 C 6.57 g/m*3 17.9 C 0 km/h
1773 30-04-2009 18:38:38 17.7 C 6.79 g/m*3 17.7 C 0 km/h
1774 30-04-2009 18:50:38 17.9 C 6.87 g/m*3 17.9 C 0 km/h
1775 30-04-2009 19:02:37 18.7 C 6.72 g/m*3 18.7 C 0 km/h
Sensor: Nr:Datum:Temp:Abs-Feuchte:Windchill:Wind:
Aussen-T/F 1776 30-04-2009 19:14:38 19.3 C 6.63 g/m*3 19.3 C 0 km/h
1777 30-04-2009 19:26:39 19.5 C 6.71 g/m*3 19.5 C 0 km/h
1778 30-04-2009 19:38:37 19.1 C 6.88 g/m*3 19.1 C 0 km/h
1779 30-04-2009 19:50:37 18.5 C 6.8 g/m*3 18.5 C 0 km/h
1780 30-04-2009 20:02:37 18.2 C 7.15 g/m*3 18.2 C 0 km/h
1781 30-04-2009 20:14:37 17.6 C 7.5 g/m*3 17.6 C 0 km/h
1782 30-04-2009 20:26:37 16.5 C 7.44 g/m*3 16.5 C 0 km/h
1783 30-04-2009 20:38:37 15.7 C 7.63 g/m*3 15.7 C 0 km/h
1784 30-04-2009 20:50:37 14.9 C 7.52 g/m*3 14.9 C 0 km/h
1785 30-04-2009 21:02:36 14.1 C 7.28 g/m*3 14.1 C 0 km/h
1786 30-04-2009 21:14:37 13.8 C 7.51 g/m*3 13.8 C 0 km/h
1787 30-04-2009 21:26:37 13.9 C 7.55 g/m*3 13.9 C 0 km/h
1788 30-04-2009 21:38:36 13.9 C 7.67 g/m*3 13.9 C 0 km/h
1789 30-04-2009 21:50:36 13.8 C 7.74 g/m*3 13.8 C 0 km/h
1790 30-04-2009 22:02:36 13.7 C 7.82 g/m*3 13.7 C 0 km/h
1791 30-04-2009 22:14:36 13.6 C 7.77 g/m*3 13.6 C 0 km/h
1792 30-04-2009 22:26:36 13.5 C 7.95 g/m*3 13.5 C 0 km/h
1793 30-04-2009 22:39:30 13.3 C 7.97 g/m*3 13.3 C 0 km/h
1794 30-04-2009 22:51:30 13 C 7.94 g/m*3 13 C 0 km/h
1795 30-04-2009 23:03:30 12.8 C 7.95 g/m*3 12.8 C 0 km/h
1796 30-04-2009 23:15:30 12.6 C 7.85 g/m*3 12.6 C 0 km/h
1797 30-04-2009 23:27:30 12.4 C 7.87 g/m*3 12.4 C 0 km/h
1798 30-04-2009 23:39:30 12.3 C 7.93 g/m*3 12.3 C 0 km/h
1799 30-04-2009 23:51:30 12.1 C 7.83 g/m*3 12.1 C 0 km/h
1800 01-05-2009 00:03:30 11.9 C 7.94 g/m*3 11.9 C 0 km/h
Sensor: Nr:Datum:Temp:Abs-Feuchte:Windchill:Wind:
Aussen-T/F 1801 01-05-2009 00:15:31 11.7 C 7.95 g/m*3 11.7 C 0 km/h
1802 01-05-2009 00:27:31 11.5 C 7.85 g/m*3 11.5 C 0 km/h
1803 01-05-2009 00:39:31 11.3 C 7.85 g/m*3 11.3 C 0 km/h
1804 01-05-2009 00:51:31 11.2 C 7.8 g/m*3 11.2 C 0 km/h
1805 01-05-2009 01:03:31 11 C 7.71 g/m*3 11 C 0 km/h
1806 01-05-2009 01:15:31 10.9 C 7.76 g/m*3 10.9 C 0 km/h
1807 01-05-2009 01:27:31 10.7 C 7.66 g/m*3 10.7 C 0 km/h
1808 01-05-2009 01:39:31 10.5 C 7.66 g/m*3 10.5 C 0 km/h
1809 01-05-2009 01:51:31 10.4 C 7.61 g/m*3 10.4 C 0 km/h
1810 01-05-2009 02:03:31 10.2 C 7.61 g/m*3 10.2 C 0 km/h
1811 01-05-2009 02:15:31 10 C 7.52 g/m*3 10 C 0 km/h
1812 01-05-2009 02:27:31 9.9 C 7.66 g/m*3 9.9 C 0 km/h
1813 01-05-2009 02:39:31 9.8 C 7.7 g/m*3 9.8 C 0 km/h
1814 01-05-2009 02:51:31 9.7 C 7.65 g/m*3 9.7 C 0 km/h
1815 01-05-2009 03:03:31 9.5 C 7.65 g/m*3 9.5 C 0 km/h
1816 01-05-2009 03:15:31 9.3 C 7.55 g/m*3 9.3 C 0 km/h
1817 01-05-2009 03:27:31 9.3 C 7.64 g/m*3 9.3 C 0 km/h
1818 01-05-2009 03:39:31 9.2 C 7.59 g/m*3 9.2 C 0 km/h
1819 01-05-2009 03:51:31 9 C 7.49 g/m*3 9 C 0 km/h
1820 01-05-2009 04:03:32 8.8 C 7.49 g/m*3 8.8 C 0 km/h
1821 01-05-2009 04:15:32 8.7 C 7.44 g/m*3 8.7 C 0 km/h
1822 01-05-2009 04:27:32 8.6 C 7.39 g/m*3 8.6 C 0 km/h
1823 01-05-2009 04:39:32 8.4 C 7.3 g/m*3 8.4 C 0 km/h
1824 01-05-2009 04:51:32 8.3 C 7.33 g/m*3 8.3 C 0 km/h
1825 01-05-2009 05:03:32 8.1 C 7.24 g/m*3 8.1 C 0 km/h
Sensor: Nr:Datum:Temp:Abs-Feuchte:Windchill:Wind:
Aussen-T/F 1826 01-05-2009 05:15:32 8.1 C 7.32 g/m*3 8.1 C 0 km/h
1827 01-05-2009 05:27:32 8 C 7.36 g/m*3 8 C 0 km/h
1828 01-05-2009 05:39:32 8.2 C 7.45 g/m*3 8.2 C 0 km/h
1829 01-05-2009 05:51:32 8.3 C 7.59 g/m*3 8.3 C 0 km/h
1830 01-05-2009 06:03:32 8.2 C 7.54 g/m*3 8.2 C 0 km/h
1831 01-05-2009 06:15:32 8.2 C 7.54 g/m*3 8.2 C 0 km/h
1832 01-05-2009 06:27:32 8 C 7.36 g/m*3 8 C 0 km/h
1833 01-05-2009 06:39:32 8 C 7.44 g/m*3 8 C 0 km/h
1834 01-05-2009 06:51:32 8 C 7.44 g/m*3 8 C 0 km/h
1835 01-05-2009 07:03:32 8 C 7.44 g/m*3 8 C 0 km/h
1836 01-05-2009 07:15:32 8 C 7.52 g/m*3 8 C 0 km/h
1837 01-05-2009 07:27:32 8.2 C 7.62 g/m*3 8.2 C 0 km/h
1838 01-05-2009 07:39:32 8.3 C 7.67 g/m*3 8.3 C 0 km/h
1839 01-05-2009 07:51:36 8.5 C 7.77 g/m*3 8.5 C 0 km/h
1840 01-05-2009 08:03:36 8.6 C 7.73 g/m*3 8.6 C 0 km/h
1841 01-05-2009 08:15:36 9 C 7.85 g/m*3 9 C 0 km/h
1842 01-05-2009 08:27:36 9 C 7.76 g/m*3 9 C 0 km/h
1843 01-05-2009 08:39:36 9.3 C 8 g/m*3 9.3 C 0 km/h
1844 01-05-2009 08:51:36 9.7 C 8.11 g/m*3 9.7 C 0 km/h
1845 01-05-2009 09:03:36 9.7 C 8.02 g/m*3 9.7 C 0 km/h
1846 01-05-2009 09:15:35 9.9 C 8.12 g/m*3 9.9 C 0 km/h
1847 01-05-2009 09:27:35 10.9 C 8.45 g/m*3 10.9 C 0 km/h
1848 01-05-2009 09:39:36 11.7 C 8.47 g/m*3 11.7 C 0 km/h
1849 01-05-2009 09:51:35 11.6 C 8 g/m*3 11.6 C 0 km/h
1850 01-05-2009 10:03:35 11.5 C 7.95 g/m*3 11.5 C 0 km/h
Sensor: Nr:Datum:Temp:Abs-Feuchte:Windchill:Wind:
Aussen-T/F 1851 01-05-2009 10:15:35 11.6 C 8.11 g/m*3 11.6 C 0 km/h
1852 01-05-2009 10:27:35 12.2 C 8.2 g/m*3 12.2 C 0 km/h
1853 01-05-2009 10:39:35 13.2 C 8.5 g/m*3 13.2 C 0 km/h
1854 01-05-2009 10:51:34 14 C 8.44 g/m*3 14 C 0 km/h
1855 01-05-2009 11:03:35 14.9 C 8.79 g/m*3 14.9 C 0 km/h
1856 01-05-2009 11:15:35 15.9 C 8.67 g/m*3 15.9 C 0 km/h
1857 01-05-2009 11:27:35 16.6 C 8.76 g/m*3 16.6 C 0 km/h
1858 01-05-2009 11:39:34 17.2 C 8.79 g/m*3 17.2 C 0 km/h
1859 01-05-2009 11:51:35 18 C 8.75 g/m*3 18 C 0 km/h
1860 01-05-2009 12:03:34 18.4 C 8.34 g/m*3 18.4 C 0 km/h
1861 01-05-2009 12:15:34 19.2 C 8.57 g/m*3 19.2 C 0 km/h
1862 01-05-2009 12:27:34 19.5 C 7.89 g/m*3 19.5 C 0 km/h
1863 01-05-2009 12:39:33 19.3 C 7.46 g/m*3 19.3 C 0 km/h
1864 01-05-2009 12:51:34 20.1 C 7.65 g/m*3 20.1 C 0 km/h
1865 01-05-2009 13:03:33 21.6 C 7.21 g/m*3 21.6 C 0 km/h
1866 01-05-2009 13:15:33 21.5 C 6.79 g/m*3 21.5 C 0 km/h
1867 01-05-2009 13:27:33 22.7 C 6.87 g/m*3 22.7 C 0 km/h
1868 01-05-2009 13:39:34 23.6 C 6.81 g/m*3 23.6 C 0 km/h
1869 01-05-2009 13:51:33 23.3 C 6.27 g/m*3 23.3 C 0 km/h
1870 01-05-2009 14:03:33 23.4 C 6.31 g/m*3 23.4 C 0 km/h
1871 01-05-2009 14:15:33 23.7 C 6.2 g/m*3 23.7 C 0 km/h
1872 01-05-2009 14:27:33 23.3 C 6.27 g/m*3 23.3 C 0 km/h
1873 01-05-2009 14:39:33 24.9 C 6.41 g/m*3 24.9 C 0 km/h
1874 01-05-2009 14:51:32 24.2 C 5.94 g/m*3 24.2 C 0 km/h
1875 01-05-2009 15:03:33 25.8 C 6.02 g/m*3 25.8 C 0 km/h
Sensor: Nr:Datum:Temp:Abs-Feuchte:Windchill:Wind:
Aussen-T/F 1876 01-05-2009 15:15:32 24.8 C 5.92 g/m*3 24.8 C 0 km/h
1877 01-05-2009 15:27:32 25 C 5.75 g/m*3 25 C 0 km/h
1878 01-05-2009 15:39:32 26.5 C 6.26 g/m*3 26.5 C 0 km/h
1879 01-05-2009 15:51:31 25.3 C 5.85 g/m*3 25.3 C 0 km/h
1880 01-05-2009 16:03:32 26.4 C 5.23 g/m*3 26.4 C 0 km/h
1881 01-05-2009 16:15:32 27.1 C 5.43 g/m*3 27.1 C 0 km/h
1882 01-05-2009 16:27:32 27.7 C 5.62 g/m*3 27.7 C 0 km/h
1883 01-05-2009 16:39:31 26.4 C 5.23 g/m*3 26.4 C 0 km/h
1884 01-05-2009 16:51:32 26.4 C 5.23 g/m*3 26.4 C 0 km/h
1885 01-05-2009 17:03:31 26.9 C 5.37 g/m*3 26.9 C 0 km/h
1886 01-05-2009 17:15:31 25.6 C 4.76 g/m*3 25.6 C 0 km/h
1887 01-05-2009 17:27:32 26.8 C 5.09 g/m*3 26.8 C 0 km/h
1888 01-05-2009 17:39:31 26 C 4.87 g/m*3 26 C 0 km/h
1889 01-05-2009 17:51:31 25.5 C 5.21 g/m*3 25.5 C 0 km/h
1890 01-05-2009 18:03:30 26.6 C 5.29 g/m*3 26.6 C 0 km/h
1891 01-05-2009 18:15:30 26.9 C 5.37 g/m*3 26.9 C 0 km/h
1892 01-05-2009 18:27:30 26.3 C 5.2 g/m*3 26.3 C 0 km/h
1893 01-05-2009 18:39:31 25.4 C 5.18 g/m*3 25.4 C 0 km/h
1894 01-05-2009 18:51:30 25.8 C 5.54 g/m*3 25.8 C 0 km/h
1895 01-05-2009 19:03:30 25 C 5.29 g/m*3 25 C 0 km/h
1896 01-05-2009 19:15:30 25.4 C 5.41 g/m*3 25.4 C 0 km/h
1897 01-05-2009 19:27:30 24.9 C 5.49 g/m*3 24.9 C 0 km/h
1898 01-05-2009 19:39:30 24.8 C 5.69 g/m*3 24.8 C 0 km/h
1899 01-05-2009 19:51:29 23.9 C 5.84 g/m*3 23.9 C 0 km/h
1900 01-05-2009 20:03:30 22.9 C 6.34 g/m*3 22.9 C 0 km/h
Sensor: Nr:Datum:Temp:Abs-Feuchte:Windchill:Wind:
Aussen-T/F 1901 01-05-2009 20:15:29 22.6 C 7.23 g/m*3 22.6 C 0 km/h
1902 01-05-2009 20:27:29 21.5 C 7.35 g/m*3 21.5 C 0 km/h
1903 01-05-2009 20:39:29 20.7 C 7.56 g/m*3 20.7 C 0 km/h
1904 01-05-2009 20:51:30 19.7 C 7.13 g/m*3 19.7 C 0 km/h
1905 01-05-2009 21:03:29 19 C 7.01 g/m*3 19 C 0 km/h
1906 01-05-2009 21:15:28 18.5 C 7.12 g/m*3 18.5 C 0 km/h
1907 01-05-2009 21:27:28 18.2 C 7.15 g/m*3 18.2 C 0 km/h
1908 01-05-2009 21:39:29 17.8 C 7.29 g/m*3 17.8 C 0 km/h
1909 01-05-2009 21:51:28 17.6 C 7.2 g/m*3 17.6 C 0 km/h
1910 01-05-2009 22:03:28 17.4 C 7.11 g/m*3 17.4 C 0 km/h
1911 01-05-2009 22:15:29 17 C 7.38 g/m*3 17 C 0 km/h
1912 01-05-2009 22:27:29 16.6 C 7.49 g/m*3 16.6 C 0 km/h
1913 01-05-2009 22:40:28 16.8 C 7.43 g/m*3 16.8 C 0 km/h
1914 01-05-2009 22:52:28 16.2 C 7.17 g/m*3 16.2 C 0 km/h
1915 01-05-2009 23:04:29 15.8 C 7.4 g/m*3 15.8 C 0 km/h
1916 01-05-2009 23:16:29 15.5 C 7.4 g/m*3 15.5 C 0 km/h
1917 01-05-2009 23:28:29 15.1 C 7.48 g/m*3 15.1 C 0 km/h
1918 01-05-2009 23:40:29 14.9 C 7.65 g/m*3 14.9 C 0 km/h
1919 01-05-2009 23:52:29 14.6 C 7.76 g/m*3 14.6 C 0 km/h
1920 02-05-2009 00:04:29 14.4 C 7.91 g/m*3 14.4 C 0 km/h
1921 02-05-2009 00:16:29 14.2 C 7.94 g/m*3 14.2 C 0 km/h
1922 02-05-2009 00:28:29 14.2 C 7.94 g/m*3 14.2 C 0 km/h
1923 02-05-2009 00:40:29 13.9 C 8.15 g/m*3 13.9 C 0 km/h
1924 02-05-2009 00:52:29 13.7 C 8.17 g/m*3 13.7 C 0 km/h
1925 02-05-2009 01:04:29 13.3 C 8.09 g/m*3 13.3 C 0 km/h
Sensor: Nr:Datum:Temp:Abs-Feuchte:Windchill:Wind:
Aussen-T/F 1926 02-05-2009 01:16:29 13.1 C 8.1 g/m*3 13.1 C 0 km/h
1927 02-05-2009 01:28:29 12.9 C 8.23 g/m*3 12.9 C 0 km/h
1928 02-05-2009 01:40:29 12.7 C 8.24 g/m*3 12.7 C 0 km/h
1929 02-05-2009 01:52:29 12.5 C 8.14 g/m*3 12.5 C 0 km/h
1930 02-05-2009 02:04:29 12.4 C 8.19 g/m*3 12.4 C 0 km/h
1931 02-05-2009 02:16:29 12.2 C 8.09 g/m*3 12.2 C 0 km/h
1932 02-05-2009 02:28:29 12.1 C 8.15 g/m*3 12.1 C 0 km/h
1933 02-05-2009 02:40:29 12 C 8.1 g/m*3 12 C 0 km/h
1934 02-05-2009 02:52:30 11.9 C 8.15 g/m*3 11.9 C 0 km/h
1935 02-05-2009 03:04:30 11.8 C 8.1 g/m*3 11.8 C 0 km/h
1936 02-05-2009 03:16:30 11.8 C 8.21 g/m*3 11.8 C 0 km/h
1937 02-05-2009 03:28:30 11.3 C 8.06 g/m*3 11.3 C 0 km/h
1938 02-05-2009 03:40:30 11.2 C 8.01 g/m*3 11.2 C 0 km/h
1939 02-05-2009 03:52:30 11 C 8.01 g/m*3 11 C 0 km/h
1940 02-05-2009 04:04:30 10.9 C 8.16 g/m*3 10.9 C 0 km/h
1941 02-05-2009 04:16:30 10.7 C 8.05 g/m*3 10.7 C 0 km/h
1942 02-05-2009 04:28:30 10.6 C 8 g/m*3 10.6 C 0 km/h
1943 02-05-2009 04:40:30 10.6 C 8.1 g/m*3 10.6 C 0 km/h
1944 02-05-2009 04:52:30 10.5 C 8.05 g/m*3 10.5 C 0 km/h
1945 02-05-2009 05:04:30 10.4 C 8 g/m*3 10.4 C 0 km/h
1946 02-05-2009 05:16:30 10.3 C 7.95 g/m*3 10.3 C 0 km/h
1947 02-05-2009 05:28:30 10.2 C 7.99 g/m*3 10.2 C 0 km/h
1948 02-05-2009 05:40:30 10.2 C 7.99 g/m*3 10.2 C 0 km/h
1949 02-05-2009 05:52:30 10 C 7.89 g/m*3 10 C 0 km/h
1950 02-05-2009 06:04:30 10 C 7.89 g/m*3 10 C 0 km/h
Sensor: Nr:Datum:Temp:Abs-Feuchte:Windchill:Wind:
Aussen-T/F 1951 02-05-2009 06:16:30 10 C 7.99 g/m*3 10 C 0 km/h
1952 02-05-2009 06:28:30 10 C 7.99 g/m*3 10 C 0 km/h
1953 02-05-2009 06:40:31 10 C 7.99 g/m*3 10 C 0 km/h
1954 02-05-2009 06:52:31 10.3 C 8.14 g/m*3 10.3 C 0 km/h
1955 02-05-2009 07:04:31 10.6 C 8.2 g/m*3 10.6 C 0 km/h
1956 02-05-2009 07:16:31 11.2 C 8.51 g/m*3 11.2 C 0 km/h
1957 02-05-2009 07:28:31 11.5 C 8.47 g/m*3 11.5 C 0 km/h
1958 02-05-2009 07:40:31 12.2 C 8.63 g/m*3 12.2 C 0 km/h
1959 02-05-2009 07:52:31 12.7 C 8.46 g/m*3 12.7 C 0 km/h
1960 02-05-2009 08:04:28 13.3 C 8.55 g/m*3 13.3 C 0 km/h
1961 02-05-2009 08:16:28 13.5 C 8.19 g/m*3 13.5 C 0 km/h
1962 02-05-2009 08:28:28 13.5 C 8.07 g/m*3 13.5 C 0 km/h
1963 02-05-2009 08:40:27 13.6 C 8 g/m*3 13.6 C 0 km/h
1964 02-05-2009 08:52:27 13.7 C 7.93 g/m*3 13.7 C 0 km/h
1965 02-05-2009 09:04:27 14.1 C 7.89 g/m*3 14.1 C 0 km/h
1966 02-05-2009 09:16:27 14.4 C 7.66 g/m*3 14.4 C 0 km/h
1967 02-05-2009 09:28:27 14.8 C 7.6 g/m*3 14.8 C 0 km/h
1968 02-05-2009 09:40:27 15.2 C 7.66 g/m*3 15.2 C 0 km/h
1969 02-05-2009 09:52:27 15.6 C 7.85 g/m*3 15.6 C 0 km/h
1970 02-05-2009 10:04:26 16.1 C 7.54 g/m*3 16.1 C 0 km/h
1971 02-05-2009 10:16:27 16.1 C 7.68 g/m*3 16.1 C 0 km/h
1972 02-05-2009 10:28:27 16.8 C 7.72 g/m*3 16.8 C 0 km/h
1973 02-05-2009 10:40:26 17.5 C 7.6 g/m*3 17.5 C 0 km/h
1974 02-05-2009 10:52:26 18.3 C 7.66 g/m*3 18.3 C 0 km/h
1975 02-05-2009 11:04:26 18.1 C 7.42 g/m*3 18.1 C 0 km/h
Sensor: Nr:Datum:Temp:Abs-Feuchte:Windchill:Wind:
Aussen-T/F 1976 02-05-2009 11:16:26 17.3 C 7.51 g/m*3 17.3 C 0 km/h
1977 02-05-2009 11:28:26 18.1 C 7.57 g/m*3 18.1 C 0 km/h
1978 02-05-2009 11:40:26 17.3 C 7.37 g/m*3 17.3 C 0 km/h
1979 02-05-2009 11:52:26 18.5 C 7.91 g/m*3 18.5 C 0 km/h
1980 02-05-2009 12:04:26 18.8 C 7.41 g/m*3 18.8 C 0 km/h
1981 02-05-2009 12:16:25 18.9 C 7.78 g/m*3 18.9 C 0 km/h
1982 02-05-2009 12:28:25 20 C 7.6 g/m*3 20 C 0 km/h
1983 02-05-2009 12:40:25 20 C 7.6 g/m*3 20 C 0 km/h
1984 02-05-2009 12:52:25 21.5 C 7.73 g/m*3 21.5 C 0 km/h
1985 02-05-2009 13:04:25 21.9 C 7.72 g/m*3 21.9 C 0 km/h
1986 02-05-2009 13:16:25 22.3 C 7.11 g/m*3 22.3 C 0 km/h
1987 02-05-2009 13:28:25 23 C 6.78 g/m*3 23 C 0 km/h
1988 02-05-2009 13:40:25 22.3 C 6.91 g/m*3 22.3 C 0 km/h
1989 02-05-2009 13:52:25 22.8 C 6.5 g/m*3 22.8 C 0 km/h
1990 02-05-2009 14:04:24 22.3 C 6.12 g/m*3 22.3 C 0 km/h
1991 02-05-2009 14:16:25 22.8 C 6.5 g/m*3 22.8 C 0 km/h
1992 02-05-2009 14:28:25 22.7 C 6.47 g/m*3 22.7 C 0 km/h
1993 02-05-2009 14:40:24 23.1 C 6.61 g/m*3 23.1 C 0 km/h
1994 02-05-2009 14:52:24 23.9 C 6.06 g/m*3 23.9 C 0 km/h
1995 02-05-2009 15:04:24 24 C 5.87 g/m*3 24 C 0 km/h
1996 02-05-2009 15:16:24 23.8 C 5.81 g/m*3 23.8 C 0 km/h
1997 02-05-2009 15:28:24 24.7 C 5.66 g/m*3 24.7 C 0 km/h
1998 02-05-2009 15:40:24 25.8 C 5.78 g/m*3 25.8 C 0 km/h
1999 02-05-2009 15:52:24 24.3 C 5.31 g/m*3 24.3 C 0 km/h
2000 02-05-2009 16:04:24 26.1 C 5.39 g/m*3 26.1 C 0 km/h
Sensor: Nr:Datum:Temp:Abs-Feuchte:Windchill:Wind:
Aussen-T/F 2001 02-05-2009 16:16:23 26.7 C 5.06 g/m*3 26.7 C 0 km/h
2002 02-05-2009 16:28:23 26.7 C 5.06 g/m*3 26.7 C 0 km/h
2003 02-05-2009 16:40:23 25.9 C 4.84 g/m*3 25.9 C 0 km/h
2004 02-05-2009 16:52:23 25.5 C 4.73 g/m*3 25.5 C 0 km/h
2005 02-05-2009 17:04:23 26.1 C 4.9 g/m*3 26.1 C 0 km/h
2006 02-05-2009 17:16:22 27.3 C 5.23 g/m*3 27.3 C 0 km/h
2007 02-05-2009 17:28:22 27.6 C 5.32 g/m*3 27.6 C 0 km/h
2008 02-05-2009 17:40:23 26.8 C 5.09 g/m*3 26.8 C 0 km/h
2009 02-05-2009 17:52:22 26.6 C 5.03 g/m*3 26.6 C 0 km/h
2010 02-05-2009 18:04:22 26.3 C 4.95 g/m*3 26.3 C 0 km/h
2011 02-05-2009 18:16:23 27 C 5.15 g/m*3 27 C 0 km/h
2012 02-05-2009 18:28:23 27.1 C 5.18 g/m*3 27.1 C 0 km/h
2013 02-05-2009 18:40:22 25.9 C 4.84 g/m*3 25.9 C 0 km/h
2014 02-05-2009 18:52:22 26.9 C 5.12 g/m*3 26.9 C 0 km/h
2015 02-05-2009 19:04:22 26 C 4.87 g/m*3 26 C 0 km/h
2016 02-05-2009 19:16:22 24.1 C 4.38 g/m*3 24.1 C 0 km/h
2017 02-05-2009 19:28:22 24.5 C 4.7 g/m*3 24.5 C 0 km/h
2018 02-05-2009 19:40:21 23.9 C 4.54 g/m*3 23.9 C 0 km/h
2019 02-05-2009 19:52:22 23.2 C 4.99 g/m*3 23.2 C 0 km/h
2020 02-05-2009 20:04:21 22.9 C 5.11 g/m*3 22.9 C 0 km/h
2021 02-05-2009 20:16:21 22.5 C 5.59 g/m*3 22.5 C 0 km/h
2022 02-05-2009 20:28:21 21.8 C 5.76 g/m*3 21.8 C 0 km/h
2023 02-05-2009 20:40:21 21 C 5.5 g/m*3 21 C 0 km/h
2024 02-05-2009 20:52:21 20.3 C 5.45 g/m*3 20.3 C 0 km/h
2025 02-05-2009 21:04:21 19.6 C 5.57 g/m*3 19.6 C 0 km/h
Sensor: Nr:Datum:Temp:Abs-Feuchte:Windchill:Wind:
Aussen-T/F 2026 02-05-2009 21:16:20 18.7 C 5.6 g/m*3 18.7 C 0 km/h
2027 02-05-2009 21:28:20 17.9 C 5.5 g/m*3 17.9 C 0 km/h
2028 02-05-2009 21:40:20 17.6 C 5.55 g/m*3 17.6 C 0 km/h
2029 02-05-2009 21:52:20 17.2 C 5.71 g/m*3 17.2 C 0 km/h
2030 02-05-2009 22:04:20 16.9 C 5.75 g/m*3 16.9 C 0 km/h
2031 02-05-2009 22:16:20 16.7 C 5.83 g/m*3 16.7 C 0 km/h
2032 02-05-2009 22:28:20 16.8 C 6 g/m*3 16.8 C 0 km/h
2033 02-05-2009 22:41:22 16.5 C 6.18 g/m*3 16.5 C 0 km/h
2034 02-05-2009 22:53:22 16.4 C 6.28 g/m*3 16.4 C 0 km/h
2035 02-05-2009 23:05:22 16.1 C 6.44 g/m*3 16.1 C 0 km/h
2036 02-05-2009 23:17:22 16 C 6.54 g/m*3 16 C 0 km/h
2037 02-05-2009 23:29:22 16 C 6.4 g/m*3 16 C 0 km/h
2038 02-05-2009 23:41:22 15.6 C 6.52 g/m*3 15.6 C 0 km/h
2039 02-05-2009 23:53:22 15.3 C 6.66 g/m*3 15.3 C 0 km/h
2040 03-05-2009 00:05:22 14.9 C 6.75 g/m*3 14.9 C 0 km/h
2041 03-05-2009 00:17:22 14.6 C 6.88 g/m*3 14.6 C 0 km/h
2042 03-05-2009 00:29:22 14.4 C 6.92 g/m*3 14.4 C 0 km/h
2043 03-05-2009 00:41:22 13.9 C 7.07 g/m*3 13.9 C 0 km/h
2044 03-05-2009 00:53:22 13.2 C 7 g/m*3 13.2 C 0 km/h
2045 03-05-2009 01:05:22 13.2 C 7.12 g/m*3 13.2 C 0 km/h
2046 03-05-2009 01:17:22 13.2 C 7.23 g/m*3 13.2 C 0 km/h
2047 03-05-2009 01:29:22 12.9 C 7.33 g/m*3 12.9 C 0 km/h
2048 03-05-2009 01:41:22 12.6 C 7.3 g/m*3 12.6 C 0 km/h
2049 03-05-2009 01:53:23 12.4 C 7.32 g/m*3 12.4 C 0 km/h
2050 03-05-2009 02:05:23 12.2 C 7.34 g/m*3 12.2 C 0 km/h
Sensor: Nr:Datum:Temp:Abs-Feuchte:Windchill:Wind:
Aussen-T/F 2051 03-05-2009 02:17:23 12.2 C 7.34 g/m*3 12.2 C 0 km/h
2052 03-05-2009 02:29:23 12 C 7.35 g/m*3 12 C 0 km/h
2053 03-05-2009 02:41:23 11.8 C 7.37 g/m*3 11.8 C 0 km/h
2054 03-05-2009 02:53:23 11.8 C 7.47 g/m*3 11.8 C 0 km/h
2055 03-05-2009 03:05:23 11.4 C 7.39 g/m*3 11.4 C 0 km/h
2056 03-05-2009 03:17:23 11.2 C 7.4 g/m*3 11.2 C 0 km/h
2057 03-05-2009 03:29:23 10.9 C 7.36 g/m*3 10.9 C 0 km/h
2058 03-05-2009 03:41:23 10.8 C 7.41 g/m*3 10.8 C 0 km/h
2059 03-05-2009 03:53:23 10.6 C 7.42 g/m*3 10.6 C 0 km/h
2060 03-05-2009 04:05:23 10.5 C 7.37 g/m*3 10.5 C 0 km/h
2061 03-05-2009 04:17:23 10.2 C 7.33 g/m*3 10.2 C 0 km/h
2062 03-05-2009 04:29:23 9.9 C 7.38 g/m*3 9.9 C 0 km/h
2063 03-05-2009 04:41:23 9.9 C 7.38 g/m*3 9.9 C 0 km/h
2064 03-05-2009 04:53:23 9.8 C 7.33 g/m*3 9.8 C 0 km/h
2065 03-05-2009 05:05:23 9.7 C 7.38 g/m*3 9.7 C 0 km/h
2066 03-05-2009 05:17:23 9.3 C 7.19 g/m*3 9.3 C 0 km/h
2067 03-05-2009 05:29:23 9.1 C 7.19 g/m*3 9.1 C 0 km/h
2068 03-05-2009 05:41:23 9.1 C 7.19 g/m*3 9.1 C 0 km/h
2069 03-05-2009 05:53:24 9 C 7.23 g/m*3 9 C 0 km/h
2070 03-05-2009 06:05:24 9.1 C 7.28 g/m*3 9.1 C 0 km/h
2071 03-05-2009 06:17:24 9.5 C 7.46 g/m*3 9.5 C 0 km/h
2072 03-05-2009 06:29:24 9.6 C 7.42 g/m*3 9.6 C 0 km/h
2073 03-05-2009 06:41:24 9.5 C 7.28 g/m*3 9.5 C 0 km/h
2074 03-05-2009 06:53:24 9.6 C 7.42 g/m*3 9.6 C 0 km/h
2075 03-05-2009 07:05:24 9.8 C 7.42 g/m*3 9.8 C 0 km/h
Sensor: Nr:Datum:Temp:Abs-Feuchte:Windchill:Wind:
Aussen-T/F 2076 03-05-2009 07:17:24 10.1 C 7.38 g/m*3 10.1 C 0 km/h
2077 03-05-2009 07:29:24 9.9 C 7.38 g/m*3 9.9 C 0 km/h
2078 03-05-2009 07:41:24 9.9 C 7.47 g/m*3 9.9 C 0 km/h
2079 03-05-2009 07:53:24 10.3 C 7.47 g/m*3 10.3 C 0 km/h
2080 03-05-2009 08:05:21 10.6 C 7.52 g/m*3 10.6 C 0 km/h
2081 03-05-2009 08:17:20 11.1 C 7.55 g/m*3 11.1 C 0 km/h
2082 03-05-2009 08:29:20 11.5 C 7.54 g/m*3 11.5 C 0 km/h
2083 03-05-2009 08:41:20 11.6 C 7.59 g/m*3 11.6 C 0 km/h
2084 03-05-2009 08:53:21 12 C 7.57 g/m*3 12 C 0 km/h
2085 03-05-2009 09:05:20 12.2 C 7.66 g/m*3 12.2 C 0 km/h
2086 03-05-2009 09:17:20 12.9 C 7.89 g/m*3 12.9 C 0 km/h
2087 03-05-2009 09:29:20 13.1 C 7.76 g/m*3 13.1 C 0 km/h
2088 03-05-2009 09:41:21 13.7 C 7.93 g/m*3 13.7 C 0 km/h
2089 03-05-2009 09:53:20 14.1 C 8.01 g/m*3 14.1 C 0 km/h
2090 03-05-2009 10:05:20 14.6 C 8.01 g/m*3 14.6 C 0 km/h
2091 03-05-2009 10:17:20 14.9 C 8.03 g/m*3 14.9 C 0 km/h
2092 03-05-2009 10:29:20 15.4 C 8.15 g/m*3 15.4 C 0 km/h
2093 03-05-2009 10:41:20 16.8 C 8.44 g/m*3 16.8 C 0 km/h
2094 03-05-2009 10:53:19 17.3 C 8.1 g/m*3 17.3 C 0 km/h
2095 03-05-2009 11:05:20 17.5 C 8.05 g/m*3 17.5 C 0 km/h
2096 03-05-2009 11:17:19 17.8 C 8.04 g/m*3 17.8 C 0 km/h
2097 03-05-2009 11:29:19 18.4 C 8.02 g/m*3 18.4 C 0 km/h
2098 03-05-2009 11:41:19 18.9 C 7.78 g/m*3 18.9 C 0 km/h
2099 03-05-2009 11:53:18 19 C 7.99 g/m*3 19 C 0 km/h
2100 03-05-2009 12:05:19 19.4 C 7.67 g/m*3 19.4 C 0 km/h
Sensor: Nr:Datum:Temp:Abs-Feuchte:Windchill:Wind:
Aussen-T/F 2101 03-05-2009 12:17:19 19.9 C 7.56 g/m*3 19.9 C 0 km/h
2102 03-05-2009 12:29:19 20.2 C 7.52 g/m*3 20.2 C 0 km/h
2103 03-05-2009 12:41:18 20.7 C 7.56 g/m*3 20.7 C 0 km/h
2104 03-05-2009 12:53:19 21.4 C 7.5 g/m*3 21.4 C 0 km/h
2105 03-05-2009 13:05:18 22.5 C 7.59 g/m*3 22.5 C 0 km/h
2106 03-05-2009 13:17:18 23.3 C 7.32 g/m*3 23.3 C 0 km/h
2107 03-05-2009 13:29:18 21.7 C 7.44 g/m*3 21.7 C 0 km/h
2108 03-05-2009 13:41:18 22.2 C 7.66 g/m*3 22.2 C 0 km/h
2109 03-05-2009 13:53:18 21.1 C 7.74 g/m*3 21.1 C 0 km/h
2110 03-05-2009 14:05:18 20.6 C 8.23 g/m*3 20.6 C 0 km/h
2111 03-05-2009 14:17:17 19.8 C 8.03 g/m*3 19.8 C 0 km/h
2112 03-05-2009 14:29:17 16.8 C 9.44 g/m*3 16.8 C 0 km/h
2113 03-05-2009 14:41:18 17.3 C 9.72 g/m*3 17.3 C 0 km/h
2114 03-05-2009 14:53:17 18.3 C 8.29 g/m*3 18.3 C 0 km/h
2115 03-05-2009 15:05:17 19 C 8.15 g/m*3 19 C 0 km/h
2116 03-05-2009 15:17:17 18.8 C 7.57 g/m*3 18.8 C 0 km/h
2117 03-05-2009 15:29:17 20.6 C 7.87 g/m*3 20.6 C 0 km/h
2118 03-05-2009 15:41:17 20.9 C 7.47 g/m*3 20.9 C 0 km/h
2119 03-05-2009 15:53:17 20.4 C 7.25 g/m*3 20.4 C 0 km/h
2120 03-05-2009 16:05:02 21.5 C 7.35 g/m*3 21.5 C 0 km/h
2121 03-05-2009 16:17:02 19.9 C 6.53 g/m*3 19.9 C 0 km/h
2122 03-05-2009 16:29:02 17.1 C 5.68 g/m*3 17.1 C 0 km/h
2123 03-05-2009 16:41:02 16.9 C 5.9 g/m*3 16.9 C 0 km/h
2124 03-05-2009 16:53:02 16.1 C 5.76 g/m*3 16.1 C 0 km/h
2125 03-05-2009 17:05:01 16.2 C 5.79 g/m*3 16.2 C 0 km/h
Sensor: Nr:Datum:Temp:Abs-Feuchte:Windchill:Wind:
Aussen-T/F 2126 03-05-2009 17:17:02 16.1 C 5.76 g/m*3 16.1 C 0 km/h
2127 03-05-2009 17:29:02 16.4 C 6.28 g/m*3 16.4 C 0 km/h
2128 03-05-2009 17:41:01 16.4 C 6.28 g/m*3 16.4 C 0 km/h
2129 03-05-2009 17:53:01 16.3 C 5.83 g/m*3 16.3 C 0 km/h
2130 03-05-2009 18:05:01 16.6 C 5.93 g/m*3 16.6 C 0 km/h
2131 03-05-2009 18:17:01 16.6 C 5.51 g/m*3 16.6 C 0 km/h
2132 03-05-2009 18:29:01 17.1 C 5.24 g/m*3 17.1 C 0 km/h
2133 03-05-2009 18:41:01 16.5 C 5.34 g/m*3 16.5 C 0 km/h
2134 03-05-2009 18:53:01 16.5 C 5.34 g/m*3 16.5 C 0 km/h
2135 03-05-2009 19:05:01 17.3 C 5.45 g/m*3 17.3 C 0 km/h
2136 03-05-2009 19:17:00 16.4 C 5.44 g/m*3 16.4 C 0 km/h
2137 03-05-2009 19:29:00 16.1 C 5.62 g/m*3 16.1 C 0 km/h
2138 03-05-2009 19:41:00 16.8 C 5.72 g/m*3 16.8 C 0 km/h
2139 03-05-2009 19:53:00 16.8 C 5.72 g/m*3 16.8 C 0 km/h
2140 03-05-2009 20:05:00 16.1 C 5.35 g/m*3 16.1 C 0 km/h
2141 03-05-2009 20:17:59 15.4 C 5.39 g/m*3 15.4 C 0 km/h
2142 03-05-2009 20:29:59 14.8 C 5.7 g/m*3 14.8 C 0 km/h
2143 03-05-2009 20:41:00 14.5 C 5.72 g/m*3 14.5 C 0 km/h
2144 03-05-2009 20:53:59 14.5 C 5.85 g/m*3 14.5 C 0 km/h
2145 03-05-2009 21:05:59 14.4 C 5.93 g/m*3 14.4 C 0 km/h
2146 03-05-2009 21:17:59 14.2 C 5.74 g/m*3 14.2 C 0 km/h
2147 03-05-2009 21:29:59 14 C 5.79 g/m*3 14 C 0 km/h
2148 03-05-2009 21:41:59 13.6 C 5.77 g/m*3 13.6 C 0 km/h
2149 03-05-2009 21:53:58 13.5 C 5.61 g/m*3 13.5 C 0 km/h
2150 03-05-2009 22:05:59 13.1 C 5.36 g/m*3 13.1 C 0 km/h
Sensor: Nr:Datum:Temp:Abs-Feuchte:Windchill:Wind:
Aussen-T/F 2151 03-05-2009 22:17:59 12.9 C 5.3 g/m*3 12.9 C 0 km/h
2152 03-05-2009 22:29:59 12.7 C 5.12 g/m*3 12.7 C 0 km/h
2153 03-05-2009 22:41:58 12.5 C 5.06 g/m*3 12.5 C 0 km/h
2154 03-05-2009 22:53:59 12.3 C 5.1 g/m*3 12.3 C 0 km/h
2155 03-05-2009 23:05:58 12.2 C 5.07 g/m*3 12.2 C 0 km/h
2156 03-05-2009 23:17:58 12.1 C 5.15 g/m*3 12.1 C 0 km/h
2157 03-05-2009 23:29:58 11.8 C 5.16 g/m*3 11.8 C 0 km/h
2158 03-05-2009 23:41:58 11.7 C 5.23 g/m*3 11.7 C 0 km/h
2159 03-05-2009 23:53:58 11.8 C 5.37 g/m*3 11.8 C 0 km/h
2160 04-05-2009 00:06:59 11.8 C 5.47 g/m*3 11.8 C 0 km/h
2161 04-05-2009 00:18:59 11.5 C 5.47 g/m*3 11.5 C 0 km/h
2162 04-05-2009 00:30:59 11.5 C 5.47 g/m*3 11.5 C 0 km/h
2163 04-05-2009 00:42:59 11.2 C 5.37 g/m*3 11.2 C 0 km/h
2164 04-05-2009 00:54:59 11 C 5.1 g/m*3 11 C 0 km/h
2165 04-05-2009 01:06:59 10.7 C 5.11 g/m*3 10.7 C 0 km/h
2166 04-05-2009 01:18:59 10.6 C 5.17 g/m*3 10.6 C 0 km/h
2167 04-05-2009 01:30:59 10.5 C 4.95 g/m*3 10.5 C 0 km/h
2168 04-05-2009 01:42:59 10.4 C 4.72 g/m*3 10.4 C 0 km/h
2169 04-05-2009 01:54:59 10.2 C 4.66 g/m*3 10.2 C 0 km/h
2170 04-05-2009 02:06:59 10 C 4.51 g/m*3 10 C 0 km/h
2171 04-05-2009 02:18:59 9.8 C 4.55 g/m*3 9.8 C 0 km/h
2172 04-05-2009 02:30:59 9.7 C 4.61 g/m*3 9.7 C 0 km/h
2173 04-05-2009 02:42:59 9.3 C 4.49 g/m*3 9.3 C 0 km/h
2174 04-05-2009 03:05:59 8.9 C 4.56 g/m*3 8.9 C 0 km/h
2175 04-05-2009 03:17:59 8.6 C 4.55 g/m*3 8.6 C 0 km/h
Sensor: Nr:Datum:Temp:Abs-Feuchte:Windchill:Wind:
Aussen-T/F 2176 04-05-2009 03:30:00 8.5 C 4.61 g/m*3 8.5 C 0 km/h
2177 04-05-2009 03:42:00 8.3 C 4.64 g/m*3 8.3 C 0 km/h
2178 04-05-2009 03:54:00 8.2 C 4.69 g/m*3 8.2 C 0 km/h
2179 04-05-2009 04:06:00 8.2 C 4.69 g/m*3 8.2 C 0 km/h
2180 04-05-2009 04:18:00 7.9 C 4.68 g/m*3 7.9 C 0 km/h
2181 04-05-2009 04:30:00 7.8 C 4.82 g/m*3 7.8 C 0 km/h
2182 04-05-2009 04:42:00 7.5 C 4.8 g/m*3 7.5 C 0 km/h
2183 04-05-2009 04:54:00 7.2 C 4.79 g/m*3 7.2 C 0 km/h
2184 04-05-2009 05:06:00 7 C 4.88 g/m*3 7 C 0 km/h
2185 04-05-2009 05:18:00 6.9 C 4.93 g/m*3 6.9 C 0 km/h
2186 04-05-2009 05:30:00 6.8 C 5.05 g/m*3 6.8 C 0 km/h
2187 04-05-2009 05:42:00 7 C 4.96 g/m*3 7 C 0 km/h
2188 04-05-2009 05:54:00 7.3 C 5.06 g/m*3 7.3 C 0 km/h
2189 04-05-2009 06:06:00 7.4 C 5.01 g/m*3 7.4 C 0 km/h
2190 04-05-2009 06:18:00 7.1 C 4.99 g/m*3 7.1 C 0 km/h
2191 04-05-2009 06:30:00 6.9 C 5.16 g/m*3 6.9 C 0 km/h
2192 04-05-2009 06:42:00 6.7 C 5.17 g/m*3 6.7 C 0 km/h
2193 04-05-2009 06:54:00 6.5 C 5.17 g/m*3 6.5 C 0 km/h
2194 04-05-2009 07:06:00 6.4 C 5.22 g/m*3 6.4 C 0 km/h
2195 04-05-2009 07:18:00 7.1 C 5.46 g/m*3 7.1 C 0 km/h
2196 04-05-2009 07:30:00 7.1 C 5.38 g/m*3 7.1 C 0 km/h
2197 04-05-2009 07:30:58 7 C 5.27 g/m*3 7 C 0 km/h
2198 04-05-2009 07:42:58 7.1 C 5.3 g/m*3 7.1 C 0 km/h
2199 04-05-2009 07:54:58 8.1 C 5.41 g/m*3 8.1 C 0 km/h
2200 04-05-2009 08:06:57 7.9 C 5.42 g/m*3 7.9 C 0 km/h
Sensor: Nr:Datum:Temp:Abs-Feuchte:Windchill:Wind:
Aussen-T/F 2201 04-05-2009 08:18:58 7.8 C 5.47 g/m*3 7.8 C 0 km/h
2202 04-05-2009 08:30:58 7.9 C 5.5 g/m*3 7.9 C 0 km/h
2203 04-05-2009 08:42:58 8 C 5.37 g/m*3 8 C 0 km/h
2204 04-05-2009 08:54:57 8.1 C 5.41 g/m*3 8.1 C 0 km/h
2205 04-05-2009 09:06:57 8.3 C 5.31 g/m*3 8.3 C 0 km/h
2206 04-05-2009 09:18:58 8.6 C 5.07 g/m*3 8.6 C 0 km/h
2207 04-05-2009 09:30:57 9 C 5.2 g/m*3 9 C 0 km/h
2208 04-05-2009 09:42:57 9.6 C 5.04 g/m*3 9.6 C 0 km/h
2209 04-05-2009 09:54:57 9.3 C 4.76 g/m*3 9.3 C 0 km/h
2210 04-05-2009 10:06:57 9.7 C 4.98 g/m*3 9.7 C 0 km/h
2211 04-05-2009 10:18:57 10.8 C 4.65 g/m*3 10.8 C 0 km/h
2212 04-05-2009 10:30:56 10.9 C 4.48 g/m*3 10.9 C 0 km/h
2213 04-05-2009 10:42:56 10.8 C 4.55 g/m*3 10.8 C 0 km/h
2214 04-05-2009 10:54:56 10.3 C 4.12 g/m*3 10.3 C 0 km/h
2215 04-05-2009 11:06:56 11.3 C 4.49 g/m*3 11.3 C 0 km/h
2216 04-05-2009 11:18:56 11.9 C 4.45 g/m*3 11.9 C 0 km/h
2217 04-05-2009 11:30:56 13.4 C 4.42 g/m*3 13.4 C 0 km/h
2218 04-05-2009 11:42:56 11.7 C 3.97 g/m*3 11.7 C 0 km/h
2219 04-05-2009 11:54:56 12.4 C 3.93 g/m*3 12.4 C 0 km/h
2220 04-05-2009 12:06:56 12.6 C 3.98 g/m*3 12.6 C 0 km/h
2221 04-05-2009 12:18:55 13.2 C 4.02 g/m*3 13.2 C 0 km/h
2222 04-05-2009 12:30:55 13.8 C 4.05 g/m*3 13.8 C 0 km/h
2223 04-05-2009 12:42:55 14 C 3.62 g/m*3 14 C 0 km/h
2224 04-05-2009 12:54:55 14 C 3.74 g/m*3 14 C 0 km/h
2225 04-05-2009 13:06:55 14.6 C 3.5 g/m*3 14.6 C 0 km/h
Sensor: Nr:Datum:Temp:Abs-Feuchte:Windchill:Wind:
Aussen-T/F 2226 04-05-2009 13:18:54 15.4 C 3.28 g/m*3 15.4 C 0 km/h
2227 04-05-2009 13:30:55 15.6 C 3.46 g/m*3 15.6 C 0 km/h
2228 04-05-2009 13:42:55 15.4 C 3.28 g/m*3 15.4 C 0 km/h
2229 04-05-2009 13:54:54 16.2 C 2.9 g/m*3 16.2 C 0 km/h
2230 04-05-2009 14:06:54 15.5 C 2.64 g/m*3 15.5 C 0 km/h
2231 04-05-2009 14:18:55 15.9 C 3.25 g/m*3 15.9 C 0 km/h
2232 04-05-2009 14:30:54 15.6 C 2.66 g/m*3 15.6 C 0 km/h
2233 04-05-2009 14:42:54 16.8 C 3 g/m*3 16.8 C 0 km/h
2234 04-05-2009 14:54:54 16.8 C 2.86 g/m*3 16.8 C 0 km/h
2235 04-05-2009 15:06:54 15 C 2.56 g/m*3 15 C 0 km/h
2236 04-05-2009 15:18:54 14.6 C 3.25 g/m*3 14.6 C 0 km/h
2237 04-05-2009 15:30:54 16.2 C 3.31 g/m*3 16.2 C 0 km/h
2238 04-05-2009 15:42:54 17.1 C 2.91 g/m*3 17.1 C 0 km/h
2239 04-05-2009 15:54:54 15.2 C 2.86 g/m*3 15.2 C 0 km/h
2240 04-05-2009 16:06:54 15.8 C 2.96 g/m*3 15.8 C 0 km/h
2241 04-05-2009 16:18:53 16.8 C 3.15 g/m*3 16.8 C 0 km/h
2242 04-05-2009 16:30:53 16.6 C 2.83 g/m*3 16.6 C 0 km/h
2243 04-05-2009 16:42:53 15.8 C 2.96 g/m*3 15.8 C 0 km/h
2244 04-05-2009 16:54:53 16.2 C 3.17 g/m*3 16.2 C 0 km/h
2245 04-05-2009 17:06:53 15 C 3.08 g/m*3 15 C 0 km/h
2246 04-05-2009 17:18:52 17 C 2.89 g/m*3 17 C 0 km/h
2247 04-05-2009 17:30:53 16 C 2.72 g/m*3 16 C 0 km/h
2248 04-05-2009 17:42:53 15.4 C 3.02 g/m*3 15.4 C 0 km/h
2249 04-05-2009 17:54:53 16 C 3.13 g/m*3 16 C 0 km/h
2250 04-05-2009 18:06:52 16.4 C 3.07 g/m*3 16.4 C 0 km/h
Sensor: Nr:Datum:Temp:Abs-Feuchte:Windchill:Wind:
Aussen-T/F 2251 04-05-2009 18:18:52 17.3 C 2.95 g/m*3 17.3 C 0 km/h
2252 04-05-2009 18:30:51 17.5 C 2.98 g/m*3 17.5 C 0 km/h
2253 04-05-2009 18:42:51 18.7 C 3.2 g/m*3 18.7 C 0 km/h
2254 04-05-2009 18:54:52 18 C 3.07 g/m*3 18 C 0 km/h
2255 04-05-2009 19:06:51 18.1 C 3.09 g/m*3 18.1 C 0 km/h
2256 04-05-2009 19:18:51 18.9 C 3.24 g/m*3 18.9 C 0 km/h
2257 04-05-2009 19:30:52 17.9 C 3.05 g/m*3 17.9 C 0 km/h
2258 04-05-2009 19:42:52 17.7 C 3.02 g/m*3 17.7 C 0 km/h
2259 04-05-2009 19:54:51 16.1 C 3.56 g/m*3 16.1 C 0 km/h
2260 04-05-2009 20:06:51 14.8 C 3.8 g/m*3 14.8 C 0 km/h
2261 04-05-2009 20:18:51 13.8 C 3.93 g/m*3 13.8 C 0 km/h
2262 04-05-2009 20:30:51 12.8 C 3.92 g/m*3 12.8 C 0 km/h
2263 04-05-2009 20:42:52 12.6 C 3.98 g/m*3 12.6 C 0 km/h
2264 04-05-2009 20:54:50 12.7 C 4.01 g/m*3 12.7 C 0 km/h
2265 04-05-2009 21:06:51 12.8 C 4.03 g/m*3 12.8 C 0 km/h
2266 04-05-2009 21:18:50 12.8 C 4.03 g/m*3 12.8 C 0 km/h
2267 04-05-2009 21:30:50 12.8 C 4.14 g/m*3 12.8 C 0 km/h
2268 04-05-2009 21:42:50 12.7 C 4.34 g/m*3 12.7 C 0 km/h
2269 04-05-2009 21:54:50 12.3 C 4.34 g/m*3 12.3 C 0 km/h
2270 04-05-2009 22:07:51 12.1 C 4.61 g/m*3 12.1 C 0 km/h
2271 04-05-2009 22:19:51 11.9 C 4.77 g/m*3 11.9 C 0 km/h
2272 04-05-2009 22:31:51 11.7 C 4.71 g/m*3 11.7 C 0 km/h
2273 04-05-2009 22:43:51 11.8 C 4.74 g/m*3 11.8 C 0 km/h
2274 04-05-2009 22:55:52 11.8 C 4.63 g/m*3 11.8 C 0 km/h
2275 04-05-2009 23:07:52 11.7 C 4.81 g/m*3 11.7 C 0 km/h
Sensor: Nr:Datum:Temp:Abs-Feuchte:Windchill:Wind:
Aussen-T/F 2276 04-05-2009 23:19:52 11.5 C 4.85 g/m*3 11.5 C 0 km/h
2277 04-05-2009 23:31:52 11.4 C 4.72 g/m*3 11.4 C 0 km/h
2278 04-05-2009 23:43:52 11.1 C 4.73 g/m*3 11.1 C 0 km/h
2279 04-05-2009 23:55:52 10.8 C 4.74 g/m*3 10.8 C 0 km/h
2280 05-05-2009 00:07:52 10.5 C 4.66 g/m*3 10.5 C 0 km/h
2281 05-05-2009 00:19:52 10 C 4.6 g/m*3 10 C 0 km/h
2282 05-05-2009 00:31:52 9.6 C 4.67 g/m*3 9.6 C 0 km/h
2283 05-05-2009 00:43:52 9.3 C 4.67 g/m*3 9.3 C 0 km/h
2284 05-05-2009 00:55:52 9.1 C 4.79 g/m*3 9.1 C 0 km/h
2285 05-05-2009 01:07:52 8.9 C 4.73 g/m*3 8.9 C 0 km/h
2286 05-05-2009 01:19:52 8.7 C 4.93 g/m*3 8.7 C 0 km/h
2287 05-05-2009 01:31:52 8.4 C 5.01 g/m*3 8.4 C 0 km/h
2288 05-05-2009 01:43:52 8.1 C 4.99 g/m*3 8.1 C 0 km/h
2289 05-05-2009 01:55:52 8 C 4.96 g/m*3 8 C 0 km/h
2290 05-05-2009 02:07:52 8.2 C 5.19 g/m*3 8.2 C 0 km/h
2291 05-05-2009 02:19:52 8.2 C 5.28 g/m*3 8.2 C 0 km/h
2292 05-05-2009 02:31:52 8.2 C 5.28 g/m*3 8.2 C 0 km/h
2293 05-05-2009 02:43:52 8.2 C 5.28 g/m*3 8.2 C 0 km/h
2294 05-05-2009 02:55:53 8.2 C 5.28 g/m*3 8.2 C 0 km/h
2295 05-05-2009 03:07:53 7.9 C 5.42 g/m*3 7.9 C 0 km/h
2296 05-05-2009 03:19:53 7.9 C 5.42 g/m*3 7.9 C 0 km/h
2297 05-05-2009 03:31:53 7.8 C 5.39 g/m*3 7.8 C 0 km/h
2298 05-05-2009 03:43:53 7.9 C 5.26 g/m*3 7.9 C 0 km/h
2299 05-05-2009 03:55:53 7.9 C 5.17 g/m*3 7.9 C 0 km/h
2300 05-05-2009 04:07:53 8 C 4.96 g/m*3 8 C 0 km/h
Sensor: Nr:Datum:Temp:Abs-Feuchte:Windchill:Wind:
Aussen-T/F 2301 05-05-2009 04:19:53 7.9 C 5.09 g/m*3 7.9 C 0 km/h
2302 05-05-2009 04:31:53 7.8 C 5.22 g/m*3 7.8 C 0 km/h
2303 05-05-2009 04:43:53 7.9 C 5.17 g/m*3 7.9 C 0 km/h
2304 05-05-2009 04:55:53 7.9 C 5.17 g/m*3 7.9 C 0 km/h
2305 05-05-2009 05:07:53 7.9 C 5.34 g/m*3 7.9 C 0 km/h
2306 05-05-2009 05:19:53 7.8 C 5.39 g/m*3 7.8 C 0 km/h
2307 05-05-2009 05:31:53 7.8 C 5.47 g/m*3 7.8 C 0 km/h
2308 05-05-2009 05:43:53 7.7 C 5.43 g/m*3 7.7 C 0 km/h
2309 05-05-2009 05:55:53 7.9 C 5.42 g/m*3 7.9 C 0 km/h
2310 05-05-2009 06:07:53 8 C 5.29 g/m*3 8 C 0 km/h
2311 05-05-2009 06:19:53 8 C 5.29 g/m*3 8 C 0 km/h
2312 05-05-2009 06:31:53 8.1 C 5.33 g/m*3 8.1 C 0 km/h
2313 05-05-2009 06:43:53 8.2 C 5.36 g/m*3 8.2 C 0 km/h
2314 05-05-2009 06:55:54 8.3 C 5.39 g/m*3 8.3 C 0 km/h
2315 05-05-2009 07:07:54 8.5 C 5.46 g/m*3 8.5 C 0 km/h
2316 05-05-2009 07:19:54 8.6 C 5.41 g/m*3 8.6 C 0 km/h
2317 05-05-2009 07:31:54 8.9 C 5.43 g/m*3 8.9 C 0 km/h
2318 05-05-2009 07:43:54 9.2 C 5.36 g/m*3 9.2 C 0 km/h
2319 05-05-2009 07:55:54 9.4 C 5.43 g/m*3 9.4 C 0 km/h
2320 05-05-2009 08:07:54 9.5 C 5.28 g/m*3 9.5 C 0 km/h
2321 05-05-2009 08:19:54 9.6 C 5.13 g/m*3 9.6 C 0 km/h
2322 05-05-2009 08:31:54 9.8 C 5.1 g/m*3 9.8 C 0 km/h
2323 05-05-2009 08:43:54 9.9 C 5.14 g/m*3 9.9 C 0 km/h
2324 05-05-2009 08:55:50 10.4 C 5.3 g/m*3 10.4 C 0 km/h
2325 05-05-2009 09:07:50 10.5 C 5.14 g/m*3 10.5 C 0 km/h
Sensor: Nr:Datum:Temp:Abs-Feuchte:Windchill:Wind:
Aussen-T/F 2326 05-05-2009 09:19:50 10.4 C 5.3 g/m*3 10.4 C 0 km/h
2327 05-05-2009 09:31:50 10.6 C 5.56 g/m*3 10.6 C 0 km/h
2328 05-05-2009 09:43:50 10.8 C 5.54 g/m*3 10.8 C 0 km/h
2329 05-05-2009 09:55:49 11 C 5.51 g/m*3 11 C 0 km/h
2330 05-05-2009 10:07:50 11.2 C 5.57 g/m*3 11.2 C 0 km/h
2331 05-05-2009 10:19:50 11.3 C 5.51 g/m*3 11.3 C 0 km/h
2332 05-05-2009 10:31:49 11.4 C 5.44 g/m*3 11.4 C 0 km/h
2333 05-05-2009 10:43:49 12 C 5.44 g/m*3 12 C 0 km/h
2334 05-05-2009 10:55:50 12 C 5.44 g/m*3 12 C 0 km/h
2335 05-05-2009 11:07:49 12.4 C 5.57 g/m*3 12.4 C 0 km/h
2336 05-05-2009 11:19:49 12.6 C 5.64 g/m*3 12.6 C 0 km/h
2337 05-05-2009 11:31:48 12.7 C 5.9 g/m*3 12.7 C 0 km/h
2338 05-05-2009 11:43:48 12.7 C 6.01 g/m*3 12.7 C 0 km/h
2339 05-05-2009 11:55:49 12.8 C 6.27 g/m*3 12.8 C 0 km/h
2340 05-05-2009 12:07:48 12.7 C 6.12 g/m*3 12.7 C 0 km/h
2341 05-05-2009 12:19:48 12.9 C 6.42 g/m*3 12.9 C 0 km/h
2342 05-05-2009 12:31:49 12.5 C 6.49 g/m*3 12.5 C 0 km/h
2343 05-05-2009 12:43:49 12.4 C 6.66 g/m*3 12.4 C 0 km/h
2344 05-05-2009 12:55:48 11.8 C 6.84 g/m*3 11.8 C 0 km/h
2345 05-05-2009 13:07:48 11.8 C 6.95 g/m*3 11.8 C 0 km/h
2346 05-05-2009 13:19:48 11.8 C 6.74 g/m*3 11.8 C 0 km/h
2347 05-05-2009 13:31:48 12 C 6.5 g/m*3 12 C 0 km/h
2348 05-05-2009 13:43:48 12.1 C 6.54 g/m*3 12.1 C 0 km/h
2349 05-05-2009 13:55:47 12.6 C 6.64 g/m*3 12.6 C 0 km/h
2350 05-05-2009 14:07:48 12.8 C 6.61 g/m*3 12.8 C 0 km/h
Sensor: Nr:Datum:Temp:Abs-Feuchte:Windchill:Wind:
Aussen-T/F 2351 05-05-2009 14:19:47 12.5 C 6.6 g/m*3 12.5 C 0 km/h
2352 05-05-2009 14:31:47 12.3 C 6.62 g/m*3 12.3 C 0 km/h
2353 05-05-2009 14:43:47 12.4 C 6.77 g/m*3 12.4 C 0 km/h
2354 05-05-2009 14:55:47 13.1 C 6.73 g/m*3 13.1 C 0 km/h
2355 05-05-2009 15:07:47 13.4 C 6.74 g/m*3 13.4 C 0 km/h
2356 05-05-2009 15:19:47 13.4 C 6.74 g/m*3 13.4 C 0 km/h
2357 05-05-2009 15:31:46 13.1 C 6.85 g/m*3 13.1 C 0 km/h
2358 05-05-2009 15:43:46 12.2 C 7.34 g/m*3 12.2 C 0 km/h
2359 05-05-2009 15:55:47 11.6 C 7.8 g/m*3 11.6 C 0 km/h
2360 05-05-2009 16:07:46 11.2 C 7.91 g/m*3 11.2 C 0 km/h
2361 05-05-2009 16:19:46 11.2 C 8.11 g/m*3 11.2 C 0 km/h
2362 05-05-2009 16:31:46 11.5 C 8.37 g/m*3 11.5 C 0 km/h
2363 05-05-2009 16:43:46 11.7 C 8.26 g/m*3 11.7 C 0 km/h
2364 05-05-2009 16:55:46 11.8 C 8.31 g/m*3 11.8 C 0 km/h
2365 05-05-2009 17:07:45 11.6 C 8.21 g/m*3 11.6 C 0 km/h
2366 05-05-2009 17:19:46 11.7 C 8.37 g/m*3 11.7 C 0 km/h
2367 05-05-2009 17:31:46 11.8 C 8.31 g/m*3 11.8 C 0 km/h
2368 05-05-2009 17:43:46 12 C 8.42 g/m*3 12 C 0 km/h
2369 05-05-2009 17:55:45 11.8 C 8.42 g/m*3 11.8 C 0 km/h
2370 05-05-2009 18:07:44 11.6 C 8.52 g/m*3 11.6 C 0 km/h
2371 05-05-2009 18:19:45 11.5 C 8.57 g/m*3 11.5 C 0 km/h
2372 05-05-2009 18:31:45 11.3 C 8.57 g/m*3 11.3 C 0 km/h
2373 05-05-2009 18:43:45 11.2 C 8.72 g/m*3 11.2 C 0 km/h
2374 05-05-2009 18:55:45 11.2 C 8.72 g/m*3 11.2 C 0 km/h
2375 05-05-2009 19:07:45 11.2 C 8.82 g/m*3 11.2 C 0 km/h
Sensor: Nr:Datum:Temp:Abs-Feuchte:Windchill:Wind:
Aussen-T/F 2376 05-05-2009 19:19:44 11.2 C 8.92 g/m*3 11.2 C 0 km/h
2377 05-05-2009 19:31:44 11.2 C 8.92 g/m*3 11.2 C 0 km/h
2378 05-05-2009 19:43:44 11.1 C 8.96 g/m*3 11.1 C 0 km/h
2379 05-05-2009 19:55:44 11.1 C 8.96 g/m*3 11.1 C 0 km/h
2380 05-05-2009 20:07:44 11.1 C 9.07 g/m*3 11.1 C 0 km/h
2381 05-05-2009 20:19:43 11 C 9.01 g/m*3 11 C 0 km/h
2382 05-05-2009 20:31:44 11.1 C 9.07 g/m*3 11.1 C 0 km/h
2383 05-05-2009 20:43:44 11.1 C 9.17 g/m*3 11.1 C 0 km/h
2384 05-05-2009 20:55:43 11 C 9.11 g/m*3 11 C 0 km/h
2385 05-05-2009 21:07:43 11.1 C 9.17 g/m*3 11.1 C 0 km/h
2386 05-05-2009 21:19:43 11.1 C 9.27 g/m*3 11.1 C 0 km/h
2387 05-05-2009 21:31:43 11.2 C 9.33 g/m*3 11.2 C 0 km/h
2388 05-05-2009 21:43:43 11.2 C 9.33 g/m*3 11.2 C 0 km/h
2389 05-05-2009 21:55:43 11.2 C 9.33 g/m*3 11.2 C 0 km/h
2390 05-05-2009 22:07:42 11.2 C 9.33 g/m*3 11.2 C 0 km/h
2391 05-05-2009 22:19:43 11.2 C 9.33 g/m*3 11.2 C 0 km/h
2392 05-05-2009 22:31:43 11.3 C 9.38 g/m*3 11.3 C 0 km/h
2393 05-05-2009 22:43:43 11.4 C 9.44 g/m*3 11.4 C 0 km/h
2394 05-05-2009 22:55:42 11.3 C 9.38 g/m*3 11.3 C 0 km/h
2395 05-05-2009 23:07:43 11.4 C 9.44 g/m*3 11.4 C 0 km/h
2396 05-05-2009 23:19:42 11.4 C 9.44 g/m*3 11.4 C 0 km/h
2397 05-05-2009 23:32:43 11.4 C 9.44 g/m*3 11.4 C 0 km/h
2398 05-05-2009 23:44:43 11.3 C 9.38 g/m*3 11.3 C 0 km/h
2399 05-05-2009 23:56:43 11.4 C 9.44 g/m*3 11.4 C 0 km/h
2400 06-05-2009 00:08:43 11.8 C 9.58 g/m*3 11.8 C 0 km/h
Sensor: Nr:Datum:Temp:Abs-Feuchte:Windchill:Wind:
Aussen-T/F 2401 06-05-2009 00:20:43 11.9 C 9.43 g/m*3 11.9 C 0 km/h
2402 06-05-2009 00:32:43 12 C 9.27 g/m*3 12 C 0 km/h
2403 06-05-2009 00:44:43 12 C 9.06 g/m*3 12 C 0 km/h
2404 06-05-2009 00:56:43 12.1 C 9.01 g/m*3 12.1 C 0 km/h
2405 06-05-2009 01:08:43 12.2 C 8.96 g/m*3 12.2 C 0 km/h
2406 06-05-2009 01:20:43 12.2 C 8.85 g/m*3 12.2 C 0 km/h
2407 06-05-2009 01:32:44 12.1 C 8.79 g/m*3 12.1 C 0 km/h
2408 06-05-2009 01:44:44 12.1 C 8.79 g/m*3 12.1 C 0 km/h
2409 06-05-2009 01:56:44 12.1 C 8.79 g/m*3 12.1 C 0 km/h
2410 06-05-2009 02:08:44 12.3 C 8.8 g/m*3 12.3 C 0 km/h
2411 06-05-2009 02:20:44 12.4 C 8.74 g/m*3 12.4 C 0 km/h
2412 06-05-2009 02:32:44 12.4 C 8.74 g/m*3 12.4 C 0 km/h
2413 06-05-2009 02:44:44 12.4 C 8.63 g/m*3 12.4 C 0 km/h
2414 06-05-2009 02:56:44 12.4 C 8.63 g/m*3 12.4 C 0 km/h
2415 06-05-2009 03:08:44 12.2 C 8.63 g/m*3 12.2 C 0 km/h
2416 06-05-2009 03:20:44 12.2 C 8.52 g/m*3 12.2 C 0 km/h
2417 06-05-2009 03:32:44 12.4 C 8.3 g/m*3 12.4 C 0 km/h
2418 06-05-2009 03:44:44 12.4 C 8.3 g/m*3 12.4 C 0 km/h
2419 06-05-2009 03:56:44 12.4 C 8.3 g/m*3 12.4 C 0 km/h
2420 06-05-2009 04:08:44 12.4 C 8.09 g/m*3 12.4 C 0 km/h
2421 06-05-2009 04:20:44 12.4 C 7.98 g/m*3 12.4 C 0 km/h
2422 06-05-2009 04:32:44 12.2 C 7.99 g/m*3 12.2 C 0 km/h
2423 06-05-2009 04:44:44 12 C 7.99 g/m*3 12 C 0 km/h
2424 06-05-2009 04:56:44 12 C 7.99 g/m*3 12 C 0 km/h
2425 06-05-2009 05:08:44 12 C 7.78 g/m*3 12 C 0 km/h
Sensor: Nr:Datum:Temp:Abs-Feuchte:Windchill:Wind:
Aussen-T/F 2426 06-05-2009 05:20:44 12 C 7.57 g/m*3 12 C 0 km/h
2427 06-05-2009 05:32:45 11.9 C 7.41 g/m*3 11.9 C 0 km/h
2428 06-05-2009 05:44:45 11.8 C 7.26 g/m*3 11.8 C 0 km/h
2429 06-05-2009 05:56:45 11.8 C 7.05 g/m*3 11.8 C 0 km/h
2430 06-05-2009 06:08:45 11.8 C 6.95 g/m*3 11.8 C 0 km/h
2431 06-05-2009 06:20:45 11.8 C 7.05 g/m*3 11.8 C 0 km/h
2432 06-05-2009 06:32:45 11.8 C 7.05 g/m*3 11.8 C 0 km/h
2433 06-05-2009 06:44:45 11.8 C 7.16 g/m*3 11.8 C 0 km/h
2434 06-05-2009 06:56:45 11.8 C 7.16 g/m*3 11.8 C 0 km/h
2435 06-05-2009 07:08:45 11.8 C 6.95 g/m*3 11.8 C 0 km/h
2436 06-05-2009 07:20:45 11.9 C 6.99 g/m*3 11.9 C 0 km/h
2437 06-05-2009 07:32:45 12 C 6.71 g/m*3 12 C 0 km/h
2438 06-05-2009 07:44:45 12.2 C 6.91 g/m*3 12.2 C 0 km/h
2439 06-05-2009 07:56:45 12.3 C 6.84 g/m*3 12.3 C 0 km/h
2440 06-05-2009 08:08:43 12.3 C 6.73 g/m*3 12.3 C 0 km/h
2441 06-05-2009 08:20:43 12.3 C 6.73 g/m*3 12.3 C 0 km/h
2442 06-05-2009 08:32:43 12.2 C 6.69 g/m*3 12.2 C 0 km/h
2443 06-05-2009 08:44:43 12.2 C 6.69 g/m*3 12.2 C 0 km/h
2444 06-05-2009 08:56:43 12.4 C 6.88 g/m*3 12.4 C 0 km/h
2445 06-05-2009 09:08:42 12.3 C 6.41 g/m*3 12.3 C 0 km/h
2446 06-05-2009 09:20:43 12.5 C 6.38 g/m*3 12.5 C 0 km/h
2447 06-05-2009 09:32:42 13.1 C 6.73 g/m*3 13.1 C 0 km/h
2448 06-05-2009 09:44:42 13.2 C 6.54 g/m*3 13.2 C 0 km/h
2449 06-05-2009 09:56:43 13.7 C 6.16 g/m*3 13.7 C 0 km/h
2450 06-05-2009 10:08:42 14.1 C 6.31 g/m*3 14.1 C 0 km/h
Sensor: Nr:Datum:Temp:Abs-Feuchte:Windchill:Wind:
Aussen-T/F 2451 06-05-2009 10:20:42 14 C 6.03 g/m*3 14 C 0 km/h
2452 06-05-2009 10:32:42 14.4 C 6.18 g/m*3 14.4 C 0 km/h
2453 06-05-2009 10:44:41 14.1 C 5.95 g/m*3 14.1 C 0 km/h
2454 06-05-2009 10:56:41 14.4 C 5.93 g/m*3 14.4 C 0 km/h
2455 06-05-2009 11:08:42 14.7 C 5.92 g/m*3 14.7 C 0 km/h
2456 06-05-2009 11:20:41 14.7 C 5.79 g/m*3 14.7 C 0 km/h
2457 06-05-2009 11:32:41 15.2 C 5.84 g/m*3 15.2 C 0 km/h
2458 06-05-2009 11:44:41 15.4 C 5.78 g/m*3 15.4 C 0 km/h
2459 06-05-2009 11:56:41 15.5 C 5.82 g/m*3 15.5 C 0 km/h
2460 06-05-2009 12:08:41 15.8 C 5.79 g/m*3 15.8 C 0 km/h
2461 06-05-2009 12:20:40 16.2 C 5.79 g/m*3 16.2 C 0 km/h
2462 06-05-2009 12:32:41 16.2 C 5.65 g/m*3 16.2 C 0 km/h
2463 06-05-2009 12:44:40 16.2 C 5.93 g/m*3 16.2 C 0 km/h
2464 06-05-2009 12:56:40 15.4 C 5.91 g/m*3 15.4 C 0 km/h
2465 06-05-2009 13:08:40 15.4 C 5.91 g/m*3 15.4 C 0 km/h
2466 06-05-2009 13:20:41 15.3 C 6.14 g/m*3 15.3 C 0 km/h
2467 06-05-2009 13:32:40 15.4 C 6.18 g/m*3 15.4 C 0 km/h
2468 06-05-2009 13:44:40 15.6 C 6.25 g/m*3 15.6 C 0 km/h
2469 06-05-2009 13:56:40 15.9 C 6.23 g/m*3 15.9 C 0 km/h
2470 06-05-2009 14:08:40 16 C 6.4 g/m*3 16 C 0 km/h
2471 06-05-2009 14:20:40 16 C 6.13 g/m*3 16 C 0 km/h
2472 06-05-2009 14:32:39 15.8 C 6.33 g/m*3 15.8 C 0 km/h
2473 06-05-2009 14:44:40 15.6 C 6.38 g/m*3 15.6 C 0 km/h
2474 06-05-2009 14:56:40 15.5 C 6.48 g/m*3 15.5 C 0 km/h
2475 06-05-2009 15:08:39 15.4 C 6.57 g/m*3 15.4 C 0 km/h
Sensor: Nr:Datum:Temp:Abs-Feuchte:Windchill:Wind:
Aussen-T/F 2476 06-05-2009 15:20:39 15.5 C 6.61 g/m*3 15.5 C 0 km/h
2477 06-05-2009 15:32:39 15.4 C 6.57 g/m*3 15.4 C 0 km/h
2478 06-05-2009 15:44:39 15.6 C 6.78 g/m*3 15.6 C 0 km/h
2479 06-05-2009 15:56:39 15.7 C 6.69 g/m*3 15.7 C 0 km/h
2480 06-05-2009 16:02:38 15.7 C 6.82 g/m*3 15.7 C 0 km/h
2481 06-05-2009 16:17:39 15.6 C 6.78 g/m*3 15.6 C 0 km/h
2482 06-05-2009 16:32:38 15.6 C 6.78 g/m*3 15.6 C 0 km/h
2483 06-05-2009 16:47:38 15.7 C 6.96 g/m*3 15.7 C 0 km/h
2484 06-05-2009 17:02:38 15.9 C 7.04 g/m*3 15.9 C 0 km/h
2485 06-05-2009 17:17:38 15.8 C 7 g/m*3 15.8 C 0 km/h
2486 06-05-2009 17:32:38 15.7 C 7.09 g/m*3 15.7 C 0 km/h
2487 06-05-2009 17:47:38 15.8 C 7.13 g/m*3 15.8 C 0 km/h
2488 06-05-2009 18:02:38 16 C 6.81 g/m*3 16 C 0 km/h
2489 06-05-2009 18:17:37 16 C 6.81 g/m*3 16 C 0 km/h
2490 06-05-2009 18:32:37 15.8 C 7 g/m*3 15.8 C 0 km/h
2491 06-05-2009 18:47:37 15.7 C 7.09 g/m*3 15.7 C 0 km/h
2492 06-05-2009 19:02:37 15.7 C 7.09 g/m*3 15.7 C 0 km/h
2493 06-05-2009 19:17:36 15.6 C 7.31 g/m*3 15.6 C 0 km/h
2494 06-05-2009 19:32:36 15.5 C 7.27 g/m*3 15.5 C 0 km/h
2495 06-05-2009 19:47:36 15.3 C 7.18 g/m*3 15.3 C 0 km/h
2496 06-05-2009 20:02:36 15.2 C 7.14 g/m*3 15.2 C 0 km/h
2497 06-05-2009 20:17:36 15.1 C 7.22 g/m*3 15.1 C 0 km/h
2498 06-05-2009 20:32:36 15 C 7.31 g/m*3 15 C 0 km/h
2499 06-05-2009 20:47:36 14.8 C 7.35 g/m*3 14.8 C 0 km/h
2500 06-05-2009 21:02:36 14.7 C 7.3 g/m*3 14.7 C 0 km/h
Sensor: Nr:Datum:Temp:Abs-Feuchte:Windchill:Wind:
Aussen-T/F 2501 06-05-2009 21:17:01 14.6 C 7.26 g/m*3 14.6 C 0 km/h
2502 06-05-2009 21:33:36 14.5 C 7.21 g/m*3 14.5 C 0 km/h
2503 06-05-2009 21:48:36 14.4 C 7.17 g/m*3 14.4 C 0 km/h
2504 06-05-2009 22:03:36 14.2 C 7.2 g/m*3 14.2 C 0 km/h
2505 06-05-2009 22:18:36 14.3 C 7.25 g/m*3 14.3 C 0 km/h
2506 06-05-2009 22:33:36 14.1 C 7.16 g/m*3 14.1 C 0 km/h
2507 06-05-2009 22:48:36 14.1 C 7.16 g/m*3 14.1 C 0 km/h
2508 06-05-2009 23:03:36 14 C 7.12 g/m*3 14 C 0 km/h
2509 06-05-2009 23:18:36 13.9 C 7.19 g/m*3 13.9 C 0 km/h
2510 06-05-2009 23:33:36 13.7 C 7.1 g/m*3 13.7 C 0 km/h
2511 06-05-2009 23:48:37 13.6 C 7.06 g/m*3 13.6 C 0 km/h
2512 07-05-2009 00:03:37 13.5 C 7.13 g/m*3 13.5 C 0 km/h
2513 07-05-2009 00:18:37 13.4 C 7.09 g/m*3 13.4 C 0 km/h
2514 07-05-2009 00:33:37 13.1 C 7.19 g/m*3 13.1 C 0 km/h
2515 07-05-2009 00:48:37 12.8 C 7.28 g/m*3 12.8 C 0 km/h
2516 07-05-2009 01:03:37 12.4 C 7.21 g/m*3 12.4 C 0 km/h
2517 07-05-2009 01:18:37 12.1 C 7.29 g/m*3 12.1 C 0 km/h
2518 07-05-2009 01:33:37 11.8 C 7.37 g/m*3 11.8 C 0 km/h
2519 07-05-2009 01:48:37 11.6 C 7.38 g/m*3 11.6 C 0 km/h
2520 07-05-2009 02:03:37 11.3 C 7.34 g/m*3 11.3 C 0 km/h
2521 07-05-2009 02:18:37 11 C 7.31 g/m*3 11 C 0 km/h
2522 07-05-2009 02:33:37 11 C 7.41 g/m*3 11 C 0 km/h
2523 07-05-2009 02:48:37 10.9 C 7.46 g/m*3 10.9 C 0 km/h
2524 07-05-2009 03:03:37 10.8 C 7.41 g/m*3 10.8 C 0 km/h
2525 07-05-2009 03:18:37 10.7 C 7.37 g/m*3 10.7 C 0 km/h
Sensor: Nr:Datum:Temp:Abs-Feuchte:Windchill:Wind:
Aussen-T/F 2526 07-05-2009 03:33:37 10.5 C 7.37 g/m*3 10.5 C 0 km/h
2527 07-05-2009 03:48:37 10.3 C 7.28 g/m*3 10.3 C 0 km/h
2528 07-05-2009 04:03:37 10.2 C 7.23 g/m*3 10.2 C 0 km/h
2529 07-05-2009 04:18:37 10.2 C 7.33 g/m*3 10.2 C 0 km/h
2530 07-05-2009 04:33:38 9.7 C 7.19 g/m*3 9.7 C 0 km/h
2531 07-05-2009 04:48:38 9.3 C 7.1 g/m*3 9.3 C 0 km/h
2532 07-05-2009 05:03:38 8.9 C 7.01 g/m*3 8.9 C 0 km/h
2533 07-05-2009 05:18:38 8.7 C 7.01 g/m*3 8.7 C 0 km/h
2534 07-05-2009 05:33:38 8.5 C 7 g/m*3 8.5 C 0 km/h
2535 07-05-2009 05:48:38 8.4 C 7.04 g/m*3 8.4 C 0 km/h
2536 07-05-2009 06:03:38 8.3 C 7.08 g/m*3 8.3 C 0 km/h
2537 07-05-2009 06:18:38 8.2 C 7.03 g/m*3 8.2 C 0 km/h
2538 07-05-2009 06:33:38 8.2 C 7.03 g/m*3 8.2 C 0 km/h
2539 07-05-2009 06:48:38 8.3 C 7.16 g/m*3 8.3 C 0 km/h
2540 07-05-2009 07:03:36 8.5 C 7.26 g/m*3 8.5 C 0 km/h
2541 07-05-2009 07:18:36 8.6 C 7.39 g/m*3 8.6 C 0 km/h
2542 07-05-2009 07:33:35 9.2 C 7.59 g/m*3 9.2 C 0 km/h
2543 07-05-2009 07:48:36 9.9 C 7.84 g/m*3 9.9 C 0 km/h
2544 07-05-2009 08:03:35 10.1 C 7.47 g/m*3 10.1 C 0 km/h
2545 07-05-2009 08:18:35 10.2 C 7.52 g/m*3 10.2 C 0 km/h
2546 07-05-2009 08:33:35 10.7 C 7.66 g/m*3 10.7 C 0 km/h
2547 07-05-2009 08:56:02 11.4 C 7.6 g/m*3 11.4 C 0 km/h
2548 07-05-2009 09:11:02 11.9 C 7.63 g/m*3 11.9 C 0 km/h
2549 07-05-2009 09:26:02 12.5 C 7.48 g/m*3 12.5 C 0 km/h
2550 07-05-2009 09:41:02 13 C 7.37 g/m*3 13 C 0 km/h
Sensor: Nr:Datum:Temp:Abs-Feuchte:Windchill:Wind:
Aussen-T/F 2551 07-05-2009 09:56:02 13.5 C 7.49 g/m*3 13.5 C 0 km/h
2552 07-05-2009 10:11:02 13.8 C 7.51 g/m*3 13.8 C 0 km/h
2553 07-05-2009 10:26:02 14.6 C 7.38 g/m*3 14.6 C 0 km/h
2554 07-05-2009 10:41:02 15 C 7.05 g/m*3 15 C 0 km/h
2555 07-05-2009 10:56:02 15.4 C 7.36 g/m*3 15.4 C 0 km/h
2556 07-05-2009 11:11:03 16.1 C 6.99 g/m*3 16.1 C 0 km/h
2557 07-05-2009 11:26:03 16.4 C 6.98 g/m*3 16.4 C 0 km/h
2558 07-05-2009 11:41:03 16.7 C 7.11 g/m*3 16.7 C 0 km/h
2559 07-05-2009 11:56:03 17 C 6.66 g/m*3 17 C 0 km/h
2560 07-05-2009 12:11:03 17.6 C 6.45 g/m*3 17.6 C 0 km/h
2561 07-05-2009 12:26:03 17.7 C 6.49 g/m*3 17.7 C 0 km/h
2562 07-05-2009 12:41:03 17.2 C 6.3 g/m*3 17.2 C 0 km/h
2563 07-05-2009 12:56:03 18.5 C 6.65 g/m*3 18.5 C 0 km/h
2564 07-05-2009 13:11:03 19.3 C 6.47 g/m*3 19.3 C 0 km/h
2565 07-05-2009 13:26:03 19.7 C 6.28 g/m*3 19.7 C 0 km/h
2566 07-05-2009 13:41:03 20.5 C 5.69 g/m*3 20.5 C 0 km/h
2567 07-05-2009 13:56:03 20.5 C 5.69 g/m*3 20.5 C 0 km/h
2568 07-05-2009 14:11:03 20.5 C 5.52 g/m*3 20.5 C 0 km/h
2569 07-05-2009 14:26:03 20.3 C 5.45 g/m*3 20.3 C 0 km/h
2570 07-05-2009 14:41:03 20.9 C 5.83 g/m*3 20.9 C 0 km/h
2571 07-05-2009 14:56:03 21.5 C 5.85 g/m*3 21.5 C 0 km/h
2572 07-05-2009 15:11:03 21.9 C 5.79 g/m*3 21.9 C 0 km/h
2573 07-05-2009 15:26:03 22.7 C 5.66 g/m*3 22.7 C 0 km/h
2574 07-05-2009 15:41:03 23.1 C 5.17 g/m*3 23.1 C 0 km/h
2575 07-05-2009 15:56:04 24.1 C 5.47 g/m*3 24.1 C 0 km/h
Sensor: Nr:Datum:Temp:Abs-Feuchte:Windchill:Wind:
Aussen-T/F 2576 07-05-2009 16:11:04 23.6 C 5.1 g/m*3 23.6 C 0 km/h
2577 07-05-2009 16:26:04 24.5 C 5.6 g/m*3 24.5 C 0 km/h
2578 07-05-2009 16:41:04 24.5 C 5.6 g/m*3 24.5 C 0 km/h
2579 07-05-2009 16:56:04 24.1 C 5.47 g/m*3 24.1 C 0 km/h
2580 07-05-2009 17:11:04 25.1 C 5.56 g/m*3 25.1 C 0 km/h
2581 07-05-2009 17:26:04 25.4 C 5.41 g/m*3 25.4 C 0 km/h
2582 07-05-2009 17:41:04 24.9 C 5.72 g/m*3 24.9 C 0 km/h
2583 07-05-2009 17:56:04 26.4 C 5.73 g/m*3 26.4 C 0 km/h
2584 07-05-2009 18:11:04 26 C 5.11 g/m*3 26 C 0 km/h
2585 07-05-2009 18:26:04 25.5 C 4.97 g/m*3 25.5 C 0 km/h
2586 07-05-2009 18:41:04 25.1 C 5.09 g/m*3 25.1 C 0 km/h
2587 07-05-2009 18:56:04 25 C 5.29 g/m*3 25 C 0 km/h
2588 07-05-2009 19:11:04 25.7 C 5.99 g/m*3 25.7 C 0 km/h
2589 07-05-2009 19:26:04 26.4 C 5.73 g/m*3 26.4 C 0 km/h
2590 07-05-2009 19:41:04 25.9 C 5.57 g/m*3 25.9 C 0 km/h
2591 07-05-2009 19:56:04 25.5 C 5.92 g/m*3 25.5 C 0 km/h
2592 07-05-2009 20:11:04 25.1 C 6.48 g/m*3 25.1 C 0 km/h
2593 07-05-2009 20:26:04 24.1 C 6.56 g/m*3 24.1 C 0 km/h
2594 07-05-2009 20:41:04 22.4 C 6.55 g/m*3 22.4 C 0 km/h
2595 07-05-2009 20:56:04 20.8 C 6.88 g/m*3 20.8 C 0 km/h
2596 07-05-2009 21:11:05 19.9 C 7.39 g/m*3 19.9 C 0 km/h
2597 07-05-2009 21:26:05 19.3 C 7.3 g/m*3 19.3 C 0 km/h
2598 07-05-2009 21:41:05 18.9 C 7.29 g/m*3 18.9 C 0 km/h
2599 07-05-2009 21:56:05 18.6 C 7.32 g/m*3 18.6 C 0 km/h
2600 07-05-2009 22:11:05 18.1 C 7.26 g/m*3 18.1 C 0 km/h
Sensor: Nr:Datum:Temp:Abs-Feuchte:Windchill:Wind:
Aussen-T/F 2601 07-05-2009 22:26:05 17.7 C 7.39 g/m*3 17.7 C 0 km/h
2602 07-05-2009 22:41:05 17.2 C 7.47 g/m*3 17.2 C 0 km/h
2603 07-05-2009 22:56:05 16.8 C 7.43 g/m*3 16.8 C 0 km/h
2604 07-05-2009 23:11:05 16.6 C 7.49 g/m*3 16.6 C 0 km/h
2605 07-05-2009 23:26:05 16.4 C 7.68 g/m*3 16.4 C 0 km/h
2606 07-05-2009 23:41:05 16 C 7.49 g/m*3 16 C 0 km/h
2607 07-05-2009 23:56:05 15.7 C 7.63 g/m*3 15.7 C 0 km/h
2608 08-05-2009 00:11:05 15.4 C 7.75 g/m*3 15.4 C 0 km/h
2609 08-05-2009 00:26:05 14.8 C 7.85 g/m*3 14.8 C 0 km/h
2610 08-05-2009 00:41:05 14.6 C 7.88 g/m*3 14.6 C 0 km/h
2611 08-05-2009 00:56:05 14.4 C 7.79 g/m*3 14.4 C 0 km/h
2612 08-05-2009 01:11:05 14.2 C 7.94 g/m*3 14.2 C 0 km/h
2613 08-05-2009 01:26:05 13.9 C 8.15 g/m*3 13.9 C 0 km/h
2614 08-05-2009 01:41:05 14 C 7.96 g/m*3 14 C 0 km/h
2615 08-05-2009 01:56:05 13.6 C 8 g/m*3 13.6 C 0 km/h
2616 08-05-2009 02:11:06 13.2 C 7.92 g/m*3 13.2 C 0 km/h
2617 08-05-2009 02:26:06 13.1 C 7.99 g/m*3 13.1 C 0 km/h
2618 08-05-2009 02:41:06 12.8 C 8.06 g/m*3 12.8 C 0 km/h
2619 08-05-2009 02:56:06 12.7 C 8.01 g/m*3 12.7 C 0 km/h
2620 08-05-2009 03:11:06 12.5 C 8.03 g/m*3 12.5 C 0 km/h
2621 08-05-2009 03:26:06 12.4 C 8.09 g/m*3 12.4 C 0 km/h
2622 08-05-2009 03:41:06 12.2 C 8.09 g/m*3 12.2 C 0 km/h
2623 08-05-2009 03:56:06 12.4 C 8.09 g/m*3 12.4 C 0 km/h
2624 08-05-2009 04:11:06 12.1 C 8.04 g/m*3 12.1 C 0 km/h
2625 08-05-2009 04:26:06 12.1 C 8.04 g/m*3 12.1 C 0 km/h
Sensor: Nr:Datum:Temp:Abs-Feuchte:Windchill:Wind:
Aussen-T/F 2626 08-05-2009 04:41:06 12.4 C 8.19 g/m*3 12.4 C 0 km/h
2627 08-05-2009 04:56:06 12.2 C 8.2 g/m*3 12.2 C 0 km/h
2628 08-05-2009 05:11:06 11.5 C 8.57 g/m*3 11.5 C 0 km/h
2629 08-05-2009 05:26:06 11.7 C 9.2 g/m*3 11.7 C 0 km/h
2630 08-05-2009 05:41:06 12 C 9.48 g/m*3 12 C 0 km/h
2631 08-05-2009 05:56:06 12.6 C 10.07 g/m*3 12.6 C 0 km/h
2632 08-05-2009 06:11:06 13.3 C 10.4 g/m*3 13.3 C 0 km/h
2633 08-05-2009 06:26:06 13.5 C 10.18 g/m*3 13.5 C 0 km/h
2634 08-05-2009 06:41:06 13.3 C 9.94 g/m*3 13.3 C 0 km/h
2635 08-05-2009 06:56:06 13.2 C 9.99 g/m*3 13.2 C 0 km/h
2636 08-05-2009 07:11:06 13 C 9.98 g/m*3 13 C 0 km/h
2637 08-05-2009 07:26:07 13.1 C 10.16 g/m*3 13.1 C 0 km/h
2638 08-05-2009 07:41:07 12.6 C 10.07 g/m*3 12.6 C 0 km/h
2639 08-05-2009 07:56:07 13.4 C 10.58 g/m*3 13.4 C 0 km/h
2640 08-05-2009 08:11:07 13.9 C 10.91 g/m*3 13.9 C 0 km/h
2641 08-05-2009 08:26:07 14.4 C 11.13 g/m*3 14.4 C 0 km/h
2642 08-05-2009 08:41:07 15 C 11.28 g/m*3 15 C 0 km/h
2643 08-05-2009 08:56:07 15.5 C 11.24 g/m*3 15.5 C 0 km/h
2644 08-05-2009 09:11:07 16.2 C 11.17 g/m*3 16.2 C 0 km/h
2645 08-05-2009 09:26:07 16.6 C 11.3 g/m*3 16.6 C 0 km/h
2646 08-05-2009 09:41:07 15.2 C 10.12 g/m*3 15.2 C 0 km/h
2647 08-05-2009 09:56:07 15.1 C 10.45 g/m*3 15.1 C 0 km/h
2648 08-05-2009 10:11:07 16 C 10.63 g/m*3 16 C 0 km/h
2649 08-05-2009 10:26:07 16.3 C 10.41 g/m*3 16.3 C 0 km/h
2650 08-05-2009 10:41:07 17 C 10.56 g/m*3 17 C 0 km/h
Sensor: Nr:Datum:Temp:Abs-Feuchte:Windchill:Wind:
Aussen-T/F 2651 08-05-2009 10:56:07 18.1 C 10.35 g/m*3 18.1 C 0 km/h
2652 08-05-2009 11:11:07 18.4 C 10.38 g/m*3 18.4 C 0 km/h
2653 08-05-2009 11:26:07 18.9 C 10.04 g/m*3 18.9 C 0 km/h
2654 08-05-2009 11:41:07 19.4 C 9.51 g/m*3 19.4 C 0 km/h
2655 08-05-2009 11:56:07 19.5 C 9.4 g/m*3 19.5 C 0 km/h
2656 08-05-2009 12:11:07 19.9 C 9.45 g/m*3 19.9 C 0 km/h
2657 08-05-2009 12:26:08 20.5 C 9.25 g/m*3 20.5 C 0 km/h
2658 08-05-2009 12:41:08 20 C 9.16 g/m*3 20 C 0 km/h
2659 08-05-2009 12:56:08 20.1 C 9.04 g/m*3 20.1 C 0 km/h
2660 08-05-2009 13:11:08 20 C 8.99 g/m*3 20 C 0 km/h
2661 08-05-2009 13:26:08 20.2 C 8.92 g/m*3 20.2 C 0 km/h
2662 08-05-2009 13:41:08 19.9 C 9.11 g/m*3 19.9 C 0 km/h
2663 08-05-2009 13:56:08 21 C 8.98 g/m*3 21 C 0 km/h
2664 08-05-2009 14:11:08 21 C 8.79 g/m*3 21 C 0 km/h
2665 08-05-2009 14:26:08 21.2 C 8.52 g/m*3 21.2 C 0 km/h
2666 08-05-2009 14:41:08 22.3 C 8.49 g/m*3 22.3 C 0 km/h
2667 08-05-2009 14:56:08 22 C 8.15 g/m*3 22 C 0 km/h
2668 08-05-2009 15:11:08 21.9 C 8.1 g/m*3 21.9 C 0 km/h
2669 08-05-2009 15:26:08 22 C 7.96 g/m*3 22 C 0 km/h
2670 08-05-2009 15:41:08 21.9 C 7.72 g/m*3 21.9 C 0 km/h
2671 08-05-2009 15:56:08 21.1 C 7 g/m*3 21.1 C 0 km/h
2672 08-05-2009 16:11:08 21.8 C 7.1 g/m*3 21.8 C 0 km/h
2673 08-05-2009 16:26:08 21.3 C 6.71 g/m*3 21.3 C 0 km/h
2674 08-05-2009 16:41:08 22.4 C 6.36 g/m*3 22.4 C 0 km/h
2675 08-05-2009 16:56:08 22.2 C 6.48 g/m*3 22.2 C 0 km/h
Sensor: Nr:Datum:Temp:Abs-Feuchte:Windchill:Wind:
Aussen-T/F 2676 08-05-2009 17:11:08 21.5 C 6.03 g/m*3 21.5 C 0 km/h
2677 08-05-2009 17:26:08 20.9 C 6.37 g/m*3 20.9 C 0 km/h
2678 08-05-2009 17:41:09 20.8 C 6.52 g/m*3 20.8 C 0 km/h
2679 08-05-2009 17:56:09 21.1 C 6.45 g/m*3 21.1 C 0 km/h
2680 08-05-2009 18:11:09 21.7 C 6.29 g/m*3 21.7 C 0 km/h
2681 08-05-2009 18:26:09 21.4 C 6.37 g/m*3 21.4 C 0 km/h
2682 08-05-2009 18:41:09 20.7 C 6.3 g/m*3 20.7 C 0 km/h
2683 08-05-2009 18:56:09 19.6 C 6.42 g/m*3 19.6 C 0 km/h
2684 08-05-2009 19:11:09 20.2 C 6.47 g/m*3 20.2 C 0 km/h
2685 08-05-2009 19:26:09 20 C 6.39 g/m*3 20 C 0 km/h
2686 08-05-2009 19:41:09 19.1 C 6.23 g/m*3 19.1 C 0 km/h
2687 08-05-2009 19:56:09 18.3 C 5.79 g/m*3 18.3 C 0 km/h
2688 08-05-2009 20:11:09 17.8 C 5.01 g/m*3 17.8 C 0 km/h
2689 08-05-2009 20:26:09 17.7 C 5.28 g/m*3 17.7 C 0 km/h
2690 08-05-2009 20:41:09 17.3 C 5.6 g/m*3 17.3 C 0 km/h
2691 08-05-2009 20:56:09 16.9 C 5.75 g/m*3 16.9 C 0 km/h
2692 08-05-2009 21:11:09 16.3 C 5.83 g/m*3 16.3 C 0 km/h
2693 08-05-2009 21:26:09 15.8 C 6.19 g/m*3 15.8 C 0 km/h
2694 08-05-2009 21:41:09 15.4 C 6.44 g/m*3 15.4 C 0 km/h
2695 08-05-2009 21:56:09 14.7 C 6.55 g/m*3 14.7 C 0 km/h
2696 08-05-2009 22:11:09 14.3 C 6.76 g/m*3 14.3 C 0 km/h
2697 08-05-2009 22:26:10 14.1 C 6.67 g/m*3 14.1 C 0 km/h
2698 08-05-2009 22:41:10 14.2 C 6.47 g/m*3 14.2 C 0 km/h
2699 08-05-2009 22:56:10 13.9 C 6.23 g/m*3 13.9 C 0 km/h
2700 08-05-2009 23:11:10 13.5 C 6.55 g/m*3 13.5 C 0 km/h
Sensor: Nr:Datum:Temp:Abs-Feuchte:Windchill:Wind:
Aussen-T/F 2701 08-05-2009 23:26:10 13 C 6.24 g/m*3 13 C 0 km/h
2702 08-05-2009 23:41:10 12.7 C 6.23 g/m*3 12.7 C 0 km/h
2703 08-05-2009 23:56:10 12.4 C 6.12 g/m*3 12.4 C 0 km/h
2704 09-05-2009 00:11:10 12.1 C 6.11 g/m*3 12.1 C 0 km/h
2705 09-05-2009 00:26:10 11.7 C 6.38 g/m*3 11.7 C 0 km/h
2706 09-05-2009 00:41:10 11.4 C 6.57 g/m*3 11.4 C 0 km/h
2707 09-05-2009 00:56:10 11 C 6.71 g/m*3 11 C 0 km/h
2708 09-05-2009 01:11:10 10.8 C 6.72 g/m*3 10.8 C 0 km/h
2709 09-05-2009 01:26:10 10.5 C 6.6 g/m*3 10.5 C 0 km/h
2710 09-05-2009 01:41:10 10.2 C 6.66 g/m*3 10.2 C 0 km/h
2711 09-05-2009 01:56:10 9.9 C 6.82 g/m*3 9.9 C 0 km/h
2712 09-05-2009 02:11:10 9.7 C 6.82 g/m*3 9.7 C 0 km/h
2713 09-05-2009 02:26:10 9.5 C 6.83 g/m*3 9.5 C 0 km/h
2714 09-05-2009 02:41:10 9.3 C 6.74 g/m*3 9.3 C 0 km/h
2715 09-05-2009 02:56:10 9.1 C 6.65 g/m*3 9.1 C 0 km/h
2716 09-05-2009 03:11:11 8.9 C 6.75 g/m*3 8.9 C 0 km/h
2717 09-05-2009 03:26:11 8.6 C 6.7 g/m*3 8.6 C 0 km/h
2718 09-05-2009 03:41:11 8.4 C 6.7 g/m*3 8.4 C 0 km/h
2719 09-05-2009 03:56:11 8.1 C 6.57 g/m*3 8.1 C 0 km/h
2720 09-05-2009 04:11:11 8 C 6.53 g/m*3 8 C 0 km/h
2721 09-05-2009 04:26:11 7.9 C 6.65 g/m*3 7.9 C 0 km/h
2722 09-05-2009 04:41:11 7.8 C 6.61 g/m*3 7.8 C 0 km/h
2723 09-05-2009 04:56:11 7.5 C 6.64 g/m*3 7.5 C 0 km/h
2724 09-05-2009 05:11:11 7.4 C 6.6 g/m*3 7.4 C 0 km/h
2725 09-05-2009 05:26:11 7.5 C 6.64 g/m*3 7.5 C 0 km/h
Sensor: Nr:Datum:Temp:Abs-Feuchte:Windchill:Wind:
Aussen-T/F 2726 09-05-2009 05:41:11 7.4 C 6.68 g/m*3 7.4 C 0 km/h
2727 09-05-2009 05:56:11 7.2 C 6.59 g/m*3 7.2 C 0 km/h
2728 09-05-2009 06:11:11 7.1 C 6.55 g/m*3 7.1 C 0 km/h
2729 09-05-2009 06:26:11 7.2 C 6.59 g/m*3 7.2 C 0 km/h
2730 09-05-2009 06:41:11 7.3 C 6.64 g/m*3 7.3 C 0 km/h
2731 09-05-2009 06:56:11 7.7 C 6.81 g/m*3 7.7 C 0 km/h
2732 09-05-2009 07:11:11 7.8 C 6.77 g/m*3 7.8 C 0 km/h
2733 09-05-2009 07:26:11 8 C 6.78 g/m*3 8 C 0 km/h
2734 09-05-2009 07:41:11 7.8 C 6.77 g/m*3 7.8 C 0 km/h
2735 09-05-2009 07:56:12 8.3 C 6.91 g/m*3 8.3 C 0 km/h
2736 09-05-2009 08:11:12 9 C 6.96 g/m*3 9 C 0 km/h
2737 09-05-2009 08:26:12 9.5 C 6.92 g/m*3 9.5 C 0 km/h
2738 09-05-2009 08:41:12 10.2 C 6.95 g/m*3 10.2 C 0 km/h
2739 09-05-2009 08:56:12 10.7 C 6.97 g/m*3 10.7 C 0 km/h
2740 09-05-2009 09:11:12 11.4 C 7.19 g/m*3 11.4 C 0 km/h
2741 09-05-2009 09:26:12 12.1 C 7.18 g/m*3 12.1 C 0 km/h
2742 09-05-2009 09:41:12 11.9 C 7.1 g/m*3 11.9 C 0 km/h
2743 09-05-2009 09:56:12 12.6 C 7.3 g/m*3 12.6 C 0 km/h
2744 09-05-2009 10:11:12 13.5 C 7.25 g/m*3 13.5 C 0 km/h
2745 09-05-2009 10:26:12 14.3 C 7.25 g/m*3 14.3 C 0 km/h
2746 09-05-2009 10:41:12 15 C 7.31 g/m*3 15 C 0 km/h
2747 09-05-2009 10:56:12 16.1 C 7.26 g/m*3 16.1 C 0 km/h
2748 09-05-2009 11:11:12 16.4 C 6.98 g/m*3 16.4 C 0 km/h
2749 09-05-2009 11:26:12 17.3 C 6.78 g/m*3 17.3 C 0 km/h
2750 09-05-2009 11:41:12 18 C 6.6 g/m*3 18 C 0 km/h
Sensor: Nr:Datum:Temp:Abs-Feuchte:Windchill:Wind:
Aussen-T/F 2751 09-05-2009 11:56:12 18.6 C 6.53 g/m*3 18.6 C 0 km/h
2752 09-05-2009 12:11:12 18.4 C 6.76 g/m*3 18.4 C 0 km/h
2753 09-05-2009 12:26:12 18.7 C 6.72 g/m*3 18.7 C 0 km/h
2754 09-05-2009 12:41:12 19.5 C 7.05 g/m*3 19.5 C 0 km/h
2755 09-05-2009 12:56:13 19.3 C 6.47 g/m*3 19.3 C 0 km/h
2756 09-05-2009 13:11:13 19.5 C 6.71 g/m*3 19.5 C 0 km/h
2757 09-05-2009 13:26:13 20.1 C 6.43 g/m*3 20.1 C 0 km/h
2758 09-05-2009 13:41:13 20.4 C 6.55 g/m*3 20.4 C 0 km/h
2759 09-05-2009 13:56:13 21.1 C 6.45 g/m*3 21.1 C 0 km/h
2760 09-05-2009 14:11:13 20.1 C 6.43 g/m*3 20.1 C 0 km/h
2761 09-05-2009 14:26:13 19.8 C 7 g/m*3 19.8 C 0 km/h
2762 09-05-2009 14:41:13 20.6 C 6.62 g/m*3 20.6 C 0 km/h
2763 09-05-2009 14:56:13 21.1 C 6.63 g/m*3 21.1 C 0 km/h
2764 09-05-2009 15:11:13 20.8 C 6.7 g/m*3 20.8 C 0 km/h
2765 09-05-2009 15:26:13 20.4 C 6.9 g/m*3 20.4 C 0 km/h
2766 09-05-2009 15:41:13 20.1 C 6.95 g/m*3 20.1 C 0 km/h
2767 09-05-2009 15:56:13 20.8 C 7.06 g/m*3 20.8 C 0 km/h
2768 09-05-2009 16:11:13 22.6 C 7.23 g/m*3 22.6 C 0 km/h
2769 09-05-2009 16:26:13 22.7 C 7.07 g/m*3 22.7 C 0 km/h
2770 09-05-2009 16:41:13 22.7 C 7.07 g/m*3 22.7 C 0 km/h
2771 09-05-2009 16:56:13 22.6 C 7.63 g/m*3 22.6 C 0 km/h
2772 09-05-2009 17:11:13 23.4 C 7.36 g/m*3 23.4 C 0 km/h
2773 09-05-2009 17:26:13 23.5 C 6.98 g/m*3 23.5 C 0 km/h
2774 09-05-2009 17:41:13 23.2 C 7.28 g/m*3 23.2 C 0 km/h
2775 09-05-2009 17:56:14 22.4 C 7.35 g/m*3 22.4 C 0 km/h
Sensor: Nr:Datum:Temp:Abs-Feuchte:Windchill:Wind:
Aussen-T/F 2776 09-05-2009 18:11:14 21.2 C 7.78 g/m*3 21.2 C 0 km/h
2777 09-05-2009 18:26:14 21.3 C 8.2 g/m*3 21.3 C 0 km/h
2778 09-05-2009 18:41:14 21.8 C 7.87 g/m*3 21.8 C 0 km/h
2779 09-05-2009 18:56:14 20.9 C 8.2 g/m*3 20.9 C 0 km/h
2780 09-05-2009 19:11:14 20.1 C 8.69 g/m*3 20.1 C 0 km/h
2781 09-05-2009 19:26:14 17.8 C 10.47 g/m*3 17.8 C 0 km/h
2782 09-05-2009 19:41:14 17 C 10.56 g/m*3 17 C 0 km/h
2783 09-05-2009 19:56:14 17 C 10.56 g/m*3 17 C 0 km/h
2784 09-05-2009 20:11:14 16.8 C 10.72 g/m*3 16.8 C 0 km/h
2785 09-05-2009 20:26:14 15.6 C 10.91 g/m*3 15.6 C 0 km/h
2786 09-05-2009 20:41:14 15.3 C 11.1 g/m*3 15.3 C 0 km/h
2787 09-05-2009 20:56:14 14.9 C 11.22 g/m*3 14.9 C 0 km/h
2788 09-05-2009 21:11:14 13.9 C 10.67 g/m*3 13.9 C 0 km/h
2789 09-05-2009 21:26:14 13.4 C 10.46 g/m*3 13.4 C 0 km/h
2790 09-05-2009 21:41:14 13.4 C 10.69 g/m*3 13.4 C 0 km/h
2791 09-05-2009 21:56:14 13.4 C 10.81 g/m*3 13.4 C 0 km/h
2792 09-05-2009 22:11:14 13.5 C 10.88 g/m*3 13.5 C 0 km/h
2793 09-05-2009 22:26:14 13.5 C 10.88 g/m*3 13.5 C 0 km/h
2794 09-05-2009 22:41:14 13 C 10.55 g/m*3 13 C 0 km/h
2795 09-05-2009 22:56:15 13.3 C 10.86 g/m*3 13.3 C 0 km/h
2796 09-05-2009 23:11:15 13.2 C 10.79 g/m*3 13.2 C 0 km/h
2797 09-05-2009 23:26:15 13.1 C 10.73 g/m*3 13.1 C 0 km/h
2798 09-05-2009 23:41:15 13.1 C 10.73 g/m*3 13.1 C 0 km/h
2799 09-05-2009 23:56:15 13.2 C 10.79 g/m*3 13.2 C 0 km/h
2800 10-05-2009 00:11:15 13.1 C 10.73 g/m*3 13.1 C 0 km/h
Sensor: Nr:Datum:Temp:Abs-Feuchte:Windchill:Wind:
Aussen-T/F 2801 10-05-2009 00:26:15 13 C 10.66 g/m*3 13 C 0 km/h
2802 10-05-2009 00:41:15 13 C 10.66 g/m*3 13 C 0 km/h
2803 10-05-2009 00:56:15 13 C 10.66 g/m*3 13 C 0 km/h
2804 10-05-2009 01:11:15 13 C 10.66 g/m*3 13 C 0 km/h
2805 10-05-2009 01:26:15 12.9 C 10.71 g/m*3 12.9 C 0 km/h
2806 10-05-2009 01:41:15 12.9 C 10.71 g/m*3 12.9 C 0 km/h
2807 10-05-2009 01:56:15 12.9 C 10.71 g/m*3 12.9 C 0 km/h
2808 10-05-2009 02:11:15 12.8 C 10.64 g/m*3 12.8 C 0 km/h
2809 10-05-2009 02:26:15 12.6 C 10.51 g/m*3 12.6 C 0 km/h
2810 10-05-2009 02:41:15 12.6 C 10.51 g/m*3 12.6 C 0 km/h
2811 10-05-2009 02:56:15 12.5 C 10.44 g/m*3 12.5 C 0 km/h
2812 10-05-2009 03:11:15 12.5 C 10.44 g/m*3 12.5 C 0 km/h
2813 10-05-2009 03:26:15 12.5 C 10.44 g/m*3 12.5 C 0 km/h
2814 10-05-2009 03:41:15 12.3 C 10.32 g/m*3 12.3 C 0 km/h
2815 10-05-2009 03:56:16 12.2 C 10.25 g/m*3 12.2 C 0 km/h
2816 10-05-2009 04:11:16 12.2 C 10.25 g/m*3 12.2 C 0 km/h
2817 10-05-2009 04:26:16 12.3 C 10.32 g/m*3 12.3 C 0 km/h
2818 10-05-2009 04:41:16 12.2 C 10.25 g/m*3 12.2 C 0 km/h
2819 10-05-2009 04:56:16 12.2 C 10.25 g/m*3 12.2 C 0 km/h
2820 10-05-2009 05:11:16 12.2 C 10.25 g/m*3 12.2 C 0 km/h
2821 10-05-2009 05:26:16 12 C 10.12 g/m*3 12 C 0 km/h
2822 10-05-2009 05:41:16 11.8 C 10 g/m*3 11.8 C 0 km/h
2823 10-05-2009 05:56:16 12 C 10.12 g/m*3 12 C 0 km/h
2824 10-05-2009 06:11:16 12 C 10.12 g/m*3 12 C 0 km/h
2825 10-05-2009 06:26:16 12.2 C 10.25 g/m*3 12.2 C 0 km/h
Sensor: Nr:Datum:Temp:Abs-Feuchte:Windchill:Wind:
Aussen-T/F 2826 10-05-2009 06:41:16 12.4 C 10.38 g/m*3 12.4 C 0 km/h
2827 10-05-2009 06:56:16 12.7 C 10.58 g/m*3 12.7 C 0 km/h
2828 10-05-2009 07:11:16 12.9 C 10.71 g/m*3 12.9 C 0 km/h
2829 10-05-2009 07:26:16 13.1 C 10.84 g/m*3 13.1 C 0 km/h
2830 10-05-2009 07:41:16 13.1 C 10.84 g/m*3 13.1 C 0 km/h
2831 10-05-2009 07:56:16 13.1 C 10.84 g/m*3 13.1 C 0 km/h
2832 10-05-2009 08:11:16 13.3 C 10.98 g/m*3 13.3 C 0 km/h
2833 10-05-2009 08:26:16 13.3 C 10.86 g/m*3 13.3 C 0 km/h
2834 10-05-2009 08:41:16 13.4 C 10.81 g/m*3 13.4 C 0 km/h
2835 10-05-2009 08:56:17 13.8 C 10.84 g/m*3 13.8 C 0 km/h
2836 10-05-2009 09:11:17 14.4 C 10.38 g/m*3 14.4 C 0 km/h
2837 10-05-2009 09:26:17 14.5 C 9.83 g/m*3 14.5 C 0 km/h
2838 10-05-2009 09:41:17 15.4 C 9.99 g/m*3 15.4 C 0 km/h
2839 10-05-2009 09:56:17 15.5 C 9.78 g/m*3 15.5 C 0 km/h
2840 10-05-2009 10:11:17 15.5 C 9.78 g/m*3 15.5 C 0 km/h
2841 10-05-2009 10:26:17 15.8 C 9.83 g/m*3 15.8 C 0 km/h
2842 10-05-2009 10:41:17 16.3 C 9.99 g/m*3 16.3 C 0 km/h
2843 10-05-2009 10:56:17 16.8 C 9.58 g/m*3 16.8 C 0 km/h
2844 10-05-2009 11:11:17 17.5 C 9.69 g/m*3 17.5 C 0 km/h
2845 10-05-2009 11:26:17 17.7 C 8.75 g/m*3 17.7 C 0 km/h
2846 10-05-2009 11:41:17 18.5 C 7.28 g/m*3 18.5 C 0 km/h
2847 10-05-2009 11:56:17 18.9 C 6.32 g/m*3 18.9 C 0 km/h
2848 10-05-2009 12:11:17 19.3 C 5.97 g/m*3 19.3 C 0 km/h
2849 10-05-2009 12:26:17 19.9 C 6.01 g/m*3 19.9 C 0 km/h
2850 10-05-2009 12:41:17 20.8 C 5.79 g/m*3 20.8 C 0 km/h
Sensor: Nr:Datum:Temp:Abs-Feuchte:Windchill:Wind:
Aussen-T/F 2851 10-05-2009 12:56:17 21.6 C 5.5 g/m*3 21.6 C 0 km/h
2852 10-05-2009 13:11:17 22.2 C 4.91 g/m*3 22.2 C 0 km/h
2853 10-05-2009 13:26:17 22.6 C 5.22 g/m*3 22.6 C 0 km/h
2854 10-05-2009 13:41:17 22.5 C 5.19 g/m*3 22.5 C 0 km/h
2855 10-05-2009 13:56:18 21.8 C 5.76 g/m*3 21.8 C 0 km/h
2856 10-05-2009 14:11:18 22.4 C 5.76 g/m*3 22.4 C 0 km/h
2857 10-05-2009 14:26:18 23.4 C 5.89 g/m*3 23.4 C 0 km/h
2858 10-05-2009 14:41:18 23.5 C 5.5 g/m*3 23.5 C 0 km/h
2859 10-05-2009 14:56:18 23.9 C 5.62 g/m*3 23.9 C 0 km/h
2860 10-05-2009 15:11:18 24.9 C 5.72 g/m*3 24.9 C 0 km/h
2861 10-05-2009 15:26:18 25.3 C 5.15 g/m*3 25.3 C 0 km/h
2862 10-05-2009 15:41:18 25.4 C 5.41 g/m*3 25.4 C 0 km/h
2863 10-05-2009 15:56:18 26.3 C 5.2 g/m*3 26.3 C 0 km/h
2864 10-05-2009 16:11:18 25.8 C 4.82 g/m*3 25.8 C 0 km/h
2865 10-05-2009 16:26:18 26.8 C 5.09 g/m*3 26.8 C 0 km/h
2866 10-05-2009 16:41:18 27.9 C 5.41 g/m*3 27.9 C 0 km/h
2867 10-05-2009 16:56:18 28.1 C 5.47 g/m*3 28.1 C 0 km/h
2868 10-05-2009 17:11:18 28.3 C 5.53 g/m*3 28.3 C 0 km/h
2869 10-05-2009 17:26:18 27.7 C 5.35 g/m*3 27.7 C 0 km/h
2870 10-05-2009 17:41:18 27.4 C 5.26 g/m*3 27.4 C 0 km/h
2871 10-05-2009 17:56:18 27.5 C 5.29 g/m*3 27.5 C 0 km/h
2872 10-05-2009 18:11:18 26.6 C 5.03 g/m*3 26.6 C 0 km/h
2873 10-05-2009 18:26:18 25.5 C 5.92 g/m*3 25.5 C 0 km/h
2874 10-05-2009 18:41:19 24.6 C 6.98 g/m*3 24.6 C 0 km/h
2875 10-05-2009 18:56:19 24.5 C 6.71 g/m*3 24.5 C 0 km/h
Sensor: Nr:Datum:Temp:Abs-Feuchte:Windchill:Wind:
Aussen-T/F 2876 10-05-2009 19:11:19 23.4 C 6.94 g/m*3 23.4 C 0 km/h
2877 10-05-2009 19:26:19 22.5 C 7.39 g/m*3 22.5 C 0 km/h
2878 10-05-2009 19:41:19 21.5 C 7.73 g/m*3 21.5 C 0 km/h
2879 10-05-2009 19:56:19 20.8 C 7.79 g/m*3 20.8 C 0 km/h
2880 10-05-2009 20:11:19 20.1 C 7.65 g/m*3 20.1 C 0 km/h
2881 10-05-2009 20:26:19 19.6 C 7.6 g/m*3 19.6 C 0 km/h
2882 10-05-2009 20:41:19 19.2 C 7.75 g/m*3 19.2 C 0 km/h
2883 10-05-2009 20:56:19 19.1 C 7.7 g/m*3 19.1 C 0 km/h
2884 10-05-2009 21:11:19 18.9 C 7.78 g/m*3 18.9 C 0 km/h
2885 10-05-2009 21:26:19 18.1 C 8.03 g/m*3 18.1 C 0 km/h
2886 10-05-2009 21:41:19 18.3 C 8.29 g/m*3 18.3 C 0 km/h
2887 10-05-2009 21:56:19 16.7 C 9.81 g/m*3 16.7 C 0 km/h
2888 10-05-2009 22:11:19 15.7 C 10.44 g/m*3 15.7 C 0 km/h
2889 10-05-2009 22:26:19 15.7 C 11.24 g/m*3 15.7 C 0 km/h
2890 10-05-2009 22:41:19 15.6 C 11.57 g/m*3 15.6 C 0 km/h
2891 10-05-2009 22:56:19 15.6 C 11.84 g/m*3 15.6 C 0 km/h
2892 10-05-2009 23:11:19 15.4 C 11.82 g/m*3 15.4 C 0 km/h
2893 10-05-2009 23:26:20 15.4 C 11.96 g/m*3 15.4 C 0 km/h
2894 10-05-2009 23:41:20 15.2 C 11.81 g/m*3 15.2 C 0 km/h
2895 10-05-2009 23:56:20 15.1 C 11.74 g/m*3 15.1 C 0 km/h
2896 11-05-2009 00:11:20 15.1 C 11.87 g/m*3 15.1 C 0 km/h
2897 11-05-2009 00:26:20 15.2 C 11.94 g/m*3 15.2 C 0 km/h
2898 11-05-2009 00:41:20 14.8 C 11.78 g/m*3 14.8 C 0 km/h
2899 11-05-2009 00:56:20 14.7 C 11.71 g/m*3 14.7 C 0 km/h
2900 11-05-2009 01:11:20 14.5 C 11.57 g/m*3 14.5 C 0 km/h
Sensor: Nr:Datum:Temp:Abs-Feuchte:Windchill:Wind:
Aussen-T/F 2901 11-05-2009 01:26:20 14.6 C 11.64 g/m*3 14.6 C 0 km/h
2902 11-05-2009 01:41:20 14.6 C 11.64 g/m*3 14.6 C 0 km/h
2903 11-05-2009 01:56:20 14.6 C 11.64 g/m*3 14.6 C 0 km/h
2904 11-05-2009 02:11:20 14.5 C 11.57 g/m*3 14.5 C 0 km/h
2905 11-05-2009 02:26:20 14.5 C 11.57 g/m*3 14.5 C 0 km/h
2906 11-05-2009 02:41:20 14.4 C 11.5 g/m*3 14.4 C 0 km/h
2907 11-05-2009 02:56:20 14.3 C 11.43 g/m*3 14.3 C 0 km/h
2908 11-05-2009 03:11:20 14.4 C 11.5 g/m*3 14.4 C 0 km/h
2909 11-05-2009 03:26:20 14.4 C 11.5 g/m*3 14.4 C 0 km/h
2910 11-05-2009 03:41:20 14.4 C 11.62 g/m*3 14.4 C 0 km/h
2911 11-05-2009 03:56:20 14 C 11.22 g/m*3 14 C 0 km/h
2912 11-05-2009 04:11:20 13.7 C 11.13 g/m*3 13.7 C 0 km/h
2913 11-05-2009 04:26:21 13.5 C 10.99 g/m*3 13.5 C 0 km/h
2914 11-05-2009 04:41:21 13.5 C 10.99 g/m*3 13.5 C 0 km/h
2915 11-05-2009 04:56:21 13.4 C 10.93 g/m*3 13.4 C 0 km/h
2916 11-05-2009 05:11:21 13.5 C 10.99 g/m*3 13.5 C 0 km/h
2917 11-05-2009 05:26:21 13.7 C 11.25 g/m*3 13.7 C 0 km/h
2918 11-05-2009 05:41:21 13.6 C 11.18 g/m*3 13.6 C 0 km/h
2919 11-05-2009 05:56:21 13.2 C 10.79 g/m*3 13.2 C 0 km/h
2920 11-05-2009 06:11:21 13.1 C 10.73 g/m*3 13.1 C 0 km/h
2921 11-05-2009 06:26:21 13.4 C 11.04 g/m*3 13.4 C 0 km/h
2922 11-05-2009 06:41:21 13.3 C 10.98 g/m*3 13.3 C 0 km/h
2923 11-05-2009 06:56:21 13.4 C 11.04 g/m*3 13.4 C 0 km/h
2924 11-05-2009 07:11:21 13.4 C 11.04 g/m*3 13.4 C 0 km/h
2925 11-05-2009 07:26:21 13.5 C 11.11 g/m*3 13.5 C 0 km/h
Sensor: Nr:Datum:Temp:Abs-Feuchte:Windchill:Wind:
Aussen-T/F 2926 11-05-2009 07:41:21 13.7 C 11.25 g/m*3 13.7 C 0 km/h
2927 11-05-2009 07:56:21 13.6 C 11.18 g/m*3 13.6 C 0 km/h
2928 11-05-2009 08:11:21 13.6 C 11.18 g/m*3 13.6 C 0 km/h
2929 11-05-2009 08:26:21 13.7 C 11.25 g/m*3 13.7 C 0 km/h
2930 11-05-2009 08:41:21 13.6 C 11.18 g/m*3 13.6 C 0 km/h
2931 11-05-2009 08:56:21 13.5 C 11.11 g/m*3 13.5 C 0 km/h
2932 11-05-2009 09:11:21 13.7 C 11.25 g/m*3 13.7 C 0 km/h
2933 11-05-2009 09:26:21 14 C 11.46 g/m*3 14 C 0 km/h
2934 11-05-2009 09:41:22 14.1 C 11.53 g/m*3 14.1 C 0 km/h
2935 11-05-2009 09:56:22 14.1 C 11.53 g/m*3 14.1 C 0 km/h
2936 11-05-2009 10:11:22 14.2 C 11.6 g/m*3 14.2 C 0 km/h
2937 11-05-2009 10:26:22 14.5 C 11.82 g/m*3 14.5 C 0 km/h
2938 11-05-2009 10:41:22 14.1 C 11.53 g/m*3 14.1 C 0 km/h
2939 11-05-2009 10:56:22 14 C 11.46 g/m*3 14 C 0 km/h
2940 11-05-2009 11:11:22 14.4 C 11.74 g/m*3 14.4 C 0 km/h
2941 11-05-2009 11:26:22 14.4 C 11.74 g/m*3 14.4 C 0 km/h
2942 11-05-2009 11:41:22 14.5 C 11.82 g/m*3 14.5 C 0 km/h
2943 11-05-2009 11:56:22 14.6 C 11.89 g/m*3 14.6 C 0 km/h
2944 11-05-2009 12:11:22 14.6 C 11.76 g/m*3 14.6 C 0 km/h
2945 11-05-2009 12:26:22 14.5 C 11.69 g/m*3 14.5 C 0 km/h
2946 11-05-2009 12:41:22 14.5 C 11.69 g/m*3 14.5 C 0 km/h
2947 11-05-2009 12:56:22 14.3 C 11.43 g/m*3 14.3 C 0 km/h
2948 11-05-2009 13:11:22 14.1 C 11.41 g/m*3 14.1 C 0 km/h
2949 11-05-2009 13:26:22 13.7 C 11.13 g/m*3 13.7 C 0 km/h
2950 11-05-2009 13:41:22 13.8 C 11.2 g/m*3 13.8 C 0 km/h
Sensor: Nr:Datum:Temp:Abs-Feuchte:Windchill:Wind:
Aussen-T/F 2951 11-05-2009 13:56:22 13.8 C 11.2 g/m*3 13.8 C 0 km/h
2952 11-05-2009 14:11:22 14 C 11.34 g/m*3 14 C 0 km/h
2953 11-05-2009 14:26:22 13.8 C 11.2 g/m*3 13.8 C 0 km/h
2954 11-05-2009 14:41:23 13.9 C 11.27 g/m*3 13.9 C 0 km/h
2955 11-05-2009 14:56:23 13.7 C 11.13 g/m*3 13.7 C 0 km/h
2956 11-05-2009 15:11:23 13.5 C 10.99 g/m*3 13.5 C 0 km/h
2957 11-05-2009 15:26:23 13.3 C 10.74 g/m*3 13.3 C 0 km/h
2958 11-05-2009 15:41:23 13.3 C 10.74 g/m*3 13.3 C 0 km/h
2959 11-05-2009 15:56:23 13.2 C 10.68 g/m*3 13.2 C 0 km/h
2960 11-05-2009 16:11:23 13.4 C 10.81 g/m*3 13.4 C 0 km/h
2961 11-05-2009 16:26:23 13.6 C 10.95 g/m*3 13.6 C 0 km/h
2962 11-05-2009 16:41:23 13.7 C 11.01 g/m*3 13.7 C 0 km/h
2963 11-05-2009 16:56:23 13.6 C 10.95 g/m*3 13.6 C 0 km/h
2964 11-05-2009 17:11:23 13.5 C 10.88 g/m*3 13.5 C 0 km/h
2965 11-05-2009 17:26:23 13.5 C 10.88 g/m*3 13.5 C 0 km/h
2966 11-05-2009 17:41:23 13.4 C 10.93 g/m*3 13.4 C 0 km/h
2967 11-05-2009 17:56:23 13.1 C 10.73 g/m*3 13.1 C 0 km/h
2968 11-05-2009 18:11:23 13.2 C 10.79 g/m*3 13.2 C 0 km/h
2969 11-05-2009 18:26:23 13.2 C 10.79 g/m*3 13.2 C 0 km/h
2970 11-05-2009 18:41:23 13.2 C 10.79 g/m*3 13.2 C 0 km/h
2971 11-05-2009 18:56:23 13 C 10.66 g/m*3 13 C 0 km/h
2972 11-05-2009 19:11:23 13 C 10.66 g/m*3 13 C 0 km/h
2973 11-05-2009 19:26:23 13 C 10.66 g/m*3 13 C 0 km/h
2974 11-05-2009 19:41:24 12.8 C 10.64 g/m*3 12.8 C 0 km/h
2975 11-05-2009 19:56:24 12.7 C 10.58 g/m*3 12.7 C 0 km/h
Sensor: Nr:Datum:Temp:Abs-Feuchte:Windchill:Wind:
Aussen-T/F 2976 11-05-2009 20:11:24 12.3 C 10.32 g/m*3 12.3 C 0 km/h
2977 11-05-2009 20:26:24 12.3 C 10.32 g/m*3 12.3 C 0 km/h
2978 11-05-2009 20:41:24 12.4 C 10.38 g/m*3 12.4 C 0 km/h
2979 11-05-2009 20:56:24 12.5 C 10.44 g/m*3 12.5 C 0 km/h
2980 11-05-2009 21:11:24 12.6 C 10.51 g/m*3 12.6 C 0 km/h
2981 11-05-2009 21:26:24 12.6 C 10.51 g/m*3 12.6 C 0 km/h
2982 11-05-2009 21:41:24 12.4 C 10.38 g/m*3 12.4 C 0 km/h
2983 11-05-2009 21:56:24 12.3 C 10.32 g/m*3 12.3 C 0 km/h
2984 11-05-2009 22:11:24 12.1 C 10.19 g/m*3 12.1 C 0 km/h
2985 11-05-2009 22:26:24 12.1 C 10.19 g/m*3 12.1 C 0 km/h
2986 11-05-2009 22:41:24 12 C 10.12 g/m*3 12 C 0 km/h
2987 11-05-2009 22:56:24 11.9 C 10.06 g/m*3 11.9 C 0 km/h
2988 11-05-2009 23:11:24 12 C 10.12 g/m*3 12 C 0 km/h
2989 11-05-2009 23:26:24 12 C 10.12 g/m*3 12 C 0 km/h
2990 11-05-2009 23:41:24 12 C 10.12 g/m*3 12 C 0 km/h
2991 11-05-2009 23:56:24 12 C 10.12 g/m*3 12 C 0 km/h
2992 12-05-2009 00:11:24 11.8 C 10 g/m*3 11.8 C 0 km/h
2993 12-05-2009 00:26:24 11.8 C 10 g/m*3 11.8 C 0 km/h
2994 12-05-2009 00:41:25 11.8 C 10 g/m*3 11.8 C 0 km/h
2995 12-05-2009 00:56:25 11.8 C 10 g/m*3 11.8 C 0 km/h
2996 12-05-2009 01:11:25 11.7 C 9.94 g/m*3 11.7 C 0 km/h
2997 12-05-2009 01:26:25 11.8 C 10 g/m*3 11.8 C 0 km/h
2998 12-05-2009 01:41:25 11.7 C 9.94 g/m*3 11.7 C 0 km/h
2999 12-05-2009 01:56:25 11.7 C 9.83 g/m*3 11.7 C 0 km/h
3000 12-05-2009 02:11:25 11.7 C 9.83 g/m*3 11.7 C 0 km/h
Sensor: Nr:Datum:Temp:Abs-Feuchte:Windchill:Wind:
Aussen-T/F 3001 12-05-2009 02:26:25 11.6 C 9.67 g/m*3 11.6 C 0 km/h
3002 12-05-2009 02:41:25 11.6 C 9.56 g/m*3 11.6 C 0 km/h
3003 12-05-2009 02:56:25 11.5 C 9.5 g/m*3 11.5 C 0 km/h
3004 12-05-2009 03:11:25 11.5 C 9.4 g/m*3 11.5 C 0 km/h
3005 12-05-2009 03:26:25 11.4 C 9.34 g/m*3 11.4 C 0 km/h
3006 12-05-2009 03:41:25 11.4 C 9.14 g/m*3 11.4 C 0 km/h
3007 12-05-2009 03:56:25 11.3 C 8.98 g/m*3 11.3 C 0 km/h
3008 12-05-2009 04:11:25 11.2 C 8.82 g/m*3 11.2 C 0 km/h
3009 12-05-2009 04:26:25 11.1 C 8.66 g/m*3 11.1 C 0 km/h
3010 12-05-2009 04:41:25 11.1 C 8.56 g/m*3 11.1 C 0 km/h
3011 12-05-2009 04:56:25 11 C 8.41 g/m*3 11 C 0 km/h
3012 12-05-2009 05:11:25 11 C 8.31 g/m*3 11 C 0 km/h
3013 12-05-2009 05:26:26 10.9 C 8.16 g/m*3 10.9 C 0 km/h
3014 12-05-2009 05:41:26 10.8 C 8.01 g/m*3 10.8 C 0 km/h
3015 12-05-2009 05:56:26 10.6 C 8 g/m*3 10.6 C 0 km/h
3016 12-05-2009 06:11:26 10.6 C 8 g/m*3 10.6 C 0 km/h
3017 12-05-2009 06:26:26 10.7 C 8.05 g/m*3 10.7 C 0 km/h
3018 12-05-2009 06:41:26 10.9 C 8.06 g/m*3 10.9 C 0 km/h
3019 12-05-2009 06:56:26 11.1 C 8.06 g/m*3 11.1 C 0 km/h
3020 12-05-2009 07:11:26 11.4 C 8.11 g/m*3 11.4 C 0 km/h
3021 12-05-2009 07:26:26 11.5 C 8.06 g/m*3 11.5 C 0 km/h
3022 12-05-2009 07:41:26 11.7 C 8.05 g/m*3 11.7 C 0 km/h
3023 12-05-2009 07:56:26 12.1 C 8.04 g/m*3 12.1 C 0 km/h
3024 12-05-2009 08:11:26 12.2 C 7.99 g/m*3 12.2 C 0 km/h
3025 12-05-2009 08:26:26 12.3 C 7.93 g/m*3 12.3 C 0 km/h
Sensor: Nr:Datum:Temp:Abs-Feuchte:Windchill:Wind:
Aussen-T/F 3026 12-05-2009 08:41:26 12.6 C 7.97 g/m*3 12.6 C 0 km/h
3027 12-05-2009 08:56:26 12.7 C 8.01 g/m*3 12.7 C 0 km/h
3028 12-05-2009 09:11:26 12.9 C 8 g/m*3 12.9 C 0 km/h
3029 12-05-2009 09:26:26 13.5 C 7.95 g/m*3 13.5 C 0 km/h
3030 12-05-2009 09:41:26 14.1 C 7.77 g/m*3 14.1 C 0 km/h
3031 12-05-2009 09:56:26 13.6 C 7.77 g/m*3 13.6 C 0 km/h
3032 12-05-2009 10:11:27 13.5 C 7.95 g/m*3 13.5 C 0 km/h
3033 12-05-2009 10:26:27 13.2 C 7.92 g/m*3 13.2 C 0 km/h
3034 12-05-2009 10:41:27 12.5 C 8.36 g/m*3 12.5 C 0 km/h
3035 12-05-2009 10:56:27 12 C 8.53 g/m*3 12 C 0 km/h
3036 12-05-2009 11:11:27 11.4 C 8.93 g/m*3 11.4 C 0 km/h
3037 12-05-2009 11:26:27 11.4 C 9.24 g/m*3 11.4 C 0 km/h
3038 12-05-2009 11:41:27 11.6 C 9.46 g/m*3 11.6 C 0 km/h
3039 12-05-2009 11:56:27 11.7 C 9.52 g/m*3 11.7 C 0 km/h
3040 12-05-2009 12:11:27 11.8 C 9.68 g/m*3 11.8 C 0 km/h
3041 12-05-2009 12:26:27 11.9 C 9.74 g/m*3 11.9 C 0 km/h
3042 12-05-2009 12:41:27 11.7 C 9.62 g/m*3 11.7 C 0 km/h
3043 12-05-2009 12:56:27 11.8 C 9.68 g/m*3 11.8 C 0 km/h
3044 12-05-2009 13:11:27 12.1 C 9.87 g/m*3 12.1 C 0 km/h
3045 12-05-2009 13:26:27 12 C 9.8 g/m*3 12 C 0 km/h
3046 12-05-2009 13:41:27 11.8 C 9.79 g/m*3 11.8 C 0 km/h
3047 12-05-2009 13:56:27 12.1 C 9.97 g/m*3 12.1 C 0 km/h
3048 12-05-2009 14:11:27 12.3 C 10.1 g/m*3 12.3 C 0 km/h
3049 12-05-2009 14:26:27 12 C 9.91 g/m*3 12 C 0 km/h
3050 12-05-2009 14:41:27 11.8 C 9.79 g/m*3 11.8 C 0 km/h
Sensor: Nr:Datum:Temp:Abs-Feuchte:Windchill:Wind:
Aussen-T/F 3051 12-05-2009 14:56:28 12.2 C 10.04 g/m*3 12.2 C 0 km/h
3052 12-05-2009 15:11:28 12.3 C 9.99 g/m*3 12.3 C 0 km/h
3053 12-05-2009 15:26:28 12.5 C 9.89 g/m*3 12.5 C 0 km/h
3054 12-05-2009 15:41:28 12.6 C 9.51 g/m*3 12.6 C 0 km/h
3055 12-05-2009 15:56:28 12.5 C 9.35 g/m*3 12.5 C 0 km/h
3056 12-05-2009 16:11:28 12.4 C 9.18 g/m*3 12.4 C 0 km/h
3057 12-05-2009 16:26:28 12.2 C 9.17 g/m*3 12.2 C 0 km/h
3058 12-05-2009 16:41:28 12 C 9.17 g/m*3 12 C 0 km/h
3059 12-05-2009 16:56:28 12 C 9.38 g/m*3 12 C 0 km/h
3060 12-05-2009 17:11:28 11.9 C 9.43 g/m*3 11.9 C 0 km/h
3061 12-05-2009 17:26:28 11.8 C 9.47 g/m*3 11.8 C 0 km/h
3062 12-05-2009 17:41:28 12.1 C 9.54 g/m*3 12.1 C 0 km/h
3063 12-05-2009 17:56:28 12.4 C 9.72 g/m*3 12.4 C 0 km/h
3064 12-05-2009 18:11:28 12.4 C 9.51 g/m*3 12.4 C 0 km/h
3065 12-05-2009 18:26:28 11.8 C 9.16 g/m*3 11.8 C 0 km/h
3066 12-05-2009 18:41:28 11.7 C 9.31 g/m*3 11.7 C 0 km/h
3067 12-05-2009 18:56:28 11.6 C 9.46 g/m*3 11.6 C 0 km/h
3068 12-05-2009 19:11:28 11.7 C 9.62 g/m*3 11.7 C 0 km/h
3069 12-05-2009 19:26:29 12 C 9.8 g/m*3 12 C 0 km/h
3070 12-05-2009 19:41:29 12.2 C 9.82 g/m*3 12.2 C 0 km/h
3071 12-05-2009 19:56:29 12.3 C 9.88 g/m*3 12.3 C 0 km/h
3072 12-05-2009 20:11:29 12.2 C 9.82 g/m*3 12.2 C 0 km/h
3073 12-05-2009 20:26:29 12.1 C 9.76 g/m*3 12.1 C 0 km/h
3074 12-05-2009 20:41:29 12.1 C 9.65 g/m*3 12.1 C 0 km/h
3075 12-05-2009 20:56:29 11.9 C 9.64 g/m*3 11.9 C 0 km/h
Sensor: Nr:Datum:Temp:Abs-Feuchte:Windchill:Wind:
Aussen-T/F 3076 12-05-2009 21:11:29 12 C 9.59 g/m*3 12 C 0 km/h
3077 12-05-2009 21:26:29 11.7 C 9.52 g/m*3 11.7 C 0 km/h
3078 12-05-2009 21:41:29 11.6 C 9.46 g/m*3 11.6 C 0 km/h
3079 12-05-2009 21:56:29 11.6 C 9.46 g/m*3 11.6 C 0 km/h
3080 12-05-2009 22:11:29 11.4 C 9.34 g/m*3 11.4 C 0 km/h
3081 12-05-2009 22:26:29 11.4 C 9.44 g/m*3 11.4 C 0 km/h
3082 12-05-2009 22:41:29 11.4 C 9.44 g/m*3 11.4 C 0 km/h
3083 12-05-2009 22:56:29 11.3 C 9.38 g/m*3 11.3 C 0 km/h
3084 12-05-2009 23:11:29 11.2 C 9.33 g/m*3 11.2 C 0 km/h
3085 12-05-2009 23:26:29 11.1 C 9.27 g/m*3 11.1 C 0 km/h
3086 12-05-2009 23:41:29 11.1 C 9.27 g/m*3 11.1 C 0 km/h
3087 12-05-2009 23:56:29 11 C 9.21 g/m*3 11 C 0 km/h
3088 13-05-2009 00:11:30 11 C 9.21 g/m*3 11 C 0 km/h
3089 13-05-2009 00:26:30 11 C 9.21 g/m*3 11 C 0 km/h
3090 13-05-2009 00:41:30 10.9 C 9.15 g/m*3 10.9 C 0 km/h
3091 13-05-2009 00:56:30 10.9 C 9.15 g/m*3 10.9 C 0 km/h
3092 13-05-2009 01:11:30 10.8 C 8.99 g/m*3 10.8 C 0 km/h
3093 13-05-2009 01:26:30 10.8 C 8.9 g/m*3 10.8 C 0 km/h
3094 13-05-2009 01:41:30 10.7 C 8.84 g/m*3 10.7 C 0 km/h
3095 13-05-2009 01:56:30 10.7 C 8.84 g/m*3 10.7 C 0 km/h
3096 13-05-2009 02:11:30 10.6 C 8.59 g/m*3 10.6 C 0 km/h
3097 13-05-2009 02:26:30 10.5 C 8.53 g/m*3 10.5 C 0 km/h
3098 13-05-2009 02:41:30 10.5 C 8.53 g/m*3 10.5 C 0 km/h
3099 13-05-2009 02:56:30 10.4 C 8.48 g/m*3 10.4 C 0 km/h
3100 13-05-2009 03:11:30 10.2 C 8.37 g/m*3 10.2 C 0 km/h
Sensor: Nr:Datum:Temp:Abs-Feuchte:Windchill:Wind:
Aussen-T/F 3101 13-05-2009 03:26:30 10.2 C 8.28 g/m*3 10.2 C 0 km/h
3102 13-05-2009 03:41:30 10.1 C 8.23 g/m*3 10.1 C 0 km/h
3103 13-05-2009 03:56:30 10.1 C 8.13 g/m*3 10.1 C 0 km/h
3104 13-05-2009 04:11:30 10.2 C 8.18 g/m*3 10.2 C 0 km/h
3105 13-05-2009 04:26:30 10.2 C 8.18 g/m*3 10.2 C 0 km/h
3106 13-05-2009 04:41:30 10.1 C 8.13 g/m*3 10.1 C 0 km/h
3107 13-05-2009 04:56:31 10.1 C 8.13 g/m*3 10.1 C 0 km/h
3108 13-05-2009 05:11:31 10.1 C 8.13 g/m*3 10.1 C 0 km/h
3109 13-05-2009 05:26:31 10.2 C 8.18 g/m*3 10.2 C 0 km/h
3110 13-05-2009 05:41:31 10.1 C 8.13 g/m*3 10.1 C 0 km/h
3111 13-05-2009 05:56:31 10.2 C 8.18 g/m*3 10.2 C 0 km/h
3112 13-05-2009 06:11:31 10.2 C 8.18 g/m*3 10.2 C 0 km/h
3113 13-05-2009 06:26:31 10.3 C 8.24 g/m*3 10.3 C 0 km/h
3114 13-05-2009 06:41:31 10.5 C 8.34 g/m*3 10.5 C 0 km/h
3115 13-05-2009 06:56:31 10.7 C 8.45 g/m*3 10.7 C 0 km/h
3116 13-05-2009 07:11:31 11 C 8.51 g/m*3 11 C 0 km/h
3117 13-05-2009 07:26:31 11.2 C 8.51 g/m*3 11.2 C 0 km/h
3118 13-05-2009 07:41:31 11.8 C 8.53 g/m*3 11.8 C 0 km/h
3119 13-05-2009 07:56:31 12.4 C 7.65 g/m*3 12.4 C 0 km/h
3120 13-05-2009 08:11:31 12.9 C 7.66 g/m*3 12.9 C 0 km/h
3121 13-05-2009 08:26:31 13 C 7.48 g/m*3 13 C 0 km/h
3122 13-05-2009 08:41:31 13.4 C 7.79 g/m*3 13.4 C 0 km/h
3123 13-05-2009 08:56:31 13.3 C 7.51 g/m*3 13.3 C 0 km/h
3124 13-05-2009 09:11:31 13.4 C 7.56 g/m*3 13.4 C 0 km/h
3125 13-05-2009 09:26:31 13.6 C 7.65 g/m*3 13.6 C 0 km/h
Sensor: Nr:Datum:Temp:Abs-Feuchte:Windchill:Wind:
Aussen-T/F 3126 13-05-2009 09:41:32 13.8 C 7.51 g/m*3 13.8 C 0 km/h
3127 13-05-2009 09:56:32 14.1 C 7.4 g/m*3 14.1 C 0 km/h
3128 13-05-2009 10:11:32 15.3 C 7.44 g/m*3 15.3 C 0 km/h
3129 13-05-2009 10:26:32 15.8 C 7.54 g/m*3 15.8 C 0 km/h
3130 13-05-2009 10:41:32 15.9 C 7.31 g/m*3 15.9 C 0 km/h
3131 13-05-2009 10:56:32 16.7 C 7.53 g/m*3 16.7 C 0 km/h
3132 13-05-2009 11:11:32 17.4 C 7.56 g/m*3 17.4 C 0 km/h
3133 13-05-2009 11:26:32 18.8 C 7.73 g/m*3 18.8 C 0 km/h
3134 13-05-2009 11:41:32 19.3 C 7.46 g/m*3 19.3 C 0 km/h
3135 13-05-2009 11:56:32 19.1 C 7.87 g/m*3 19.1 C 0 km/h
3136 13-05-2009 12:11:32 19.5 C 7.72 g/m*3 19.5 C 0 km/h
3137 13-05-2009 12:26:32 20.1 C 7.82 g/m*3 20.1 C 0 km/h
3138 13-05-2009 12:41:32 20.5 C 7.83 g/m*3 20.5 C 0 km/h
3139 13-05-2009 12:56:32 21.1 C 7.55 g/m*3 21.1 C 0 km/h
3140 13-05-2009 13:11:32 21.3 C 7.83 g/m*3 21.3 C 0 km/h
3141 13-05-2009 13:26:32 21.1 C 7.55 g/m*3 21.1 C 0 km/h
3142 13-05-2009 13:41:32 21.4 C 7.87 g/m*3 21.4 C 0 km/h
3143 13-05-2009 13:56:32 22 C 7.38 g/m*3 22 C 0 km/h
3144 13-05-2009 14:11:32 22.2 C 7.85 g/m*3 22.2 C 0 km/h
3145 13-05-2009 14:26:33 22.4 C 7.94 g/m*3 22.4 C 0 km/h
3146 13-05-2009 14:41:33 22.9 C 7.97 g/m*3 22.9 C 0 km/h
3147 13-05-2009 14:56:33 22.7 C 8.28 g/m*3 22.7 C 0 km/h
3148 13-05-2009 15:11:33 23.3 C 7.74 g/m*3 23.3 C 0 km/h
3149 13-05-2009 15:26:33 22.7 C 8.08 g/m*3 22.7 C 0 km/h
3150 13-05-2009 15:41:33 22.7 C 8.28 g/m*3 22.7 C 0 km/h
Sensor: Nr:Datum:Temp:Abs-Feuchte:Windchill:Wind:
Aussen-T/F 3151 13-05-2009 15:56:33 21.7 C 8.2 g/m*3 21.7 C 0 km/h
3152 13-05-2009 16:11:33 22 C 7.96 g/m*3 22 C 0 km/h
3153 13-05-2009 16:26:33 21.1 C 8.48 g/m*3 21.1 C 0 km/h
3154 13-05-2009 16:41:33 20.7 C 9.36 g/m*3 20.7 C 0 km/h
3155 13-05-2009 16:56:33 20.4 C 9.91 g/m*3 20.4 C 0 km/h
3156 13-05-2009 17:11:33 20.2 C 8.74 g/m*3 20.2 C 0 km/h
3157 13-05-2009 17:26:33 19.7 C 9.68 g/m*3 19.7 C 0 km/h
3158 13-05-2009 17:41:33 19.3 C 9.62 g/m*3 19.3 C 0 km/h
3159 13-05-2009 17:56:33 19.1 C 9.18 g/m*3 19.1 C 0 km/h
3160 13-05-2009 18:11:33 19.1 C 9.34 g/m*3 19.1 C 0 km/h
3161 13-05-2009 18:26:33 18.7 C 9.29 g/m*3 18.7 C 0 km/h
3162 13-05-2009 18:41:33 18.3 C 9.22 g/m*3 18.3 C 0 km/h
3163 13-05-2009 18:56:33 18.3 C 9.54 g/m*3 18.3 C 0 km/h
3164 13-05-2009 19:11:34 18.3 C 9.54 g/m*3 18.3 C 0 km/h
3165 13-05-2009 19:26:34 18.4 C 9.91 g/m*3 18.4 C 0 km/h
3166 13-05-2009 19:41:34 18.5 C 9.97 g/m*3 18.5 C 0 km/h
3167 13-05-2009 19:56:34 18.4 C 10.22 g/m*3 18.4 C 0 km/h
3168 13-05-2009 20:11:34 17.9 C 10.38 g/m*3 17.9 C 0 km/h
3169 13-05-2009 20:26:34 17.5 C 10.29 g/m*3 17.5 C 0 km/h
3170 13-05-2009 20:41:34 17.1 C 10.34 g/m*3 17.1 C 0 km/h
3171 13-05-2009 20:56:34 16.8 C 10.29 g/m*3 16.8 C 0 km/h
3172 13-05-2009 21:11:34 16.2 C 10.07 g/m*3 16.2 C 0 km/h
3173 13-05-2009 21:26:34 15.9 C 10.16 g/m*3 15.9 C 0 km/h
3174 13-05-2009 21:41:34 15.6 C 10.11 g/m*3 15.6 C 0 km/h
3175 13-05-2009 21:56:34 15.1 C 9.93 g/m*3 15.1 C 0 km/h
Sensor: Nr:Datum:Temp:Abs-Feuchte:Windchill:Wind:
Aussen-T/F 3176 13-05-2009 22:11:34 14.8 C 10.01 g/m*3 14.8 C 0 km/h
3177 13-05-2009 22:26:34 14.6 C 10.01 g/m*3 14.6 C 0 km/h
3178 13-05-2009 22:41:34 14.5 C 9.95 g/m*3 14.5 C 0 km/h
3179 13-05-2009 22:56:34 14.4 C 10.01 g/m*3 14.4 C 0 km/h
3180 13-05-2009 23:11:34 14.4 C 10.01 g/m*3 14.4 C 0 km/h
3181 13-05-2009 23:26:34 14.2 C 9.89 g/m*3 14.2 C 0 km/h
3182 13-05-2009 23:41:34 14 C 9.89 g/m*3 14 C 0 km/h
3183 13-05-2009 23:56:34 14.1 C 9.95 g/m*3 14.1 C 0 km/h
3184 14-05-2009 00:11:35 14 C 10.01 g/m*3 14 C 0 km/h
3185 14-05-2009 00:26:35 14 C 10.01 g/m*3 14 C 0 km/h
3186 14-05-2009 00:41:35 13.8 C 9.89 g/m*3 13.8 C 0 km/h
3187 14-05-2009 00:56:35 13.8 C 9.89 g/m*3 13.8 C 0 km/h
3188 14-05-2009 01:11:35 13.7 C 9.83 g/m*3 13.7 C 0 km/h
3189 14-05-2009 01:26:35 13.5 C 9.71 g/m*3 13.5 C 0 km/h
3190 14-05-2009 01:41:35 13.4 C 9.65 g/m*3 13.4 C 0 km/h
3191 14-05-2009 01:56:35 13.2 C 9.53 g/m*3 13.2 C 0 km/h
3192 14-05-2009 02:11:35 13.1 C 9.59 g/m*3 13.1 C 0 km/h
3193 14-05-2009 02:26:35 13 C 9.53 g/m*3 13 C 0 km/h
3194 14-05-2009 02:41:35 12.9 C 9.58 g/m*3 12.9 C 0 km/h
3195 14-05-2009 02:56:35 13 C 9.53 g/m*3 13 C 0 km/h
3196 14-05-2009 03:11:35 13.3 C 9.7 g/m*3 13.3 C 0 km/h
3197 14-05-2009 03:26:35 13.4 C 9.65 g/m*3 13.4 C 0 km/h
3198 14-05-2009 03:41:35 13.2 C 9.42 g/m*3 13.2 C 0 km/h
3199 14-05-2009 03:56:35 13.1 C 9.36 g/m*3 13.1 C 0 km/h
3200 14-05-2009 04:11:35 13.1 C 9.13 g/m*3 13.1 C 0 km/h
Sensor: Nr:Datum:Temp:Abs-Feuchte:Windchill:Wind:
Aussen-T/F 3201 14-05-2009 04:26:35 13.2 C 8.84 g/m*3 13.2 C 0 km/h
3202 14-05-2009 04:41:35 13.4 C 8.6 g/m*3 13.4 C 0 km/h
3203 14-05-2009 04:56:36 13.4 C 8.49 g/m*3 13.4 C 0 km/h
3204 14-05-2009 05:11:36 13.5 C 8.66 g/m*3 13.5 C 0 km/h
3205 14-05-2009 05:26:36 13.5 C 8.54 g/m*3 13.5 C 0 km/h
3206 14-05-2009 05:41:36 13.4 C 8.72 g/m*3 13.4 C 0 km/h
3207 14-05-2009 05:56:36 13.3 C 8.66 g/m*3 13.3 C 0 km/h
3208 14-05-2009 06:11:36 13.2 C 8.73 g/m*3 13.2 C 0 km/h
3209 14-05-2009 06:26:36 13.3 C 8.66 g/m*3 13.3 C 0 km/h
3210 14-05-2009 06:41:36 13.4 C 8.6 g/m*3 13.4 C 0 km/h
3211 14-05-2009 06:56:36 13.6 C 8.36 g/m*3 13.6 C 0 km/h
3212 14-05-2009 07:11:36 13.7 C 8.64 g/m*3 13.7 C 0 km/h
3213 14-05-2009 07:26:36 13.8 C 8.82 g/m*3 13.8 C 0 km/h
3214 14-05-2009 07:41:36 13.8 C 8.82 g/m*3 13.8 C 0 km/h
3215 14-05-2009 07:56:36 13.7 C 8.76 g/m*3 13.7 C 0 km/h
3216 14-05-2009 08:11:36 13.7 C 8.76 g/m*3 13.7 C 0 km/h
3217 14-05-2009 08:26:36 13.9 C 8.75 g/m*3 13.9 C 0 km/h
3218 14-05-2009 08:41:36 14.4 C 8.53 g/m*3 14.4 C 0 km/h
3219 14-05-2009 08:56:36 14.5 C 8.71 g/m*3 14.5 C 0 km/h
3220 14-05-2009 09:11:36 14.7 C 8.81 g/m*3 14.7 C 0 km/h
3221 14-05-2009 09:26:36 15 C 8.59 g/m*3 15 C 0 km/h
3222 14-05-2009 09:41:37 15.1 C 7.74 g/m*3 15.1 C 0 km/h
3223 14-05-2009 09:56:37 15.5 C 8.06 g/m*3 15.5 C 0 km/h
3224 14-05-2009 10:11:37 15.5 C 8.06 g/m*3 15.5 C 0 km/h
3225 14-05-2009 10:26:37 15.5 C 8.46 g/m*3 15.5 C 0 km/h
Sensor: Nr:Datum:Temp:Abs-Feuchte:Windchill:Wind:
Aussen-T/F 3226 14-05-2009 10:41:37 15.6 C 8.11 g/m*3 15.6 C 0 km/h
3227 14-05-2009 10:56:37 15.6 C 7.98 g/m*3 15.6 C 0 km/h
3228 14-05-2009 11:11:37 15.8 C 7.94 g/m*3 15.8 C 0 km/h
3229 14-05-2009 11:26:37 16.3 C 8.19 g/m*3 16.3 C 0 km/h
3230 14-05-2009 11:41:37 16.9 C 8.2 g/m*3 16.9 C 0 km/h
3231 14-05-2009 11:56:37 17.2 C 8.2 g/m*3 17.2 C 0 km/h
3232 14-05-2009 12:11:37 17 C 8.39 g/m*3 17 C 0 km/h
3233 14-05-2009 12:26:37 17 C 8.54 g/m*3 17 C 0 km/h
3234 14-05-2009 12:41:37 17.4 C 8.45 g/m*3 17.4 C 0 km/h
3235 14-05-2009 12:56:37 17.5 C 8.8 g/m*3 17.5 C